<?xml version="1.0" encoding="UTF-8" standalone="no" ?>
<gpx xmlns="http://www.topografix.com/GPX/1/1" xmlns:xsi="http://www.w3.org/2001/XMLSchema-instance" xsi:schemaLocation="http://www.topografix.com/GPX/1/1 http://www.topografix.com/GPX/1/1/gpx.xsd" version="1.1" creator="VisuGPX - https://www.visugpx.com">
  <metadata>
    <name>CHAUX LA LOTIÈRE</name>
    <desc><![CDATA[CHAUX LA LOTIÈRE]]></desc>
  </metadata>
  <trk>
    <name><![CDATA[CHAUX LA LOTIERE]]></name>
    <trkseg>
      <trkpt lat="47.38078" lon="5.98342">
        <ele>263.2</ele>
        <time>2012-05-24T12:09:16Z</time>
      </trkpt>
      <trkpt lat="47.38078" lon="5.98342">
        <ele>329.4</ele>
        <time>2012-05-24T12:09:26Z</time>
      </trkpt>
      <trkpt lat="47.38073" lon="5.98372">
        <ele>312.7</ele>
        <time>2012-05-24T12:09:28Z</time>
      </trkpt>
      <trkpt lat="47.38073" lon="5.98362">
        <ele>312.7</ele>
        <time>2012-05-24T12:09:33Z</time>
      </trkpt>
      <trkpt lat="47.38077" lon="5.98352">
        <ele>316</ele>
        <time>2012-05-24T12:09:39Z</time>
      </trkpt>
      <trkpt lat="47.38082" lon="5.98345">
        <ele>317.1</ele>
        <time>2012-05-24T12:09:43Z</time>
      </trkpt>
      <trkpt lat="47.38087" lon="5.98336">
        <ele>317.9</ele>
        <time>2012-05-24T12:09:48Z</time>
      </trkpt>
      <trkpt lat="47.38088" lon="5.98326">
        <ele>318.8</ele>
        <time>2012-05-24T12:09:53Z</time>
      </trkpt>
      <trkpt lat="47.38092" lon="5.98318">
        <ele>319</ele>
        <time>2012-05-24T12:10:00Z</time>
      </trkpt>
      <trkpt lat="47.38092" lon="5.98318">
        <ele>262.7</ele>
        <time>2012-05-24T12:10:11Z</time>
      </trkpt>
      <trkpt lat="47.38092" lon="5.98318">
        <ele>262.7</ele>
        <time>2012-05-24T12:10:17Z</time>
      </trkpt>
      <trkpt lat="47.38107" lon="5.98311">
        <ele>317.6</ele>
        <time>2012-05-24T12:10:19Z</time>
      </trkpt>
      <trkpt lat="47.38113" lon="5.98306">
        <ele>317.3</ele>
        <time>2012-05-24T12:10:23Z</time>
      </trkpt>
      <trkpt lat="47.38116" lon="5.98294">
        <ele>318.5</ele>
        <time>2012-05-24T12:10:34Z</time>
      </trkpt>
      <trkpt lat="47.38118" lon="5.98284">
        <ele>317.6</ele>
        <time>2012-05-24T12:10:38Z</time>
      </trkpt>
      <trkpt lat="47.38125" lon="5.98279">
        <ele>316.8</ele>
        <time>2012-05-24T12:10:41Z</time>
      </trkpt>
      <trkpt lat="47.38131" lon="5.98275">
        <ele>317.3</ele>
        <time>2012-05-24T12:10:44Z</time>
      </trkpt>
      <trkpt lat="47.38133" lon="5.98266">
        <ele>316.9</ele>
        <time>2012-05-24T12:10:48Z</time>
      </trkpt>
      <trkpt lat="47.3814" lon="5.98258">
        <ele>317.5</ele>
        <time>2012-05-24T12:10:54Z</time>
      </trkpt>
      <trkpt lat="47.38145" lon="5.9825">
        <ele>316.5</ele>
        <time>2012-05-24T12:11:01Z</time>
      </trkpt>
      <trkpt lat="47.38147" lon="5.98241">
        <ele>314.8</ele>
        <time>2012-05-24T12:11:06Z</time>
      </trkpt>
      <trkpt lat="47.38147" lon="5.98231">
        <ele>313.8</ele>
        <time>2012-05-24T12:11:10Z</time>
      </trkpt>
      <trkpt lat="47.3815" lon="5.9822">
        <ele>312.5</ele>
        <time>2012-05-24T12:11:21Z</time>
      </trkpt>
      <trkpt lat="47.38153" lon="5.9821">
        <ele>312</ele>
        <time>2012-05-24T12:11:27Z</time>
      </trkpt>
      <trkpt lat="47.38156" lon="5.982">
        <ele>311.5</ele>
        <time>2012-05-24T12:11:32Z</time>
      </trkpt>
      <trkpt lat="47.38158" lon="5.9819">
        <ele>311</ele>
        <time>2012-05-24T12:11:38Z</time>
      </trkpt>
      <trkpt lat="47.38161" lon="5.98182">
        <ele>310.7</ele>
        <time>2012-05-24T12:11:42Z</time>
      </trkpt>
      <trkpt lat="47.38163" lon="5.98172">
        <ele>311.4</ele>
        <time>2012-05-24T12:11:47Z</time>
      </trkpt>
      <trkpt lat="47.3816" lon="5.98163">
        <ele>311</ele>
        <time>2012-05-24T12:11:58Z</time>
      </trkpt>
      <trkpt lat="47.3816" lon="5.98163">
        <ele>254.9</ele>
        <time>2012-05-24T12:12:09Z</time>
      </trkpt>
      <trkpt lat="47.3816" lon="5.98163">
        <ele>254.9</ele>
        <time>2012-05-24T12:12:11Z</time>
      </trkpt>
      <trkpt lat="47.38158" lon="5.98143">
        <ele>310.3</ele>
        <time>2012-05-24T12:12:17Z</time>
      </trkpt>
      <trkpt lat="47.38158" lon="5.98133">
        <ele>311</ele>
        <time>2012-05-24T12:12:20Z</time>
      </trkpt>
      <trkpt lat="47.38162" lon="5.98125">
        <ele>312.1</ele>
        <time>2012-05-24T12:12:23Z</time>
      </trkpt>
      <trkpt lat="47.38167" lon="5.98117">
        <ele>312.4</ele>
        <time>2012-05-24T12:12:28Z</time>
      </trkpt>
      <trkpt lat="47.38173" lon="5.9811">
        <ele>311.4</ele>
        <time>2012-05-24T12:12:31Z</time>
      </trkpt>
      <trkpt lat="47.38177" lon="5.98102">
        <ele>310.9</ele>
        <time>2012-05-24T12:12:36Z</time>
      </trkpt>
      <trkpt lat="47.38181" lon="5.98095">
        <ele>309.7</ele>
        <time>2012-05-24T12:12:42Z</time>
      </trkpt>
      <trkpt lat="47.38181" lon="5.98095">
        <ele>250.4</ele>
        <time>2012-05-24T12:12:53Z</time>
      </trkpt>
      <trkpt lat="47.38181" lon="5.98095">
        <ele>250.4</ele>
        <time>2012-05-24T12:13:32Z</time>
      </trkpt>
      <trkpt lat="47.3819" lon="5.98075">
        <ele>304.5</ele>
        <time>2012-05-24T12:13:40Z</time>
      </trkpt>
      <trkpt lat="47.38189" lon="5.98063">
        <ele>301.9</ele>
        <time>2012-05-24T12:13:47Z</time>
      </trkpt>
      <trkpt lat="47.3819" lon="5.98052">
        <ele>302.9</ele>
        <time>2012-05-24T12:13:57Z</time>
      </trkpt>
      <trkpt lat="47.38185" lon="5.98044">
        <ele>300.5</ele>
        <time>2012-05-24T12:14:03Z</time>
      </trkpt>
      <trkpt lat="47.38185" lon="5.98033">
        <ele>300.9</ele>
        <time>2012-05-24T12:14:12Z</time>
      </trkpt>
      <trkpt lat="47.38183" lon="5.98023">
        <ele>301.5</ele>
        <time>2012-05-24T12:14:16Z</time>
      </trkpt>
      <trkpt lat="47.38183" lon="5.98012">
        <ele>301.7</ele>
        <time>2012-05-24T12:14:26Z</time>
      </trkpt>
      <trkpt lat="47.38183" lon="5.98012">
        <ele>247</ele>
        <time>2012-05-24T12:14:37Z</time>
      </trkpt>
      <trkpt lat="47.38183" lon="5.98012">
        <ele>247</ele>
        <time>2012-05-24T12:14:39Z</time>
      </trkpt>
      <trkpt lat="47.38191" lon="5.98003">
        <ele>299.6</ele>
        <time>2012-05-24T12:14:50Z</time>
      </trkpt>
      <trkpt lat="47.38188" lon="5.98012">
        <ele>299.6</ele>
        <time>2012-05-24T12:14:57Z</time>
      </trkpt>
      <trkpt lat="47.38188" lon="5.98012">
        <ele>247.2</ele>
        <time>2012-05-24T12:15:08Z</time>
      </trkpt>
      <trkpt lat="47.38188" lon="5.98012">
        <ele>247.2</ele>
        <time>2012-05-24T12:16:24Z</time>
      </trkpt>
      <trkpt lat="47.38205" lon="5.98022">
        <ele>299.6</ele>
        <time>2012-05-24T12:16:26Z</time>
      </trkpt>
      <trkpt lat="47.38213" lon="5.98021">
        <ele>301.7</ele>
        <time>2012-05-24T12:16:32Z</time>
      </trkpt>
      <trkpt lat="47.38222" lon="5.9802">
        <ele>303.9</ele>
        <time>2012-05-24T12:16:36Z</time>
      </trkpt>
      <trkpt lat="47.38231" lon="5.98024">
        <ele>304.5</ele>
        <time>2012-05-24T12:16:39Z</time>
      </trkpt>
      <trkpt lat="47.38231" lon="5.98024">
        <ele>249.1</ele>
        <time>2012-05-24T12:16:51Z</time>
      </trkpt>
      <trkpt lat="47.38231" lon="5.98024">
        <ele>249.1</ele>
        <time>2012-05-24T12:17:04Z</time>
      </trkpt>
      <trkpt lat="47.38247" lon="5.98028">
        <ele>305.5</ele>
        <time>2012-05-24T12:17:09Z</time>
      </trkpt>
      <trkpt lat="47.38253" lon="5.9803">
        <ele>306.3</ele>
        <time>2012-05-24T12:17:12Z</time>
      </trkpt>
      <trkpt lat="47.3826" lon="5.98033">
        <ele>306.1</ele>
        <time>2012-05-24T12:17:15Z</time>
      </trkpt>
      <trkpt lat="47.38267" lon="5.98037">
        <ele>306.9</ele>
        <time>2012-05-24T12:17:19Z</time>
      </trkpt>
      <trkpt lat="47.38273" lon="5.98044">
        <ele>306.4</ele>
        <time>2012-05-24T12:17:25Z</time>
      </trkpt>
      <trkpt lat="47.38277" lon="5.98051">
        <ele>305.6</ele>
        <time>2012-05-24T12:17:35Z</time>
      </trkpt>
      <trkpt lat="47.38283" lon="5.98055">
        <ele>305.7</ele>
        <time>2012-05-24T12:17:39Z</time>
      </trkpt>
      <trkpt lat="47.3829" lon="5.98057">
        <ele>304.9</ele>
        <time>2012-05-24T12:17:45Z</time>
      </trkpt>
      <trkpt lat="47.3829" lon="5.98057">
        <ele>254.4</ele>
        <time>2012-05-24T12:17:57Z</time>
      </trkpt>
      <trkpt lat="47.3829" lon="5.98057">
        <ele>254.4</ele>
        <time>2012-05-24T12:18:03Z</time>
      </trkpt>
      <trkpt lat="47.38304" lon="5.98052">
        <ele>306.4</ele>
        <time>2012-05-24T12:18:06Z</time>
      </trkpt>
      <trkpt lat="47.38312" lon="5.98053">
        <ele>307.1</ele>
        <time>2012-05-24T12:18:08Z</time>
      </trkpt>
      <trkpt lat="47.38314" lon="5.98043">
        <ele>306.1</ele>
        <time>2012-05-24T12:18:18Z</time>
      </trkpt>
      <trkpt lat="47.38315" lon="5.98034">
        <ele>307.5</ele>
        <time>2012-05-24T12:18:27Z</time>
      </trkpt>
      <trkpt lat="47.38322" lon="5.98028">
        <ele>308.3</ele>
        <time>2012-05-24T12:18:31Z</time>
      </trkpt>
      <trkpt lat="47.38323" lon="5.98019">
        <ele>311.3</ele>
        <time>2012-05-24T12:18:37Z</time>
      </trkpt>
      <trkpt lat="47.38327" lon="5.98011">
        <ele>310.8</ele>
        <time>2012-05-24T12:18:43Z</time>
      </trkpt>
      <trkpt lat="47.38328" lon="5.98">
        <ele>311</ele>
        <time>2012-05-24T12:18:48Z</time>
      </trkpt>
      <trkpt lat="47.38327" lon="5.97991">
        <ele>310.8</ele>
        <time>2012-05-24T12:18:53Z</time>
      </trkpt>
      <trkpt lat="47.3833" lon="5.9798">
        <ele>311.7</ele>
        <time>2012-05-24T12:18:57Z</time>
      </trkpt>
      <trkpt lat="47.38332" lon="5.97971">
        <ele>310.9</ele>
        <time>2012-05-24T12:19:02Z</time>
      </trkpt>
      <trkpt lat="47.38338" lon="5.97965">
        <ele>310.2</ele>
        <time>2012-05-24T12:19:09Z</time>
      </trkpt>
      <trkpt lat="47.38341" lon="5.97956">
        <ele>310.2</ele>
        <time>2012-05-24T12:19:15Z</time>
      </trkpt>
      <trkpt lat="47.38348" lon="5.97947">
        <ele>310.8</ele>
        <time>2012-05-24T12:19:22Z</time>
      </trkpt>
      <trkpt lat="47.38353" lon="5.9794">
        <ele>311.9</ele>
        <time>2012-05-24T12:19:28Z</time>
      </trkpt>
      <trkpt lat="47.38353" lon="5.9793">
        <ele>309.8</ele>
        <time>2012-05-24T12:19:35Z</time>
      </trkpt>
      <trkpt lat="47.38353" lon="5.9793">
        <ele>254.9</ele>
        <time>2012-05-24T12:19:47Z</time>
      </trkpt>
      <trkpt lat="47.38353" lon="5.9793">
        <ele>254.9</ele>
        <time>2012-05-24T12:19:47Z</time>
      </trkpt>
      <trkpt lat="47.38365" lon="5.97926">
        <ele>311.6</ele>
        <time>2012-05-24T12:19:54Z</time>
      </trkpt>
      <trkpt lat="47.38365" lon="5.97926">
        <ele>255.5</ele>
        <time>2012-05-24T12:20:05Z</time>
      </trkpt>
      <trkpt lat="47.38365" lon="5.97926">
        <ele>255.5</ele>
        <time>2012-05-24T12:20:06Z</time>
      </trkpt>
      <trkpt lat="47.38368" lon="5.97914">
        <ele>311</ele>
        <time>2012-05-24T12:20:14Z</time>
      </trkpt>
      <trkpt lat="47.38376" lon="5.97913">
        <ele>312.1</ele>
        <time>2012-05-24T12:20:19Z</time>
      </trkpt>
      <trkpt lat="47.38384" lon="5.9791">
        <ele>313.7</ele>
        <time>2012-05-24T12:20:29Z</time>
      </trkpt>
      <trkpt lat="47.38384" lon="5.9791">
        <ele>256.6</ele>
        <time>2012-05-24T12:20:40Z</time>
      </trkpt>
      <trkpt lat="47.38384" lon="5.9791">
        <ele>256.6</ele>
        <time>2012-05-24T12:20:47Z</time>
      </trkpt>
      <trkpt lat="47.38401" lon="5.97902">
        <ele>313.4</ele>
        <time>2012-05-24T12:20:51Z</time>
      </trkpt>
      <trkpt lat="47.3841" lon="5.97896">
        <ele>312.4</ele>
        <time>2012-05-24T12:21:00Z</time>
      </trkpt>
      <trkpt lat="47.38416" lon="5.97888">
        <ele>310.4</ele>
        <time>2012-05-24T12:21:09Z</time>
      </trkpt>
      <trkpt lat="47.38422" lon="5.97883">
        <ele>310.4</ele>
        <time>2012-05-24T12:21:15Z</time>
      </trkpt>
      <trkpt lat="47.3843" lon="5.97882">
        <ele>310.4</ele>
        <time>2012-05-24T12:21:19Z</time>
      </trkpt>
      <trkpt lat="47.38436" lon="5.97881">
        <ele>311.6</ele>
        <time>2012-05-24T12:21:25Z</time>
      </trkpt>
      <trkpt lat="47.38436" lon="5.97881">
        <ele>261.3</ele>
        <time>2012-05-24T12:21:36Z</time>
      </trkpt>
      <trkpt lat="47.38436" lon="5.97881">
        <ele>261.3</ele>
        <time>2012-05-24T12:21:38Z</time>
      </trkpt>
      <trkpt lat="47.38444" lon="5.97863">
        <ele>312.5</ele>
        <time>2012-05-24T12:21:41Z</time>
      </trkpt>
      <trkpt lat="47.3845" lon="5.97855">
        <ele>312.9</ele>
        <time>2012-05-24T12:21:51Z</time>
      </trkpt>
      <trkpt lat="47.38458" lon="5.97854">
        <ele>313.3</ele>
        <time>2012-05-24T12:21:53Z</time>
      </trkpt>
      <trkpt lat="47.38463" lon="5.97847">
        <ele>314</ele>
        <time>2012-05-24T12:21:56Z</time>
      </trkpt>
      <trkpt lat="47.38469" lon="5.97844">
        <ele>314.9</ele>
        <time>2012-05-24T12:22:00Z</time>
      </trkpt>
      <trkpt lat="47.38475" lon="5.97838">
        <ele>315.4</ele>
        <time>2012-05-24T12:22:07Z</time>
      </trkpt>
      <trkpt lat="47.38481" lon="5.97837">
        <ele>316.6</ele>
        <time>2012-05-24T12:22:11Z</time>
      </trkpt>
      <trkpt lat="47.38488" lon="5.97832">
        <ele>316.4</ele>
        <time>2012-05-24T12:22:16Z</time>
      </trkpt>
      <trkpt lat="47.38495" lon="5.97831">
        <ele>316.9</ele>
        <time>2012-05-24T12:22:19Z</time>
      </trkpt>
      <trkpt lat="47.38502" lon="5.9783">
        <ele>317.6</ele>
        <time>2012-05-24T12:22:27Z</time>
      </trkpt>
      <trkpt lat="47.38507" lon="5.97822">
        <ele>318.9</ele>
        <time>2012-05-24T12:22:35Z</time>
      </trkpt>
      <trkpt lat="47.38514" lon="5.9782">
        <ele>318</ele>
        <time>2012-05-24T12:22:40Z</time>
      </trkpt>
      <trkpt lat="47.38521" lon="5.97822">
        <ele>317.2</ele>
        <time>2012-05-24T12:22:45Z</time>
      </trkpt>
      <trkpt lat="47.38529" lon="5.97823">
        <ele>319.6</ele>
        <time>2012-05-24T12:22:55Z</time>
      </trkpt>
      <trkpt lat="47.38529" lon="5.97823">
        <ele>267.7</ele>
        <time>2012-05-24T12:23:06Z</time>
      </trkpt>
      <trkpt lat="47.38529" lon="5.97823">
        <ele>267.7</ele>
        <time>2012-05-24T12:23:09Z</time>
      </trkpt>
      <trkpt lat="47.38529" lon="5.97823">
        <ele>267.7</ele>
        <time>2012-05-24T12:23:21Z</time>
      </trkpt>
      <trkpt lat="47.38529" lon="5.97823">
        <ele>267.7</ele>
        <time>2012-05-24T12:23:33Z</time>
      </trkpt>
      <trkpt lat="47.38529" lon="5.97823">
        <ele>267.7</ele>
        <time>2012-05-24T12:23:45Z</time>
      </trkpt>
      <trkpt lat="47.38529" lon="5.97823">
        <ele>267.7</ele>
        <time>2012-05-24T12:23:45Z</time>
      </trkpt>
      <trkpt lat="47.38559" lon="5.97816">
        <ele>321.4</ele>
        <time>2012-05-24T12:23:46Z</time>
      </trkpt>
      <trkpt lat="47.38569" lon="5.97809">
        <ele>320.4</ele>
        <time>2012-05-24T12:23:48Z</time>
      </trkpt>
      <trkpt lat="47.38576" lon="5.97807">
        <ele>320.2</ele>
        <time>2012-05-24T12:23:54Z</time>
      </trkpt>
      <trkpt lat="47.38584" lon="5.97804">
        <ele>319.5</ele>
        <time>2012-05-24T12:23:59Z</time>
      </trkpt>
      <trkpt lat="47.38591" lon="5.97805">
        <ele>319.3</ele>
        <time>2012-05-24T12:24:03Z</time>
      </trkpt>
      <trkpt lat="47.38597" lon="5.978">
        <ele>320.3</ele>
        <time>2012-05-24T12:24:08Z</time>
      </trkpt>
      <trkpt lat="47.38604" lon="5.978">
        <ele>319.7</ele>
        <time>2012-05-24T12:24:12Z</time>
      </trkpt>
      <trkpt lat="47.38611" lon="5.97802">
        <ele>320.6</ele>
        <time>2012-05-24T12:24:19Z</time>
      </trkpt>
      <trkpt lat="47.38617" lon="5.97795">
        <ele>321.9</ele>
        <time>2012-05-24T12:24:27Z</time>
      </trkpt>
      <trkpt lat="47.38627" lon="5.97801">
        <ele>321.2</ele>
        <time>2012-05-24T12:24:34Z</time>
      </trkpt>
      <trkpt lat="47.38627" lon="5.97801">
        <ele>272.5</ele>
        <time>2012-05-24T12:24:45Z</time>
      </trkpt>
      <trkpt lat="47.38627" lon="5.97801">
        <ele>272.5</ele>
        <time>2012-05-24T12:24:49Z</time>
      </trkpt>
      <trkpt lat="47.38627" lon="5.97801">
        <ele>272.5</ele>
        <time>2012-05-24T12:25:00Z</time>
      </trkpt>
      <trkpt lat="47.38627" lon="5.97801">
        <ele>272.5</ele>
        <time>2012-05-24T12:25:02Z</time>
      </trkpt>
      <trkpt lat="47.38649" lon="5.97789">
        <ele>325.3</ele>
        <time>2012-05-24T12:25:05Z</time>
      </trkpt>
      <trkpt lat="47.38655" lon="5.97783">
        <ele>325.9</ele>
        <time>2012-05-24T12:25:10Z</time>
      </trkpt>
      <trkpt lat="47.38659" lon="5.97775">
        <ele>326.5</ele>
        <time>2012-05-24T12:25:15Z</time>
      </trkpt>
      <trkpt lat="47.3866" lon="5.97764">
        <ele>328.5</ele>
        <time>2012-05-24T12:25:22Z</time>
      </trkpt>
      <trkpt lat="47.38665" lon="5.97756">
        <ele>329.7</ele>
        <time>2012-05-24T12:25:29Z</time>
      </trkpt>
      <trkpt lat="47.38665" lon="5.97746">
        <ele>329.5</ele>
        <time>2012-05-24T12:25:34Z</time>
      </trkpt>
      <trkpt lat="47.38668" lon="5.97734">
        <ele>328.1</ele>
        <time>2012-05-24T12:25:42Z</time>
      </trkpt>
      <trkpt lat="47.38671" lon="5.97725">
        <ele>327.2</ele>
        <time>2012-05-24T12:25:48Z</time>
      </trkpt>
      <trkpt lat="47.38674" lon="5.97716">
        <ele>326.8</ele>
        <time>2012-05-24T12:25:55Z</time>
      </trkpt>
      <trkpt lat="47.38679" lon="5.9771">
        <ele>326.9</ele>
        <time>2012-05-24T12:26:01Z</time>
      </trkpt>
      <trkpt lat="47.38682" lon="5.97699">
        <ele>327.3</ele>
        <time>2012-05-24T12:26:07Z</time>
      </trkpt>
      <trkpt lat="47.38686" lon="5.9769">
        <ele>327.8</ele>
        <time>2012-05-24T12:26:12Z</time>
      </trkpt>
      <trkpt lat="47.3869" lon="5.97681">
        <ele>327.5</ele>
        <time>2012-05-24T12:26:20Z</time>
      </trkpt>
      <trkpt lat="47.38693" lon="5.97672">
        <ele>326.7</ele>
        <time>2012-05-24T12:26:27Z</time>
      </trkpt>
      <trkpt lat="47.38694" lon="5.97662">
        <ele>328.7</ele>
        <time>2012-05-24T12:26:32Z</time>
      </trkpt>
      <trkpt lat="47.38702" lon="5.97661">
        <ele>328.6</ele>
        <time>2012-05-24T12:26:37Z</time>
      </trkpt>
      <trkpt lat="47.38698" lon="5.97653">
        <ele>329.3</ele>
        <time>2012-05-24T12:26:42Z</time>
      </trkpt>
      <trkpt lat="47.38698" lon="5.97653">
        <ele>268.8</ele>
        <time>2012-05-24T12:26:53Z</time>
      </trkpt>
      <trkpt lat="47.38698" lon="5.97653">
        <ele>268.8</ele>
        <time>2012-05-24T12:27:24Z</time>
      </trkpt>
      <trkpt lat="47.38733" lon="5.97611">
        <ele>332</ele>
        <time>2012-05-24T12:27:34Z</time>
      </trkpt>
      <trkpt lat="47.38722" lon="5.97606">
        <ele>330.1</ele>
        <time>2012-05-24T12:27:36Z</time>
      </trkpt>
      <trkpt lat="47.38725" lon="5.97597">
        <ele>329.6</ele>
        <time>2012-05-24T12:27:46Z</time>
      </trkpt>
      <trkpt lat="47.38721" lon="5.97586">
        <ele>328.9</ele>
        <time>2012-05-24T12:27:51Z</time>
      </trkpt>
      <trkpt lat="47.38726" lon="5.97576">
        <ele>330.9</ele>
        <time>2012-05-24T12:28:00Z</time>
      </trkpt>
      <trkpt lat="47.3872" lon="5.97561">
        <ele>331.6</ele>
        <time>2012-05-24T12:28:07Z</time>
      </trkpt>
      <trkpt lat="47.38717" lon="5.9755">
        <ele>326.4</ele>
        <time>2012-05-24T12:28:14Z</time>
      </trkpt>
      <trkpt lat="47.38718" lon="5.9754">
        <ele>324.5</ele>
        <time>2012-05-24T12:28:17Z</time>
      </trkpt>
      <trkpt lat="47.38718" lon="5.9754">
        <ele>262.3</ele>
        <time>2012-05-24T12:28:29Z</time>
      </trkpt>
      <trkpt lat="47.38718" lon="5.9754">
        <ele>262.3</ele>
        <time>2012-05-24T12:28:31Z</time>
      </trkpt>
      <trkpt lat="47.38717" lon="5.97529">
        <ele>317.8</ele>
        <time>2012-05-24T12:28:41Z</time>
      </trkpt>
      <trkpt lat="47.38712" lon="5.97523">
        <ele>319.1</ele>
        <time>2012-05-24T12:28:46Z</time>
      </trkpt>
      <trkpt lat="47.38715" lon="5.97514">
        <ele>320.5</ele>
        <time>2012-05-24T12:28:53Z</time>
      </trkpt>
      <trkpt lat="47.38715" lon="5.97514">
        <ele>261.2</ele>
        <time>2012-05-24T12:29:05Z</time>
      </trkpt>
      <trkpt lat="47.38715" lon="5.97514">
        <ele>261.2</ele>
        <time>2012-05-24T12:29:24Z</time>
      </trkpt>
      <trkpt lat="47.38732" lon="5.97494">
        <ele>317.8</ele>
        <time>2012-05-24T12:29:26Z</time>
      </trkpt>
      <trkpt lat="47.38734" lon="5.97484">
        <ele>317.5</ele>
        <time>2012-05-24T12:29:32Z</time>
      </trkpt>
      <trkpt lat="47.38731" lon="5.97475">
        <ele>319</ele>
        <time>2012-05-24T12:29:39Z</time>
      </trkpt>
      <trkpt lat="47.38731" lon="5.97463">
        <ele>320</ele>
        <time>2012-05-24T12:29:47Z</time>
      </trkpt>
      <trkpt lat="47.38737" lon="5.97458">
        <ele>318.9</ele>
        <time>2012-05-24T12:29:49Z</time>
      </trkpt>
      <trkpt lat="47.38741" lon="5.97446">
        <ele>316.5</ele>
        <time>2012-05-24T12:29:53Z</time>
      </trkpt>
      <trkpt lat="47.38737" lon="5.97439">
        <ele>316.2</ele>
        <time>2012-05-24T12:29:59Z</time>
      </trkpt>
      <trkpt lat="47.38737" lon="5.97439">
        <ele>262.9</ele>
        <time>2012-05-24T12:30:10Z</time>
      </trkpt>
      <trkpt lat="47.38737" lon="5.97439">
        <ele>262.9</ele>
        <time>2012-05-24T12:30:17Z</time>
      </trkpt>
      <trkpt lat="47.38736" lon="5.97416">
        <ele>315.5</ele>
        <time>2012-05-24T12:30:19Z</time>
      </trkpt>
      <trkpt lat="47.38736" lon="5.97416">
        <ele>262</ele>
        <time>2012-05-24T12:30:31Z</time>
      </trkpt>
      <trkpt lat="47.38736" lon="5.97416">
        <ele>262</ele>
        <time>2012-05-24T12:30:35Z</time>
      </trkpt>
      <trkpt lat="47.38745" lon="5.97392">
        <ele>313.2</ele>
        <time>2012-05-24T12:30:41Z</time>
      </trkpt>
      <trkpt lat="47.38751" lon="5.97385">
        <ele>313.9</ele>
        <time>2012-05-24T12:30:42Z</time>
      </trkpt>
      <trkpt lat="47.38759" lon="5.97381">
        <ele>313.7</ele>
        <time>2012-05-24T12:30:45Z</time>
      </trkpt>
      <trkpt lat="47.38764" lon="5.97374">
        <ele>315</ele>
        <time>2012-05-24T12:30:47Z</time>
      </trkpt>
      <trkpt lat="47.38766" lon="5.97363">
        <ele>315</ele>
        <time>2012-05-24T12:30:51Z</time>
      </trkpt>
      <trkpt lat="47.38767" lon="5.97353">
        <ele>311.5</ele>
        <time>2012-05-24T12:30:55Z</time>
      </trkpt>
      <trkpt lat="47.38773" lon="5.97346">
        <ele>312.8</ele>
        <time>2012-05-24T12:30:59Z</time>
      </trkpt>
      <trkpt lat="47.38778" lon="5.97342">
        <ele>312.2</ele>
        <time>2012-05-24T12:31:02Z</time>
      </trkpt>
      <trkpt lat="47.38777" lon="5.97332">
        <ele>311.7</ele>
        <time>2012-05-24T12:31:07Z</time>
      </trkpt>
      <trkpt lat="47.38778" lon="5.97323">
        <ele>312.7</ele>
        <time>2012-05-24T12:31:16Z</time>
      </trkpt>
      <trkpt lat="47.38778" lon="5.97323">
        <ele>267.6</ele>
        <time>2012-05-24T12:31:28Z</time>
      </trkpt>
      <trkpt lat="47.38778" lon="5.97323">
        <ele>267.6</ele>
        <time>2012-05-24T12:31:34Z</time>
      </trkpt>
      <trkpt lat="47.38781" lon="5.97303">
        <ele>312.1</ele>
        <time>2012-05-24T12:31:36Z</time>
      </trkpt>
      <trkpt lat="47.38785" lon="5.97295">
        <ele>310.3</ele>
        <time>2012-05-24T12:31:41Z</time>
      </trkpt>
      <trkpt lat="47.3879" lon="5.97289">
        <ele>311.7</ele>
        <time>2012-05-24T12:31:43Z</time>
      </trkpt>
      <trkpt lat="47.38792" lon="5.9728">
        <ele>313</ele>
        <time>2012-05-24T12:31:52Z</time>
      </trkpt>
      <trkpt lat="47.38794" lon="5.97269">
        <ele>312.4</ele>
        <time>2012-05-24T12:32:00Z</time>
      </trkpt>
      <trkpt lat="47.38794" lon="5.97269">
        <ele>267.9</ele>
        <time>2012-05-24T12:32:12Z</time>
      </trkpt>
      <trkpt lat="47.38794" lon="5.97269">
        <ele>267.9</ele>
        <time>2012-05-24T12:32:38Z</time>
      </trkpt>
      <trkpt lat="47.38806" lon="5.97255">
        <ele>311.6</ele>
        <time>2012-05-24T12:32:39Z</time>
      </trkpt>
      <trkpt lat="47.38809" lon="5.97245">
        <ele>312.6</ele>
        <time>2012-05-24T12:32:44Z</time>
      </trkpt>
      <trkpt lat="47.38809" lon="5.97245">
        <ele>268.7</ele>
        <time>2012-05-24T12:32:55Z</time>
      </trkpt>
      <trkpt lat="47.38809" lon="5.97245">
        <ele>268.7</ele>
        <time>2012-05-24T12:34:40Z</time>
      </trkpt>
      <trkpt lat="47.38791" lon="5.97237">
        <ele>312.1</ele>
        <time>2012-05-24T12:34:41Z</time>
      </trkpt>
      <trkpt lat="47.38783" lon="5.97237">
        <ele>310.6</ele>
        <time>2012-05-24T12:34:47Z</time>
      </trkpt>
      <trkpt lat="47.38777" lon="5.97236">
        <ele>310.9</ele>
        <time>2012-05-24T12:34:51Z</time>
      </trkpt>
      <trkpt lat="47.38777" lon="5.97236">
        <ele>262.9</ele>
        <time>2012-05-24T12:35:02Z</time>
      </trkpt>
      <trkpt lat="47.38777" lon="5.97236">
        <ele>262.9</ele>
        <time>2012-05-24T12:38:04Z</time>
      </trkpt>
      <trkpt lat="47.38792" lon="5.97225">
        <ele>306</ele>
        <time>2012-05-24T12:38:05Z</time>
      </trkpt>
      <trkpt lat="47.38797" lon="5.9722">
        <ele>305.9</ele>
        <time>2012-05-24T12:38:07Z</time>
      </trkpt>
      <trkpt lat="47.38805" lon="5.97214">
        <ele>310.2</ele>
        <time>2012-05-24T12:38:10Z</time>
      </trkpt>
      <trkpt lat="47.38812" lon="5.97206">
        <ele>308.8</ele>
        <time>2012-05-24T12:38:16Z</time>
      </trkpt>
      <trkpt lat="47.38816" lon="5.97197">
        <ele>309.7</ele>
        <time>2012-05-24T12:38:20Z</time>
      </trkpt>
      <trkpt lat="47.38822" lon="5.97194">
        <ele>309</ele>
        <time>2012-05-24T12:38:25Z</time>
      </trkpt>
      <trkpt lat="47.38823" lon="5.97184">
        <ele>308</ele>
        <time>2012-05-24T12:38:34Z</time>
      </trkpt>
      <trkpt lat="47.38823" lon="5.97174">
        <ele>309.1</ele>
        <time>2012-05-24T12:38:44Z</time>
      </trkpt>
      <trkpt lat="47.38825" lon="5.97165">
        <ele>307.9</ele>
        <time>2012-05-24T12:38:51Z</time>
      </trkpt>
      <trkpt lat="47.38826" lon="5.97155">
        <ele>308.8</ele>
        <time>2012-05-24T12:38:55Z</time>
      </trkpt>
      <trkpt lat="47.38829" lon="5.97145">
        <ele>308.3</ele>
        <time>2012-05-24T12:39:01Z</time>
      </trkpt>
      <trkpt lat="47.38834" lon="5.97139">
        <ele>310.1</ele>
        <time>2012-05-24T12:39:08Z</time>
      </trkpt>
      <trkpt lat="47.38834" lon="5.97139">
        <ele>263</ele>
        <time>2012-05-24T12:39:20Z</time>
      </trkpt>
      <trkpt lat="47.38834" lon="5.97139">
        <ele>263</ele>
        <time>2012-05-24T12:39:49Z</time>
      </trkpt>
      <trkpt lat="47.38841" lon="5.9712">
        <ele>312.6</ele>
        <time>2012-05-24T12:39:50Z</time>
      </trkpt>
      <trkpt lat="47.38847" lon="5.97115">
        <ele>313.7</ele>
        <time>2012-05-24T12:39:52Z</time>
      </trkpt>
      <trkpt lat="47.38853" lon="5.97111">
        <ele>314.9</ele>
        <time>2012-05-24T12:39:59Z</time>
      </trkpt>
      <trkpt lat="47.38853" lon="5.97111">
        <ele>267.2</ele>
        <time>2012-05-24T12:40:10Z</time>
      </trkpt>
      <trkpt lat="47.38853" lon="5.97111">
        <ele>267.2</ele>
        <time>2012-05-24T12:40:44Z</time>
      </trkpt>
      <trkpt lat="47.3885" lon="5.97083">
        <ele>311.1</ele>
        <time>2012-05-24T12:40:45Z</time>
      </trkpt>
      <trkpt lat="47.38849" lon="5.9707">
        <ele>309.5</ele>
        <time>2012-05-24T12:40:47Z</time>
      </trkpt>
      <trkpt lat="47.38855" lon="5.9706">
        <ele>308.7</ele>
        <time>2012-05-24T12:40:49Z</time>
      </trkpt>
      <trkpt lat="47.38858" lon="5.97049">
        <ele>309.3</ele>
        <time>2012-05-24T12:40:51Z</time>
      </trkpt>
      <trkpt lat="47.38859" lon="5.97038">
        <ele>310.4</ele>
        <time>2012-05-24T12:40:56Z</time>
      </trkpt>
      <trkpt lat="47.38857" lon="5.97024">
        <ele>309.6</ele>
        <time>2012-05-24T12:40:58Z</time>
      </trkpt>
      <trkpt lat="47.38859" lon="5.97014">
        <ele>310.5</ele>
        <time>2012-05-24T12:41:04Z</time>
      </trkpt>
      <trkpt lat="47.38868" lon="5.97019">
        <ele>310.9</ele>
        <time>2012-05-24T12:41:07Z</time>
      </trkpt>
      <trkpt lat="47.38876" lon="5.97018">
        <ele>310.7</ele>
        <time>2012-05-24T12:41:13Z</time>
      </trkpt>
      <trkpt lat="47.38879" lon="5.9701">
        <ele>310.8</ele>
        <time>2012-05-24T12:41:17Z</time>
      </trkpt>
      <trkpt lat="47.3888" lon="5.97">
        <ele>309.4</ele>
        <time>2012-05-24T12:41:22Z</time>
      </trkpt>
      <trkpt lat="47.38884" lon="5.96993">
        <ele>311.1</ele>
        <time>2012-05-24T12:41:26Z</time>
      </trkpt>
      <trkpt lat="47.38884" lon="5.96993">
        <ele>272.8</ele>
        <time>2012-05-24T12:41:38Z</time>
      </trkpt>
      <trkpt lat="47.38884" lon="5.96993">
        <ele>272.8</ele>
        <time>2012-05-24T12:41:39Z</time>
      </trkpt>
      <trkpt lat="47.38871" lon="5.96984">
        <ele>308.6</ele>
        <time>2012-05-24T12:41:42Z</time>
      </trkpt>
      <trkpt lat="47.38866" lon="5.96978">
        <ele>308.1</ele>
        <time>2012-05-24T12:41:44Z</time>
      </trkpt>
      <trkpt lat="47.38866" lon="5.96978">
        <ele>264.9</ele>
        <time>2012-05-24T12:41:55Z</time>
      </trkpt>
      <trkpt lat="47.38866" lon="5.96978">
        <ele>264.9</ele>
        <time>2012-05-24T12:41:58Z</time>
      </trkpt>
      <trkpt lat="47.38866" lon="5.96978">
        <ele>264.9</ele>
        <time>2012-05-24T12:42:10Z</time>
      </trkpt>
      <trkpt lat="47.38866" lon="5.96978">
        <ele>264.9</ele>
        <time>2012-05-24T12:45:00Z</time>
      </trkpt>
      <trkpt lat="47.38872" lon="5.96948">
        <ele>312.1</ele>
        <time>2012-05-24T12:45:02Z</time>
      </trkpt>
      <trkpt lat="47.38867" lon="5.96937">
        <ele>311.9</ele>
        <time>2012-05-24T12:45:04Z</time>
      </trkpt>
      <trkpt lat="47.38858" lon="5.96922">
        <ele>315.7</ele>
        <time>2012-05-24T12:45:10Z</time>
      </trkpt>
      <trkpt lat="47.38853" lon="5.96914">
        <ele>317.2</ele>
        <time>2012-05-24T12:45:12Z</time>
      </trkpt>
      <trkpt lat="47.38846" lon="5.96905">
        <ele>317</ele>
        <time>2012-05-24T12:45:18Z</time>
      </trkpt>
      <trkpt lat="47.38846" lon="5.96905">
        <ele>265.1</ele>
        <time>2012-05-24T12:45:30Z</time>
      </trkpt>
      <trkpt lat="47.38846" lon="5.96905">
        <ele>265.1</ele>
        <time>2012-05-24T12:45:45Z</time>
      </trkpt>
      <trkpt lat="47.38838" lon="5.96889">
        <ele>319</ele>
        <time>2012-05-24T12:45:48Z</time>
      </trkpt>
      <trkpt lat="47.38833" lon="5.96881">
        <ele>317.4</ele>
        <time>2012-05-24T12:45:51Z</time>
      </trkpt>
      <trkpt lat="47.38833" lon="5.96881">
        <ele>266.3</ele>
        <time>2012-05-24T12:46:03Z</time>
      </trkpt>
      <trkpt lat="47.38833" lon="5.96881">
        <ele>266.3</ele>
        <time>2012-05-24T12:46:26Z</time>
      </trkpt>
      <trkpt lat="47.38824" lon="5.96861">
        <ele>317</ele>
        <time>2012-05-24T12:46:29Z</time>
      </trkpt>
      <trkpt lat="47.38822" lon="5.96851">
        <ele>317.3</ele>
        <time>2012-05-24T12:46:32Z</time>
      </trkpt>
      <trkpt lat="47.38819" lon="5.96843">
        <ele>316.8</ele>
        <time>2012-05-24T12:46:35Z</time>
      </trkpt>
      <trkpt lat="47.38814" lon="5.96833">
        <ele>317.9</ele>
        <time>2012-05-24T12:46:38Z</time>
      </trkpt>
      <trkpt lat="47.38809" lon="5.96822">
        <ele>318.3</ele>
        <time>2012-05-24T12:46:44Z</time>
      </trkpt>
      <trkpt lat="47.38802" lon="5.96817">
        <ele>318.3</ele>
        <time>2012-05-24T12:46:47Z</time>
      </trkpt>
      <trkpt lat="47.38802" lon="5.96817">
        <ele>276.5</ele>
        <time>2012-05-24T12:46:59Z</time>
      </trkpt>
      <trkpt lat="47.38802" lon="5.96817">
        <ele>276.5</ele>
        <time>2012-05-24T12:47:30Z</time>
      </trkpt>
      <trkpt lat="47.3876" lon="5.96745">
        <ele>321.7</ele>
        <time>2012-05-24T12:47:37Z</time>
      </trkpt>
      <trkpt lat="47.3876" lon="5.96745">
        <ele>286.9</ele>
        <time>2012-05-24T12:47:48Z</time>
      </trkpt>
      <trkpt lat="47.3876" lon="5.96745">
        <ele>286.9</ele>
        <time>2012-05-24T12:47:57Z</time>
      </trkpt>
      <trkpt lat="47.3876" lon="5.96745">
        <ele>286.9</ele>
        <time>2012-05-24T12:48:08Z</time>
      </trkpt>
      <trkpt lat="47.3876" lon="5.96745">
        <ele>286.9</ele>
        <time>2012-05-24T12:48:19Z</time>
      </trkpt>
      <trkpt lat="47.38773" lon="5.96722">
        <ele>331.9</ele>
        <time>2012-05-24T12:48:23Z</time>
      </trkpt>
      <trkpt lat="47.38771" lon="5.96711">
        <ele>333.1</ele>
        <time>2012-05-24T12:48:26Z</time>
      </trkpt>
      <trkpt lat="47.38771" lon="5.96711">
        <ele>285.8</ele>
        <time>2012-05-24T12:48:37Z</time>
      </trkpt>
      <trkpt lat="47.38771" lon="5.96711">
        <ele>285.8</ele>
        <time>2012-05-24T12:48:46Z</time>
      </trkpt>
      <trkpt lat="47.38775" lon="5.96689">
        <ele>331</ele>
        <time>2012-05-24T12:48:54Z</time>
      </trkpt>
      <trkpt lat="47.38775" lon="5.96689">
        <ele>285.3</ele>
        <time>2012-05-24T12:49:05Z</time>
      </trkpt>
      <trkpt lat="47.38775" lon="5.96689">
        <ele>285.3</ele>
        <time>2012-05-24T12:49:08Z</time>
      </trkpt>
      <trkpt lat="47.38775" lon="5.96689">
        <ele>285.3</ele>
        <time>2012-05-24T12:49:19Z</time>
      </trkpt>
      <trkpt lat="47.38775" lon="5.96689">
        <ele>285.3</ele>
        <time>2012-05-24T12:49:48Z</time>
      </trkpt>
      <trkpt lat="47.38794" lon="5.96674">
        <ele>333.2</ele>
        <time>2012-05-24T12:49:59Z</time>
      </trkpt>
      <trkpt lat="47.38799" lon="5.96666">
        <ele>333.5</ele>
        <time>2012-05-24T12:50:03Z</time>
      </trkpt>
      <trkpt lat="47.38808" lon="5.96661">
        <ele>332.2</ele>
        <time>2012-05-24T12:50:06Z</time>
      </trkpt>
      <trkpt lat="47.38816" lon="5.96654">
        <ele>333.5</ele>
        <time>2012-05-24T12:50:10Z</time>
      </trkpt>
      <trkpt lat="47.38819" lon="5.96646">
        <ele>333</ele>
        <time>2012-05-24T12:50:15Z</time>
      </trkpt>
      <trkpt lat="47.38825" lon="5.96639">
        <ele>332.5</ele>
        <time>2012-05-24T12:50:20Z</time>
      </trkpt>
      <trkpt lat="47.38831" lon="5.96634">
        <ele>333.1</ele>
        <time>2012-05-24T12:50:26Z</time>
      </trkpt>
      <trkpt lat="47.38836" lon="5.96626">
        <ele>335.9</ele>
        <time>2012-05-24T12:50:32Z</time>
      </trkpt>
      <trkpt lat="47.38841" lon="5.96619">
        <ele>334.4</ele>
        <time>2012-05-24T12:50:38Z</time>
      </trkpt>
      <trkpt lat="47.38848" lon="5.96614">
        <ele>333.5</ele>
        <time>2012-05-24T12:50:41Z</time>
      </trkpt>
      <trkpt lat="47.38848" lon="5.96614">
        <ele>282.5</ele>
        <time>2012-05-24T12:50:52Z</time>
      </trkpt>
      <trkpt lat="47.38848" lon="5.96614">
        <ele>282.5</ele>
        <time>2012-05-24T12:51:02Z</time>
      </trkpt>
      <trkpt lat="47.38861" lon="5.96605">
        <ele>332.4</ele>
        <time>2012-05-24T12:51:04Z</time>
      </trkpt>
      <trkpt lat="47.38865" lon="5.96597">
        <ele>332.7</ele>
        <time>2012-05-24T12:51:08Z</time>
      </trkpt>
      <trkpt lat="47.38872" lon="5.96596">
        <ele>332.8</ele>
        <time>2012-05-24T12:51:11Z</time>
      </trkpt>
      <trkpt lat="47.38875" lon="5.96588">
        <ele>331.1</ele>
        <time>2012-05-24T12:51:22Z</time>
      </trkpt>
      <trkpt lat="47.3888" lon="5.96582">
        <ele>331.6</ele>
        <time>2012-05-24T12:51:27Z</time>
      </trkpt>
      <trkpt lat="47.38887" lon="5.96576">
        <ele>330.7</ele>
        <time>2012-05-24T12:51:34Z</time>
      </trkpt>
      <trkpt lat="47.38887" lon="5.96576">
        <ele>280.7</ele>
        <time>2012-05-24T12:51:45Z</time>
      </trkpt>
      <trkpt lat="47.38887" lon="5.96576">
        <ele>280.7</ele>
        <time>2012-05-24T12:51:47Z</time>
      </trkpt>
      <trkpt lat="47.38898" lon="5.96563">
        <ele>331.4</ele>
        <time>2012-05-24T12:51:52Z</time>
      </trkpt>
      <trkpt lat="47.38902" lon="5.96555">
        <ele>332.4</ele>
        <time>2012-05-24T12:51:56Z</time>
      </trkpt>
      <trkpt lat="47.38909" lon="5.96549">
        <ele>330.2</ele>
        <time>2012-05-24T12:52:03Z</time>
      </trkpt>
      <trkpt lat="47.38915" lon="5.96553">
        <ele>330.8</ele>
        <time>2012-05-24T12:52:13Z</time>
      </trkpt>
      <trkpt lat="47.38915" lon="5.96553">
        <ele>279.9</ele>
        <time>2012-05-24T12:52:24Z</time>
      </trkpt>
      <trkpt lat="47.38915" lon="5.96553">
        <ele>279.9</ele>
        <time>2012-05-24T12:52:25Z</time>
      </trkpt>
      <trkpt lat="47.38925" lon="5.9654">
        <ele>331.4</ele>
        <time>2012-05-24T12:52:34Z</time>
      </trkpt>
      <trkpt lat="47.38932" lon="5.96537">
        <ele>330.4</ele>
        <time>2012-05-24T12:52:40Z</time>
      </trkpt>
      <trkpt lat="47.38937" lon="5.9653">
        <ele>328</ele>
        <time>2012-05-24T12:52:46Z</time>
      </trkpt>
      <trkpt lat="47.38941" lon="5.96521">
        <ele>328.9</ele>
        <time>2012-05-24T12:52:51Z</time>
      </trkpt>
      <trkpt lat="47.38947" lon="5.96515">
        <ele>327.8</ele>
        <time>2012-05-24T12:52:57Z</time>
      </trkpt>
      <trkpt lat="47.38952" lon="5.9651">
        <ele>327.8</ele>
        <time>2012-05-24T12:53:01Z</time>
      </trkpt>
      <trkpt lat="47.38959" lon="5.96512">
        <ele>327.7</ele>
        <time>2012-05-24T12:53:06Z</time>
      </trkpt>
      <trkpt lat="47.38965" lon="5.96504">
        <ele>328.4</ele>
        <time>2012-05-24T12:53:17Z</time>
      </trkpt>
      <trkpt lat="47.38968" lon="5.96493">
        <ele>327.3</ele>
        <time>2012-05-24T12:53:23Z</time>
      </trkpt>
      <trkpt lat="47.38974" lon="5.96491">
        <ele>326.6</ele>
        <time>2012-05-24T12:53:26Z</time>
      </trkpt>
      <trkpt lat="47.3898" lon="5.96484">
        <ele>327.9</ele>
        <time>2012-05-24T12:53:36Z</time>
      </trkpt>
      <trkpt lat="47.38987" lon="5.96484">
        <ele>327.4</ele>
        <time>2012-05-24T12:53:42Z</time>
      </trkpt>
      <trkpt lat="47.38987" lon="5.96484">
        <ele>276.4</ele>
        <time>2012-05-24T12:53:53Z</time>
      </trkpt>
      <trkpt lat="47.38987" lon="5.96484">
        <ele>276.4</ele>
        <time>2012-05-24T12:53:55Z</time>
      </trkpt>
      <trkpt lat="47.39002" lon="5.96476">
        <ele>327.9</ele>
        <time>2012-05-24T12:54:01Z</time>
      </trkpt>
      <trkpt lat="47.39007" lon="5.96469">
        <ele>328.9</ele>
        <time>2012-05-24T12:54:06Z</time>
      </trkpt>
      <trkpt lat="47.39014" lon="5.96464">
        <ele>329</ele>
        <time>2012-05-24T12:54:10Z</time>
      </trkpt>
      <trkpt lat="47.39019" lon="5.96458">
        <ele>329.3</ele>
        <time>2012-05-24T12:54:16Z</time>
      </trkpt>
      <trkpt lat="47.39019" lon="5.96458">
        <ele>275.8</ele>
        <time>2012-05-24T12:54:28Z</time>
      </trkpt>
      <trkpt lat="47.39019" lon="5.96458">
        <ele>275.8</ele>
        <time>2012-05-24T12:54:38Z</time>
      </trkpt>
      <trkpt lat="47.39027" lon="5.96441">
        <ele>326.4</ele>
        <time>2012-05-24T12:54:48Z</time>
      </trkpt>
      <trkpt lat="47.39035" lon="5.96435">
        <ele>327.8</ele>
        <time>2012-05-24T12:54:54Z</time>
      </trkpt>
      <trkpt lat="47.39041" lon="5.9643">
        <ele>328.5</ele>
        <time>2012-05-24T12:54:59Z</time>
      </trkpt>
      <trkpt lat="47.39047" lon="5.96424">
        <ele>328.4</ele>
        <time>2012-05-24T12:55:05Z</time>
      </trkpt>
      <trkpt lat="47.39055" lon="5.96424">
        <ele>328.5</ele>
        <time>2012-05-24T12:55:10Z</time>
      </trkpt>
      <trkpt lat="47.39062" lon="5.96423">
        <ele>327.7</ele>
        <time>2012-05-24T12:55:16Z</time>
      </trkpt>
      <trkpt lat="47.39068" lon="5.96419">
        <ele>327.6</ele>
        <time>2012-05-24T12:55:20Z</time>
      </trkpt>
      <trkpt lat="47.39076" lon="5.96413">
        <ele>329.6</ele>
        <time>2012-05-24T12:55:28Z</time>
      </trkpt>
      <trkpt lat="47.39081" lon="5.96406">
        <ele>330.7</ele>
        <time>2012-05-24T12:55:32Z</time>
      </trkpt>
      <trkpt lat="47.39077" lon="5.96399">
        <ele>328.2</ele>
        <time>2012-05-24T12:55:39Z</time>
      </trkpt>
      <trkpt lat="47.39077" lon="5.96399">
        <ele>280.3</ele>
        <time>2012-05-24T12:55:50Z</time>
      </trkpt>
      <trkpt lat="47.39077" lon="5.96399">
        <ele>280.3</ele>
        <time>2012-05-24T12:56:30Z</time>
      </trkpt>
      <trkpt lat="47.39088" lon="5.96384">
        <ele>330.8</ele>
        <time>2012-05-24T12:56:32Z</time>
      </trkpt>
      <trkpt lat="47.39096" lon="5.96379">
        <ele>331.8</ele>
        <time>2012-05-24T12:56:34Z</time>
      </trkpt>
      <trkpt lat="47.391" lon="5.96368">
        <ele>332.8</ele>
        <time>2012-05-24T12:56:38Z</time>
      </trkpt>
      <trkpt lat="47.39106" lon="5.96362">
        <ele>333.2</ele>
        <time>2012-05-24T12:56:41Z</time>
      </trkpt>
      <trkpt lat="47.39112" lon="5.96355">
        <ele>335.2</ele>
        <time>2012-05-24T12:56:45Z</time>
      </trkpt>
      <trkpt lat="47.3912" lon="5.96353">
        <ele>338.1</ele>
        <time>2012-05-24T12:56:48Z</time>
      </trkpt>
      <trkpt lat="47.39126" lon="5.96346">
        <ele>338.2</ele>
        <time>2012-05-24T12:56:51Z</time>
      </trkpt>
      <trkpt lat="47.39126" lon="5.96337">
        <ele>335.7</ele>
        <time>2012-05-24T12:56:55Z</time>
      </trkpt>
      <trkpt lat="47.3913" lon="5.96329">
        <ele>335.3</ele>
        <time>2012-05-24T12:56:59Z</time>
      </trkpt>
      <trkpt lat="47.39136" lon="5.96324">
        <ele>338.5</ele>
        <time>2012-05-24T12:57:04Z</time>
      </trkpt>
      <trkpt lat="47.39141" lon="5.96319">
        <ele>338.6</ele>
        <time>2012-05-24T12:57:09Z</time>
      </trkpt>
      <trkpt lat="47.39141" lon="5.96319">
        <ele>289.9</ele>
        <time>2012-05-24T12:57:20Z</time>
      </trkpt>
      <trkpt lat="47.39141" lon="5.96319">
        <ele>289.9</ele>
        <time>2012-05-24T12:57:46Z</time>
      </trkpt>
      <trkpt lat="47.39155" lon="5.96309">
        <ele>342.1</ele>
        <time>2012-05-24T12:57:49Z</time>
      </trkpt>
      <trkpt lat="47.39161" lon="5.96303">
        <ele>342</ele>
        <time>2012-05-24T12:57:54Z</time>
      </trkpt>
      <trkpt lat="47.39167" lon="5.96298">
        <ele>341.6</ele>
        <time>2012-05-24T12:57:59Z</time>
      </trkpt>
      <trkpt lat="47.39174" lon="5.96294">
        <ele>342.3</ele>
        <time>2012-05-24T12:58:06Z</time>
      </trkpt>
      <trkpt lat="47.3918" lon="5.96288">
        <ele>345.1</ele>
        <time>2012-05-24T12:58:12Z</time>
      </trkpt>
      <trkpt lat="47.39184" lon="5.9628">
        <ele>346.6</ele>
        <time>2012-05-24T12:58:18Z</time>
      </trkpt>
      <trkpt lat="47.3919" lon="5.96276">
        <ele>348.4</ele>
        <time>2012-05-24T12:58:24Z</time>
      </trkpt>
      <trkpt lat="47.39195" lon="5.96271">
        <ele>346.5</ele>
        <time>2012-05-24T12:58:32Z</time>
      </trkpt>
      <trkpt lat="47.39201" lon="5.96265">
        <ele>347.2</ele>
        <time>2012-05-24T12:58:37Z</time>
      </trkpt>
      <trkpt lat="47.39201" lon="5.96265">
        <ele>301.2</ele>
        <time>2012-05-24T12:58:48Z</time>
      </trkpt>
      <trkpt lat="47.39201" lon="5.96265">
        <ele>301.2</ele>
        <time>2012-05-24T12:59:05Z</time>
      </trkpt>
      <trkpt lat="47.39206" lon="5.96247">
        <ele>348.8</ele>
        <time>2012-05-24T12:59:13Z</time>
      </trkpt>
      <trkpt lat="47.39212" lon="5.96241">
        <ele>348.4</ele>
        <time>2012-05-24T12:59:16Z</time>
      </trkpt>
      <trkpt lat="47.39216" lon="5.96234">
        <ele>351</ele>
        <time>2012-05-24T12:59:23Z</time>
      </trkpt>
      <trkpt lat="47.39221" lon="5.96228">
        <ele>351.9</ele>
        <time>2012-05-24T12:59:30Z</time>
      </trkpt>
      <trkpt lat="47.39222" lon="5.96218">
        <ele>352.7</ele>
        <time>2012-05-24T12:59:36Z</time>
      </trkpt>
      <trkpt lat="47.39229" lon="5.96217">
        <ele>353.3</ele>
        <time>2012-05-24T12:59:40Z</time>
      </trkpt>
      <trkpt lat="47.39234" lon="5.96213">
        <ele>352.6</ele>
        <time>2012-05-24T12:59:47Z</time>
      </trkpt>
      <trkpt lat="47.39236" lon="5.96203">
        <ele>352.4</ele>
        <time>2012-05-24T12:59:53Z</time>
      </trkpt>
      <trkpt lat="47.39241" lon="5.96197">
        <ele>353.6</ele>
        <time>2012-05-24T13:00:00Z</time>
      </trkpt>
      <trkpt lat="47.39247" lon="5.96194">
        <ele>355.5</ele>
        <time>2012-05-24T13:00:10Z</time>
      </trkpt>
      <trkpt lat="47.39252" lon="5.96188">
        <ele>357.6</ele>
        <time>2012-05-24T13:00:16Z</time>
      </trkpt>
      <trkpt lat="47.39256" lon="5.96181">
        <ele>359.3</ele>
        <time>2012-05-24T13:00:25Z</time>
      </trkpt>
      <trkpt lat="47.39262" lon="5.96176">
        <ele>361.2</ele>
        <time>2012-05-24T13:00:30Z</time>
      </trkpt>
      <trkpt lat="47.39269" lon="5.96169">
        <ele>359.8</ele>
        <time>2012-05-24T13:00:41Z</time>
      </trkpt>
      <trkpt lat="47.39276" lon="5.96163">
        <ele>360</ele>
        <time>2012-05-24T13:00:45Z</time>
      </trkpt>
      <trkpt lat="47.39278" lon="5.96154">
        <ele>359.9</ele>
        <time>2012-05-24T13:00:52Z</time>
      </trkpt>
      <trkpt lat="47.39282" lon="5.96146">
        <ele>359.7</ele>
        <time>2012-05-24T13:00:58Z</time>
      </trkpt>
      <trkpt lat="47.39286" lon="5.96137">
        <ele>359.7</ele>
        <time>2012-05-24T13:01:05Z</time>
      </trkpt>
      <trkpt lat="47.39292" lon="5.96131">
        <ele>361</ele>
        <time>2012-05-24T13:01:10Z</time>
      </trkpt>
      <trkpt lat="47.39295" lon="5.96121">
        <ele>361.7</ele>
        <time>2012-05-24T13:01:18Z</time>
      </trkpt>
      <trkpt lat="47.39301" lon="5.96114">
        <ele>363.1</ele>
        <time>2012-05-24T13:01:25Z</time>
      </trkpt>
      <trkpt lat="47.39308" lon="5.96112">
        <ele>362.5</ele>
        <time>2012-05-24T13:01:35Z</time>
      </trkpt>
      <trkpt lat="47.39313" lon="5.96105">
        <ele>361.1</ele>
        <time>2012-05-24T13:01:42Z</time>
      </trkpt>
      <trkpt lat="47.39313" lon="5.96105">
        <ele>315.9</ele>
        <time>2012-05-24T13:01:53Z</time>
      </trkpt>
      <trkpt lat="47.39313" lon="5.96105">
        <ele>315.9</ele>
        <time>2012-05-24T13:01:54Z</time>
      </trkpt>
      <trkpt lat="47.39325" lon="5.96096">
        <ele>361.5</ele>
        <time>2012-05-24T13:02:01Z</time>
      </trkpt>
      <trkpt lat="47.39324" lon="5.96085">
        <ele>365.5</ele>
        <time>2012-05-24T13:02:08Z</time>
      </trkpt>
      <trkpt lat="47.3933" lon="5.96079">
        <ele>365.3</ele>
        <time>2012-05-24T13:02:11Z</time>
      </trkpt>
      <trkpt lat="47.39338" lon="5.96078">
        <ele>365.3</ele>
        <time>2012-05-24T13:02:15Z</time>
      </trkpt>
      <trkpt lat="47.39344" lon="5.96072">
        <ele>366.2</ele>
        <time>2012-05-24T13:02:20Z</time>
      </trkpt>
      <trkpt lat="47.39351" lon="5.96065">
        <ele>365.5</ele>
        <time>2012-05-24T13:02:29Z</time>
      </trkpt>
      <trkpt lat="47.39351" lon="5.96065">
        <ele>322.6</ele>
        <time>2012-05-24T13:02:40Z</time>
      </trkpt>
      <trkpt lat="47.39351" lon="5.96065">
        <ele>322.6</ele>
        <time>2012-05-24T13:02:47Z</time>
      </trkpt>
      <trkpt lat="47.39351" lon="5.96065">
        <ele>322.6</ele>
        <time>2012-05-24T13:02:59Z</time>
      </trkpt>
      <trkpt lat="47.39351" lon="5.96065">
        <ele>322.6</ele>
        <time>2012-05-24T13:03:01Z</time>
      </trkpt>
      <trkpt lat="47.39363" lon="5.96041">
        <ele>367.8</ele>
        <time>2012-05-24T13:03:05Z</time>
      </trkpt>
      <trkpt lat="47.39367" lon="5.96032">
        <ele>367.2</ele>
        <time>2012-05-24T13:03:09Z</time>
      </trkpt>
      <trkpt lat="47.39371" lon="5.96025">
        <ele>368.7</ele>
        <time>2012-05-24T13:03:14Z</time>
      </trkpt>
      <trkpt lat="47.39371" lon="5.96025">
        <ele>326.5</ele>
        <time>2012-05-24T13:03:25Z</time>
      </trkpt>
      <trkpt lat="47.39371" lon="5.96025">
        <ele>326.5</ele>
        <time>2012-05-24T13:04:48Z</time>
      </trkpt>
      <trkpt lat="47.39371" lon="5.96025">
        <ele>326.5</ele>
        <time>2012-05-24T13:04:59Z</time>
      </trkpt>
      <trkpt lat="47.39371" lon="5.96025">
        <ele>326.5</ele>
        <time>2012-05-24T13:10:30Z</time>
      </trkpt>
      <trkpt lat="47.39389" lon="5.96015">
        <ele>374.7</ele>
        <time>2012-05-24T13:10:41Z</time>
      </trkpt>
      <trkpt lat="47.39391" lon="5.96005">
        <ele>376.4</ele>
        <time>2012-05-24T13:10:47Z</time>
      </trkpt>
      <trkpt lat="47.39398" lon="5.96">
        <ele>377.7</ele>
        <time>2012-05-24T13:10:55Z</time>
      </trkpt>
      <trkpt lat="47.39404" lon="5.95996">
        <ele>378.6</ele>
        <time>2012-05-24T13:11:02Z</time>
      </trkpt>
      <trkpt lat="47.39404" lon="5.95996">
        <ele>330.1</ele>
        <time>2012-05-24T13:11:14Z</time>
      </trkpt>
      <trkpt lat="47.39404" lon="5.95996">
        <ele>330.1</ele>
        <time>2012-05-24T13:11:15Z</time>
      </trkpt>
      <trkpt lat="47.39415" lon="5.95987">
        <ele>376.2</ele>
        <time>2012-05-24T13:11:20Z</time>
      </trkpt>
      <trkpt lat="47.3942" lon="5.95978">
        <ele>374.9</ele>
        <time>2012-05-24T13:11:26Z</time>
      </trkpt>
      <trkpt lat="47.3942" lon="5.95978">
        <ele>331.2</ele>
        <time>2012-05-24T13:11:37Z</time>
      </trkpt>
      <trkpt lat="47.3942" lon="5.95978">
        <ele>331.2</ele>
        <time>2012-05-24T13:12:01Z</time>
      </trkpt>
      <trkpt lat="47.39435" lon="5.95974">
        <ele>376.1</ele>
        <time>2012-05-24T13:12:06Z</time>
      </trkpt>
      <trkpt lat="47.39442" lon="5.95976">
        <ele>375.9</ele>
        <time>2012-05-24T13:12:11Z</time>
      </trkpt>
      <trkpt lat="47.39449" lon="5.95975">
        <ele>375.1</ele>
        <time>2012-05-24T13:12:20Z</time>
      </trkpt>
      <trkpt lat="47.39455" lon="5.95981">
        <ele>374.5</ele>
        <time>2012-05-24T13:12:26Z</time>
      </trkpt>
      <trkpt lat="47.39461" lon="5.95984">
        <ele>375.9</ele>
        <time>2012-05-24T13:12:29Z</time>
      </trkpt>
      <trkpt lat="47.39469" lon="5.95988">
        <ele>376.8</ele>
        <time>2012-05-24T13:12:34Z</time>
      </trkpt>
      <trkpt lat="47.39475" lon="5.95993">
        <ele>379.8</ele>
        <time>2012-05-24T13:12:39Z</time>
      </trkpt>
      <trkpt lat="47.3948" lon="5.95997">
        <ele>381.2</ele>
        <time>2012-05-24T13:12:43Z</time>
      </trkpt>
      <trkpt lat="47.39488" lon="5.96001">
        <ele>383.2</ele>
        <time>2012-05-24T13:12:48Z</time>
      </trkpt>
      <trkpt lat="47.39494" lon="5.96006">
        <ele>385.1</ele>
        <time>2012-05-24T13:12:54Z</time>
      </trkpt>
      <trkpt lat="47.395" lon="5.96011">
        <ele>384</ele>
        <time>2012-05-24T13:13:02Z</time>
      </trkpt>
      <trkpt lat="47.39505" lon="5.96016">
        <ele>383.8</ele>
        <time>2012-05-24T13:13:06Z</time>
      </trkpt>
      <trkpt lat="47.39512" lon="5.96019">
        <ele>382.4</ele>
        <time>2012-05-24T13:13:12Z</time>
      </trkpt>
      <trkpt lat="47.39512" lon="5.96019">
        <ele>336.8</ele>
        <time>2012-05-24T13:13:23Z</time>
      </trkpt>
      <trkpt lat="47.39512" lon="5.96019">
        <ele>336.8</ele>
        <time>2012-05-24T13:13:26Z</time>
      </trkpt>
      <trkpt lat="47.39525" lon="5.96027">
        <ele>384.8</ele>
        <time>2012-05-24T13:13:33Z</time>
      </trkpt>
      <trkpt lat="47.39532" lon="5.9603">
        <ele>384.9</ele>
        <time>2012-05-24T13:13:38Z</time>
      </trkpt>
      <trkpt lat="47.39538" lon="5.96035">
        <ele>385.6</ele>
        <time>2012-05-24T13:13:44Z</time>
      </trkpt>
      <trkpt lat="47.39544" lon="5.96039">
        <ele>386</ele>
        <time>2012-05-24T13:13:48Z</time>
      </trkpt>
      <trkpt lat="47.3955" lon="5.96045">
        <ele>385.7</ele>
        <time>2012-05-24T13:13:56Z</time>
      </trkpt>
      <trkpt lat="47.39555" lon="5.96051">
        <ele>386.7</ele>
        <time>2012-05-24T13:13:59Z</time>
      </trkpt>
      <trkpt lat="47.3956" lon="5.96059">
        <ele>387</ele>
        <time>2012-05-24T13:14:07Z</time>
      </trkpt>
      <trkpt lat="47.39568" lon="5.96062">
        <ele>384.8</ele>
        <time>2012-05-24T13:14:14Z</time>
      </trkpt>
      <trkpt lat="47.39574" lon="5.96066">
        <ele>385.1</ele>
        <time>2012-05-24T13:14:18Z</time>
      </trkpt>
      <trkpt lat="47.39581" lon="5.96071">
        <ele>383.7</ele>
        <time>2012-05-24T13:14:24Z</time>
      </trkpt>
      <trkpt lat="47.39588" lon="5.96074">
        <ele>384.1</ele>
        <time>2012-05-24T13:14:28Z</time>
      </trkpt>
      <trkpt lat="47.39593" lon="5.96079">
        <ele>386.7</ele>
        <time>2012-05-24T13:14:34Z</time>
      </trkpt>
      <trkpt lat="47.396" lon="5.96084">
        <ele>385.9</ele>
        <time>2012-05-24T13:14:43Z</time>
      </trkpt>
      <trkpt lat="47.39607" lon="5.96089">
        <ele>385</ele>
        <time>2012-05-24T13:14:50Z</time>
      </trkpt>
      <trkpt lat="47.39613" lon="5.96095">
        <ele>385.4</ele>
        <time>2012-05-24T13:14:58Z</time>
      </trkpt>
      <trkpt lat="47.39619" lon="5.96098">
        <ele>387</ele>
        <time>2012-05-24T13:15:02Z</time>
      </trkpt>
      <trkpt lat="47.39625" lon="5.96103">
        <ele>390.5</ele>
        <time>2012-05-24T13:15:10Z</time>
      </trkpt>
      <trkpt lat="47.3963" lon="5.96109">
        <ele>390.8</ele>
        <time>2012-05-24T13:15:15Z</time>
      </trkpt>
      <trkpt lat="47.39634" lon="5.96117">
        <ele>392.3</ele>
        <time>2012-05-24T13:15:23Z</time>
      </trkpt>
      <trkpt lat="47.39638" lon="5.96125">
        <ele>391.5</ele>
        <time>2012-05-24T13:15:28Z</time>
      </trkpt>
      <trkpt lat="47.39645" lon="5.96131">
        <ele>391.2</ele>
        <time>2012-05-24T13:15:35Z</time>
      </trkpt>
      <trkpt lat="47.39645" lon="5.96131">
        <ele>341.8</ele>
        <time>2012-05-24T13:15:46Z</time>
      </trkpt>
      <trkpt lat="47.39645" lon="5.96131">
        <ele>341.8</ele>
        <time>2012-05-24T13:16:18Z</time>
      </trkpt>
      <trkpt lat="47.39654" lon="5.96146">
        <ele>389.9</ele>
        <time>2012-05-24T13:16:22Z</time>
      </trkpt>
      <trkpt lat="47.39661" lon="5.96151">
        <ele>390.2</ele>
        <time>2012-05-24T13:16:29Z</time>
      </trkpt>
      <trkpt lat="47.39661" lon="5.96151">
        <ele>341.6</ele>
        <time>2012-05-24T13:16:40Z</time>
      </trkpt>
      <trkpt lat="47.39661" lon="5.96151">
        <ele>341.6</ele>
        <time>2012-05-24T13:16:41Z</time>
      </trkpt>
      <trkpt lat="47.39667" lon="5.96169">
        <ele>389.3</ele>
        <time>2012-05-24T13:16:45Z</time>
      </trkpt>
      <trkpt lat="47.39672" lon="5.96178">
        <ele>390.5</ele>
        <time>2012-05-24T13:16:52Z</time>
      </trkpt>
      <trkpt lat="47.39676" lon="5.96187">
        <ele>388.7</ele>
        <time>2012-05-24T13:16:57Z</time>
      </trkpt>
      <trkpt lat="47.3968" lon="5.96197">
        <ele>388</ele>
        <time>2012-05-24T13:17:02Z</time>
      </trkpt>
      <trkpt lat="47.39687" lon="5.96202">
        <ele>387.2</ele>
        <time>2012-05-24T13:17:08Z</time>
      </trkpt>
      <trkpt lat="47.39692" lon="5.96207">
        <ele>387.5</ele>
        <time>2012-05-24T13:17:14Z</time>
      </trkpt>
      <trkpt lat="47.39698" lon="5.96211">
        <ele>387.9</ele>
        <time>2012-05-24T13:17:19Z</time>
      </trkpt>
      <trkpt lat="47.39702" lon="5.96219">
        <ele>389.6</ele>
        <time>2012-05-24T13:17:26Z</time>
      </trkpt>
      <trkpt lat="47.3971" lon="5.9622">
        <ele>389</ele>
        <time>2012-05-24T13:17:30Z</time>
      </trkpt>
      <trkpt lat="47.39717" lon="5.96222">
        <ele>390.7</ele>
        <time>2012-05-24T13:17:37Z</time>
      </trkpt>
      <trkpt lat="47.39723" lon="5.9622">
        <ele>392.6</ele>
        <time>2012-05-24T13:17:46Z</time>
      </trkpt>
      <trkpt lat="47.3973" lon="5.96218">
        <ele>392.4</ele>
        <time>2012-05-24T13:17:50Z</time>
      </trkpt>
      <trkpt lat="47.39737" lon="5.96219">
        <ele>393.7</ele>
        <time>2012-05-24T13:17:52Z</time>
      </trkpt>
      <trkpt lat="47.39744" lon="5.96217">
        <ele>396.7</ele>
        <time>2012-05-24T13:17:59Z</time>
      </trkpt>
      <trkpt lat="47.39753" lon="5.96216">
        <ele>394.5</ele>
        <time>2012-05-24T13:18:03Z</time>
      </trkpt>
      <trkpt lat="47.39753" lon="5.96216">
        <ele>335</ele>
        <time>2012-05-24T13:18:14Z</time>
      </trkpt>
      <trkpt lat="47.39753" lon="5.96216">
        <ele>335</ele>
        <time>2012-05-24T13:18:39Z</time>
      </trkpt>
      <trkpt lat="47.39769" lon="5.96209">
        <ele>388.1</ele>
        <time>2012-05-24T13:18:43Z</time>
      </trkpt>
      <trkpt lat="47.39777" lon="5.9621">
        <ele>386.1</ele>
        <time>2012-05-24T13:18:45Z</time>
      </trkpt>
      <trkpt lat="47.39787" lon="5.9621">
        <ele>383.4</ele>
        <time>2012-05-24T13:18:48Z</time>
      </trkpt>
      <trkpt lat="47.39794" lon="5.96212">
        <ele>383.6</ele>
        <time>2012-05-24T13:18:50Z</time>
      </trkpt>
      <trkpt lat="47.39804" lon="5.96213">
        <ele>383.9</ele>
        <time>2012-05-24T13:18:54Z</time>
      </trkpt>
      <trkpt lat="47.39813" lon="5.96213">
        <ele>381.4</ele>
        <time>2012-05-24T13:19:02Z</time>
      </trkpt>
      <trkpt lat="47.39821" lon="5.96214">
        <ele>383.6</ele>
        <time>2012-05-24T13:19:08Z</time>
      </trkpt>
      <trkpt lat="47.39828" lon="5.96214">
        <ele>382.1</ele>
        <time>2012-05-24T13:19:17Z</time>
      </trkpt>
      <trkpt lat="47.39836" lon="5.96214">
        <ele>381.7</ele>
        <time>2012-05-24T13:19:26Z</time>
      </trkpt>
      <trkpt lat="47.39836" lon="5.96214">
        <ele>333</ele>
        <time>2012-05-24T13:19:37Z</time>
      </trkpt>
      <trkpt lat="47.39836" lon="5.96214">
        <ele>333</ele>
        <time>2012-05-24T13:20:03Z</time>
      </trkpt>
      <trkpt lat="47.39836" lon="5.96214">
        <ele>333</ele>
        <time>2012-05-24T13:20:14Z</time>
      </trkpt>
      <trkpt lat="47.39836" lon="5.96214">
        <ele>333</ele>
        <time>2012-05-24T13:22:30Z</time>
      </trkpt>
      <trkpt lat="47.39855" lon="5.96216">
        <ele>379.9</ele>
        <time>2012-05-24T13:22:34Z</time>
      </trkpt>
      <trkpt lat="47.39862" lon="5.96216">
        <ele>378</ele>
        <time>2012-05-24T13:22:39Z</time>
      </trkpt>
      <trkpt lat="47.39869" lon="5.96219">
        <ele>381.1</ele>
        <time>2012-05-24T13:22:46Z</time>
      </trkpt>
      <trkpt lat="47.39877" lon="5.96218">
        <ele>380.5</ele>
        <time>2012-05-24T13:22:53Z</time>
      </trkpt>
      <trkpt lat="47.39884" lon="5.9622">
        <ele>381.7</ele>
        <time>2012-05-24T13:22:58Z</time>
      </trkpt>
      <trkpt lat="47.39891" lon="5.96221">
        <ele>381.4</ele>
        <time>2012-05-24T13:23:05Z</time>
      </trkpt>
      <trkpt lat="47.39897" lon="5.96223">
        <ele>379.8</ele>
        <time>2012-05-24T13:23:13Z</time>
      </trkpt>
      <trkpt lat="47.39905" lon="5.96225">
        <ele>381.3</ele>
        <time>2012-05-24T13:23:19Z</time>
      </trkpt>
      <trkpt lat="47.39912" lon="5.96226">
        <ele>383.3</ele>
        <time>2012-05-24T13:23:25Z</time>
      </trkpt>
      <trkpt lat="47.39919" lon="5.96226">
        <ele>382.7</ele>
        <time>2012-05-24T13:23:30Z</time>
      </trkpt>
      <trkpt lat="47.39926" lon="5.96227">
        <ele>382</ele>
        <time>2012-05-24T13:23:36Z</time>
      </trkpt>
      <trkpt lat="47.39934" lon="5.96228">
        <ele>381.1</ele>
        <time>2012-05-24T13:23:47Z</time>
      </trkpt>
      <trkpt lat="47.3994" lon="5.9623">
        <ele>381</ele>
        <time>2012-05-24T13:23:52Z</time>
      </trkpt>
      <trkpt lat="47.39947" lon="5.96231">
        <ele>380.9</ele>
        <time>2012-05-24T13:23:59Z</time>
      </trkpt>
      <trkpt lat="47.39954" lon="5.96232">
        <ele>381.3</ele>
        <time>2012-05-24T13:24:04Z</time>
      </trkpt>
      <trkpt lat="47.39961" lon="5.96233">
        <ele>383.1</ele>
        <time>2012-05-24T13:24:13Z</time>
      </trkpt>
      <trkpt lat="47.39968" lon="5.96234">
        <ele>383.5</ele>
        <time>2012-05-24T13:24:18Z</time>
      </trkpt>
      <trkpt lat="47.39975" lon="5.96236">
        <ele>383.1</ele>
        <time>2012-05-24T13:24:27Z</time>
      </trkpt>
      <trkpt lat="47.39983" lon="5.96238">
        <ele>384.4</ele>
        <time>2012-05-24T13:24:35Z</time>
      </trkpt>
      <trkpt lat="47.39989" lon="5.96238">
        <ele>384.9</ele>
        <time>2012-05-24T13:24:41Z</time>
      </trkpt>
      <trkpt lat="47.39997" lon="5.96239">
        <ele>385.2</ele>
        <time>2012-05-24T13:24:47Z</time>
      </trkpt>
      <trkpt lat="47.40005" lon="5.96241">
        <ele>384.8</ele>
        <time>2012-05-24T13:24:52Z</time>
      </trkpt>
      <trkpt lat="47.40013" lon="5.96241">
        <ele>387.3</ele>
        <time>2012-05-24T13:25:00Z</time>
      </trkpt>
      <trkpt lat="47.4002" lon="5.96241">
        <ele>387.7</ele>
        <time>2012-05-24T13:25:04Z</time>
      </trkpt>
      <trkpt lat="47.40027" lon="5.96243">
        <ele>387</ele>
        <time>2012-05-24T13:25:12Z</time>
      </trkpt>
      <trkpt lat="47.40034" lon="5.96243">
        <ele>388.3</ele>
        <time>2012-05-24T13:25:19Z</time>
      </trkpt>
      <trkpt lat="47.40042" lon="5.96244">
        <ele>386</ele>
        <time>2012-05-24T13:25:26Z</time>
      </trkpt>
      <trkpt lat="47.40048" lon="5.96246">
        <ele>386.4</ele>
        <time>2012-05-24T13:25:31Z</time>
      </trkpt>
      <trkpt lat="47.40055" lon="5.96247">
        <ele>387</ele>
        <time>2012-05-24T13:25:38Z</time>
      </trkpt>
      <trkpt lat="47.40062" lon="5.9625">
        <ele>387</ele>
        <time>2012-05-24T13:25:46Z</time>
      </trkpt>
      <trkpt lat="47.40069" lon="5.96251">
        <ele>386.9</ele>
        <time>2012-05-24T13:25:51Z</time>
      </trkpt>
      <trkpt lat="47.40076" lon="5.96253">
        <ele>387.2</ele>
        <time>2012-05-24T13:25:56Z</time>
      </trkpt>
      <trkpt lat="47.40082" lon="5.96256">
        <ele>388</ele>
        <time>2012-05-24T13:26:05Z</time>
      </trkpt>
      <trkpt lat="47.40089" lon="5.96257">
        <ele>387.6</ele>
        <time>2012-05-24T13:26:10Z</time>
      </trkpt>
      <trkpt lat="47.40096" lon="5.96257">
        <ele>386.6</ele>
        <time>2012-05-24T13:26:16Z</time>
      </trkpt>
      <trkpt lat="47.40102" lon="5.96258">
        <ele>387.8</ele>
        <time>2012-05-24T13:26:22Z</time>
      </trkpt>
      <trkpt lat="47.40109" lon="5.96255">
        <ele>390.2</ele>
        <time>2012-05-24T13:26:27Z</time>
      </trkpt>
      <trkpt lat="47.40116" lon="5.96257">
        <ele>389.9</ele>
        <time>2012-05-24T13:26:32Z</time>
      </trkpt>
      <trkpt lat="47.40122" lon="5.9626">
        <ele>390.3</ele>
        <time>2012-05-24T13:26:38Z</time>
      </trkpt>
      <trkpt lat="47.40128" lon="5.96263">
        <ele>391.5</ele>
        <time>2012-05-24T13:26:44Z</time>
      </trkpt>
      <trkpt lat="47.40134" lon="5.96262">
        <ele>392.9</ele>
        <time>2012-05-24T13:26:51Z</time>
      </trkpt>
      <trkpt lat="47.4014" lon="5.96265">
        <ele>393.4</ele>
        <time>2012-05-24T13:26:58Z</time>
      </trkpt>
      <trkpt lat="47.40147" lon="5.96267">
        <ele>394</ele>
        <time>2012-05-24T13:27:03Z</time>
      </trkpt>
      <trkpt lat="47.40154" lon="5.96268">
        <ele>392.5</ele>
        <time>2012-05-24T13:27:09Z</time>
      </trkpt>
      <trkpt lat="47.40161" lon="5.96266">
        <ele>393.1</ele>
        <time>2012-05-24T13:27:16Z</time>
      </trkpt>
      <trkpt lat="47.40167" lon="5.96269">
        <ele>392.1</ele>
        <time>2012-05-24T13:27:21Z</time>
      </trkpt>
      <trkpt lat="47.40174" lon="5.96271">
        <ele>392.5</ele>
        <time>2012-05-24T13:27:26Z</time>
      </trkpt>
      <trkpt lat="47.4018" lon="5.96268">
        <ele>392.2</ele>
        <time>2012-05-24T13:27:33Z</time>
      </trkpt>
      <trkpt lat="47.40187" lon="5.96272">
        <ele>391.9</ele>
        <time>2012-05-24T13:27:40Z</time>
      </trkpt>
      <trkpt lat="47.40193" lon="5.96272">
        <ele>393.1</ele>
        <time>2012-05-24T13:27:46Z</time>
      </trkpt>
      <trkpt lat="47.402" lon="5.96273">
        <ele>393</ele>
        <time>2012-05-24T13:27:54Z</time>
      </trkpt>
      <trkpt lat="47.40207" lon="5.96277">
        <ele>393.8</ele>
        <time>2012-05-24T13:28:03Z</time>
      </trkpt>
      <trkpt lat="47.40214" lon="5.96279">
        <ele>393.5</ele>
        <time>2012-05-24T13:28:14Z</time>
      </trkpt>
      <trkpt lat="47.40221" lon="5.96275">
        <ele>393.7</ele>
        <time>2012-05-24T13:28:24Z</time>
      </trkpt>
      <trkpt lat="47.40227" lon="5.96276">
        <ele>394.6</ele>
        <time>2012-05-24T13:28:31Z</time>
      </trkpt>
      <trkpt lat="47.40233" lon="5.96282">
        <ele>394.5</ele>
        <time>2012-05-24T13:28:38Z</time>
      </trkpt>
      <trkpt lat="47.4024" lon="5.96288">
        <ele>396.6</ele>
        <time>2012-05-24T13:28:47Z</time>
      </trkpt>
      <trkpt lat="47.40245" lon="5.96291">
        <ele>397.1</ele>
        <time>2012-05-24T13:28:54Z</time>
      </trkpt>
      <trkpt lat="47.40245" lon="5.96291">
        <ele>345.4</ele>
        <time>2012-05-24T13:29:05Z</time>
      </trkpt>
      <trkpt lat="47.40245" lon="5.96291">
        <ele>345.4</ele>
        <time>2012-05-24T13:29:33Z</time>
      </trkpt>
      <trkpt lat="47.4026" lon="5.96297">
        <ele>394.7</ele>
        <time>2012-05-24T13:29:36Z</time>
      </trkpt>
      <trkpt lat="47.40267" lon="5.96301">
        <ele>393.6</ele>
        <time>2012-05-24T13:29:39Z</time>
      </trkpt>
      <trkpt lat="47.40273" lon="5.96304">
        <ele>394.2</ele>
        <time>2012-05-24T13:29:46Z</time>
      </trkpt>
      <trkpt lat="47.40276" lon="5.96313">
        <ele>397.1</ele>
        <time>2012-05-24T13:29:52Z</time>
      </trkpt>
      <trkpt lat="47.40282" lon="5.96316">
        <ele>399.5</ele>
        <time>2012-05-24T13:29:56Z</time>
      </trkpt>
      <trkpt lat="47.4029" lon="5.96319">
        <ele>399.4</ele>
        <time>2012-05-24T13:30:01Z</time>
      </trkpt>
      <trkpt lat="47.40295" lon="5.96324">
        <ele>400.4</ele>
        <time>2012-05-24T13:30:06Z</time>
      </trkpt>
      <trkpt lat="47.40301" lon="5.9633">
        <ele>398.3</ele>
        <time>2012-05-24T13:30:13Z</time>
      </trkpt>
      <trkpt lat="47.40306" lon="5.96336">
        <ele>397.6</ele>
        <time>2012-05-24T13:30:20Z</time>
      </trkpt>
      <trkpt lat="47.40312" lon="5.96339">
        <ele>396.9</ele>
        <time>2012-05-24T13:30:25Z</time>
      </trkpt>
      <trkpt lat="47.40319" lon="5.9634">
        <ele>399</ele>
        <time>2012-05-24T13:30:30Z</time>
      </trkpt>
      <trkpt lat="47.40324" lon="5.96347">
        <ele>400.8</ele>
        <time>2012-05-24T13:30:36Z</time>
      </trkpt>
      <trkpt lat="47.40328" lon="5.96355">
        <ele>402.2</ele>
        <time>2012-05-24T13:30:43Z</time>
      </trkpt>
      <trkpt lat="47.40334" lon="5.96358">
        <ele>400.7</ele>
        <time>2012-05-24T13:30:49Z</time>
      </trkpt>
      <trkpt lat="47.4034" lon="5.96363">
        <ele>402.2</ele>
        <time>2012-05-24T13:30:53Z</time>
      </trkpt>
      <trkpt lat="47.40346" lon="5.96368">
        <ele>402.2</ele>
        <time>2012-05-24T13:30:59Z</time>
      </trkpt>
      <trkpt lat="47.40353" lon="5.96371">
        <ele>401.6</ele>
        <time>2012-05-24T13:31:06Z</time>
      </trkpt>
      <trkpt lat="47.40353" lon="5.96371">
        <ele>348.4</ele>
        <time>2012-05-24T13:31:17Z</time>
      </trkpt>
      <trkpt lat="47.40353" lon="5.96371">
        <ele>348.4</ele>
        <time>2012-05-24T13:31:20Z</time>
      </trkpt>
      <trkpt lat="47.40366" lon="5.96382">
        <ele>403.5</ele>
        <time>2012-05-24T13:31:24Z</time>
      </trkpt>
      <trkpt lat="47.40366" lon="5.96382">
        <ele>349.8</ele>
        <time>2012-05-24T13:31:35Z</time>
      </trkpt>
      <trkpt lat="47.40366" lon="5.96382">
        <ele>349.8</ele>
        <time>2012-05-24T13:31:54Z</time>
      </trkpt>
      <trkpt lat="47.40375" lon="5.96401">
        <ele>401.9</ele>
        <time>2012-05-24T13:31:55Z</time>
      </trkpt>
      <trkpt lat="47.40379" lon="5.9641">
        <ele>401.1</ele>
        <time>2012-05-24T13:31:59Z</time>
      </trkpt>
      <trkpt lat="47.40385" lon="5.96417">
        <ele>402.4</ele>
        <time>2012-05-24T13:32:02Z</time>
      </trkpt>
      <trkpt lat="47.4039" lon="5.96424">
        <ele>402</ele>
        <time>2012-05-24T13:32:06Z</time>
      </trkpt>
      <trkpt lat="47.40396" lon="5.9643">
        <ele>402.9</ele>
        <time>2012-05-24T13:32:11Z</time>
      </trkpt>
      <trkpt lat="47.40401" lon="5.96436">
        <ele>403</ele>
        <time>2012-05-24T13:32:14Z</time>
      </trkpt>
      <trkpt lat="47.40407" lon="5.96437">
        <ele>403.6</ele>
        <time>2012-05-24T13:32:19Z</time>
      </trkpt>
      <trkpt lat="47.40413" lon="5.96442">
        <ele>407.4</ele>
        <time>2012-05-24T13:32:25Z</time>
      </trkpt>
      <trkpt lat="47.4042" lon="5.96444">
        <ele>407.7</ele>
        <time>2012-05-24T13:32:34Z</time>
      </trkpt>
      <trkpt lat="47.40426" lon="5.96448">
        <ele>408.4</ele>
        <time>2012-05-24T13:32:42Z</time>
      </trkpt>
      <trkpt lat="47.40433" lon="5.96449">
        <ele>408.4</ele>
        <time>2012-05-24T13:32:48Z</time>
      </trkpt>
      <trkpt lat="47.4044" lon="5.96454">
        <ele>407.3</ele>
        <time>2012-05-24T13:32:52Z</time>
      </trkpt>
      <trkpt lat="47.40447" lon="5.96457">
        <ele>407.4</ele>
        <time>2012-05-24T13:32:55Z</time>
      </trkpt>
      <trkpt lat="47.40453" lon="5.96462">
        <ele>407.9</ele>
        <time>2012-05-24T13:33:02Z</time>
      </trkpt>
      <trkpt lat="47.40461" lon="5.96462">
        <ele>409.8</ele>
        <time>2012-05-24T13:33:09Z</time>
      </trkpt>
      <trkpt lat="47.40467" lon="5.96466">
        <ele>411.2</ele>
        <time>2012-05-24T13:33:16Z</time>
      </trkpt>
      <trkpt lat="47.40471" lon="5.96474">
        <ele>411.4</ele>
        <time>2012-05-24T13:33:22Z</time>
      </trkpt>
      <trkpt lat="47.40471" lon="5.96474">
        <ele>355.8</ele>
        <time>2012-05-24T13:33:33Z</time>
      </trkpt>
      <trkpt lat="47.40471" lon="5.96474">
        <ele>355.8</ele>
        <time>2012-05-24T13:33:34Z</time>
      </trkpt>
      <trkpt lat="47.40471" lon="5.96474">
        <ele>355.8</ele>
        <time>2012-05-24T13:33:46Z</time>
      </trkpt>
      <trkpt lat="47.40471" lon="5.96474">
        <ele>355.8</ele>
        <time>2012-05-24T13:33:59Z</time>
      </trkpt>
      <trkpt lat="47.40486" lon="5.96492">
        <ele>416.8</ele>
        <time>2012-05-24T13:34:01Z</time>
      </trkpt>
      <trkpt lat="47.40493" lon="5.96497">
        <ele>417.5</ele>
        <time>2012-05-24T13:34:06Z</time>
      </trkpt>
      <trkpt lat="47.405" lon="5.96502">
        <ele>419.3</ele>
        <time>2012-05-24T13:34:09Z</time>
      </trkpt>
      <trkpt lat="47.40507" lon="5.96503">
        <ele>419.3</ele>
        <time>2012-05-24T13:34:11Z</time>
      </trkpt>
      <trkpt lat="47.40514" lon="5.96508">
        <ele>419.6</ele>
        <time>2012-05-24T13:34:17Z</time>
      </trkpt>
      <trkpt lat="47.40521" lon="5.9651">
        <ele>418.3</ele>
        <time>2012-05-24T13:34:22Z</time>
      </trkpt>
      <trkpt lat="47.40526" lon="5.96517">
        <ele>418.9</ele>
        <time>2012-05-24T13:34:25Z</time>
      </trkpt>
      <trkpt lat="47.40532" lon="5.96521">
        <ele>417.6</ele>
        <time>2012-05-24T13:34:31Z</time>
      </trkpt>
      <trkpt lat="47.40539" lon="5.96527">
        <ele>418.1</ele>
        <time>2012-05-24T13:34:37Z</time>
      </trkpt>
      <trkpt lat="47.40546" lon="5.96529">
        <ele>416</ele>
        <time>2012-05-24T13:34:40Z</time>
      </trkpt>
      <trkpt lat="47.40552" lon="5.96534">
        <ele>415.9</ele>
        <time>2012-05-24T13:34:45Z</time>
      </trkpt>
      <trkpt lat="47.40559" lon="5.96537">
        <ele>413</ele>
        <time>2012-05-24T13:34:49Z</time>
      </trkpt>
      <trkpt lat="47.40563" lon="5.96544">
        <ele>414.2</ele>
        <time>2012-05-24T13:34:56Z</time>
      </trkpt>
      <trkpt lat="47.40569" lon="5.96552">
        <ele>412.7</ele>
        <time>2012-05-24T13:35:01Z</time>
      </trkpt>
      <trkpt lat="47.40575" lon="5.96558">
        <ele>412.6</ele>
        <time>2012-05-24T13:35:07Z</time>
      </trkpt>
      <trkpt lat="47.4058" lon="5.96565">
        <ele>412.5</ele>
        <time>2012-05-24T13:35:13Z</time>
      </trkpt>
      <trkpt lat="47.40584" lon="5.96574">
        <ele>413.1</ele>
        <time>2012-05-24T13:35:19Z</time>
      </trkpt>
      <trkpt lat="47.40587" lon="5.96583">
        <ele>415.2</ele>
        <time>2012-05-24T13:35:26Z</time>
      </trkpt>
      <trkpt lat="47.40589" lon="5.96592">
        <ele>416.3</ele>
        <time>2012-05-24T13:35:32Z</time>
      </trkpt>
      <trkpt lat="47.40593" lon="5.966">
        <ele>418.4</ele>
        <time>2012-05-24T13:35:36Z</time>
      </trkpt>
      <trkpt lat="47.40598" lon="5.96606">
        <ele>418.2</ele>
        <time>2012-05-24T13:35:41Z</time>
      </trkpt>
      <trkpt lat="47.40604" lon="5.96613">
        <ele>419.6</ele>
        <time>2012-05-24T13:35:49Z</time>
      </trkpt>
      <trkpt lat="47.40607" lon="5.96621">
        <ele>419.5</ele>
        <time>2012-05-24T13:35:53Z</time>
      </trkpt>
      <trkpt lat="47.40611" lon="5.96629">
        <ele>420.2</ele>
        <time>2012-05-24T13:36:00Z</time>
      </trkpt>
      <trkpt lat="47.40614" lon="5.96638">
        <ele>421.8</ele>
        <time>2012-05-24T13:36:07Z</time>
      </trkpt>
      <trkpt lat="47.4062" lon="5.96644">
        <ele>420.7</ele>
        <time>2012-05-24T13:36:13Z</time>
      </trkpt>
      <trkpt lat="47.40627" lon="5.9665">
        <ele>421.6</ele>
        <time>2012-05-24T13:36:31Z</time>
      </trkpt>
      <trkpt lat="47.4063" lon="5.96661">
        <ele>422.8</ele>
        <time>2012-05-24T13:36:34Z</time>
      </trkpt>
      <trkpt lat="47.40636" lon="5.9667">
        <ele>423.8</ele>
        <time>2012-05-24T13:36:41Z</time>
      </trkpt>
      <trkpt lat="47.40641" lon="5.96675">
        <ele>421.8</ele>
        <time>2012-05-24T13:36:47Z</time>
      </trkpt>
      <trkpt lat="47.40646" lon="5.96683">
        <ele>422.1</ele>
        <time>2012-05-24T13:36:54Z</time>
      </trkpt>
      <trkpt lat="47.4065" lon="5.96692">
        <ele>422.9</ele>
        <time>2012-05-24T13:36:59Z</time>
      </trkpt>
      <trkpt lat="47.40655" lon="5.96698">
        <ele>422.9</ele>
        <time>2012-05-24T13:37:04Z</time>
      </trkpt>
      <trkpt lat="47.40659" lon="5.96706">
        <ele>422</ele>
        <time>2012-05-24T13:37:11Z</time>
      </trkpt>
      <trkpt lat="47.40666" lon="5.96704">
        <ele>423.4</ele>
        <time>2012-05-24T13:37:17Z</time>
      </trkpt>
      <trkpt lat="47.40673" lon="5.96704">
        <ele>423</ele>
        <time>2012-05-24T13:37:25Z</time>
      </trkpt>
      <trkpt lat="47.40679" lon="5.96701">
        <ele>424.1</ele>
        <time>2012-05-24T13:37:31Z</time>
      </trkpt>
      <trkpt lat="47.40686" lon="5.96704">
        <ele>424.6</ele>
        <time>2012-05-24T13:37:38Z</time>
      </trkpt>
      <trkpt lat="47.40694" lon="5.96702">
        <ele>425.3</ele>
        <time>2012-05-24T13:37:44Z</time>
      </trkpt>
      <trkpt lat="47.40699" lon="5.96697">
        <ele>425.4</ele>
        <time>2012-05-24T13:37:53Z</time>
      </trkpt>
      <trkpt lat="47.40706" lon="5.96696">
        <ele>425.8</ele>
        <time>2012-05-24T13:38:00Z</time>
      </trkpt>
      <trkpt lat="47.40713" lon="5.96692">
        <ele>424.1</ele>
        <time>2012-05-24T13:38:05Z</time>
      </trkpt>
      <trkpt lat="47.40718" lon="5.96687">
        <ele>420.5</ele>
        <time>2012-05-24T13:38:11Z</time>
      </trkpt>
      <trkpt lat="47.40725" lon="5.96683">
        <ele>420.7</ele>
        <time>2012-05-24T13:38:15Z</time>
      </trkpt>
      <trkpt lat="47.40732" lon="5.96679">
        <ele>423.4</ele>
        <time>2012-05-24T13:38:20Z</time>
      </trkpt>
      <trkpt lat="47.40739" lon="5.96676">
        <ele>423.6</ele>
        <time>2012-05-24T13:38:25Z</time>
      </trkpt>
      <trkpt lat="47.40747" lon="5.96675">
        <ele>423</ele>
        <time>2012-05-24T13:38:30Z</time>
      </trkpt>
      <trkpt lat="47.40752" lon="5.96669">
        <ele>425.2</ele>
        <time>2012-05-24T13:38:36Z</time>
      </trkpt>
      <trkpt lat="47.40752" lon="5.96669">
        <ele>360.8</ele>
        <time>2012-05-24T13:38:47Z</time>
      </trkpt>
      <trkpt lat="47.40752" lon="5.96669">
        <ele>360.8</ele>
        <time>2012-05-24T13:39:03Z</time>
      </trkpt>
      <trkpt lat="47.40766" lon="5.96665">
        <ele>422.7</ele>
        <time>2012-05-24T13:39:05Z</time>
      </trkpt>
      <trkpt lat="47.40774" lon="5.96666">
        <ele>422.3</ele>
        <time>2012-05-24T13:39:07Z</time>
      </trkpt>
      <trkpt lat="47.40784" lon="5.96666">
        <ele>420.3</ele>
        <time>2012-05-24T13:39:10Z</time>
      </trkpt>
      <trkpt lat="47.40792" lon="5.96669">
        <ele>420.8</ele>
        <time>2012-05-24T13:39:13Z</time>
      </trkpt>
      <trkpt lat="47.40799" lon="5.96672">
        <ele>422.1</ele>
        <time>2012-05-24T13:39:19Z</time>
      </trkpt>
      <trkpt lat="47.40805" lon="5.96678">
        <ele>421.5</ele>
        <time>2012-05-24T13:39:23Z</time>
      </trkpt>
      <trkpt lat="47.40812" lon="5.96676">
        <ele>422.2</ele>
        <time>2012-05-24T13:39:27Z</time>
      </trkpt>
      <trkpt lat="47.40812" lon="5.96676">
        <ele>356.3</ele>
        <time>2012-05-24T13:39:39Z</time>
      </trkpt>
      <trkpt lat="47.40812" lon="5.96676">
        <ele>356.3</ele>
        <time>2012-05-24T13:39:42Z</time>
      </trkpt>
      <trkpt lat="47.40827" lon="5.96673">
        <ele>417.8</ele>
        <time>2012-05-24T13:39:45Z</time>
      </trkpt>
      <trkpt lat="47.40833" lon="5.96669">
        <ele>418</ele>
        <time>2012-05-24T13:39:50Z</time>
      </trkpt>
      <trkpt lat="47.4084" lon="5.96666">
        <ele>417.9</ele>
        <time>2012-05-24T13:39:57Z</time>
      </trkpt>
      <trkpt lat="47.40848" lon="5.96661">
        <ele>418.5</ele>
        <time>2012-05-24T13:40:04Z</time>
      </trkpt>
      <trkpt lat="47.40855" lon="5.9666">
        <ele>419.3</ele>
        <time>2012-05-24T13:40:13Z</time>
      </trkpt>
      <trkpt lat="47.40863" lon="5.96659">
        <ele>417.4</ele>
        <time>2012-05-24T13:40:21Z</time>
      </trkpt>
      <trkpt lat="47.40869" lon="5.96654">
        <ele>418.3</ele>
        <time>2012-05-24T13:40:25Z</time>
      </trkpt>
      <trkpt lat="47.40875" lon="5.9665">
        <ele>417.4</ele>
        <time>2012-05-24T13:40:30Z</time>
      </trkpt>
      <trkpt lat="47.40881" lon="5.96645">
        <ele>411.9</ele>
        <time>2012-05-24T13:40:36Z</time>
      </trkpt>
      <trkpt lat="47.40887" lon="5.96639">
        <ele>409</ele>
        <time>2012-05-24T13:40:44Z</time>
      </trkpt>
      <trkpt lat="47.40891" lon="5.96631">
        <ele>409</ele>
        <time>2012-05-24T13:40:49Z</time>
      </trkpt>
      <trkpt lat="47.40894" lon="5.96623">
        <ele>407.1</ele>
        <time>2012-05-24T13:40:53Z</time>
      </trkpt>
      <trkpt lat="47.40899" lon="5.96614">
        <ele>404.6</ele>
        <time>2012-05-24T13:41:00Z</time>
      </trkpt>
      <trkpt lat="47.40901" lon="5.96605">
        <ele>402.2</ele>
        <time>2012-05-24T13:41:05Z</time>
      </trkpt>
      <trkpt lat="47.40906" lon="5.96597">
        <ele>400.5</ele>
        <time>2012-05-24T13:41:12Z</time>
      </trkpt>
      <trkpt lat="47.40912" lon="5.96591">
        <ele>401.4</ele>
        <time>2012-05-24T13:41:19Z</time>
      </trkpt>
      <trkpt lat="47.40917" lon="5.96583">
        <ele>400.1</ele>
        <time>2012-05-24T13:41:30Z</time>
      </trkpt>
      <trkpt lat="47.40917" lon="5.96583">
        <ele>348</ele>
        <time>2012-05-24T13:41:41Z</time>
      </trkpt>
      <trkpt lat="47.40917" lon="5.96583">
        <ele>348</ele>
        <time>2012-05-24T13:41:45Z</time>
      </trkpt>
      <trkpt lat="47.40931" lon="5.96584">
        <ele>397.3</ele>
        <time>2012-05-24T13:41:49Z</time>
      </trkpt>
      <trkpt lat="47.40937" lon="5.96587">
        <ele>399</ele>
        <time>2012-05-24T13:41:55Z</time>
      </trkpt>
      <trkpt lat="47.40943" lon="5.9659">
        <ele>401</ele>
        <time>2012-05-24T13:42:01Z</time>
      </trkpt>
      <trkpt lat="47.40949" lon="5.96597">
        <ele>400.5</ele>
        <time>2012-05-24T13:42:07Z</time>
      </trkpt>
      <trkpt lat="47.40954" lon="5.96604">
        <ele>400.4</ele>
        <time>2012-05-24T13:42:14Z</time>
      </trkpt>
      <trkpt lat="47.40956" lon="5.96614">
        <ele>401.1</ele>
        <time>2012-05-24T13:42:18Z</time>
      </trkpt>
      <trkpt lat="47.4096" lon="5.96621">
        <ele>400.7</ele>
        <time>2012-05-24T13:42:24Z</time>
      </trkpt>
      <trkpt lat="47.40966" lon="5.96627">
        <ele>402.5</ele>
        <time>2012-05-24T13:42:31Z</time>
      </trkpt>
      <trkpt lat="47.4097" lon="5.96636">
        <ele>403</ele>
        <time>2012-05-24T13:42:38Z</time>
      </trkpt>
      <trkpt lat="47.40974" lon="5.96644">
        <ele>402.3</ele>
        <time>2012-05-24T13:42:44Z</time>
      </trkpt>
      <trkpt lat="47.4098" lon="5.96646">
        <ele>400.5</ele>
        <time>2012-05-24T13:42:48Z</time>
      </trkpt>
      <trkpt lat="47.40983" lon="5.96656">
        <ele>401.4</ele>
        <time>2012-05-24T13:42:55Z</time>
      </trkpt>
      <trkpt lat="47.40989" lon="5.9666">
        <ele>399.2</ele>
        <time>2012-05-24T13:43:00Z</time>
      </trkpt>
      <trkpt lat="47.40989" lon="5.9666">
        <ele>350.5</ele>
        <time>2012-05-24T13:43:13Z</time>
      </trkpt>
      <trkpt lat="47.40989" lon="5.9666">
        <ele>350.5</ele>
        <time>2012-05-24T13:43:21Z</time>
      </trkpt>
      <trkpt lat="47.40998" lon="5.96673">
        <ele>401.8</ele>
        <time>2012-05-24T13:43:24Z</time>
      </trkpt>
      <trkpt lat="47.41004" lon="5.96678">
        <ele>400.3</ele>
        <time>2012-05-24T13:43:31Z</time>
      </trkpt>
      <trkpt lat="47.41009" lon="5.96685">
        <ele>398.8</ele>
        <time>2012-05-24T13:43:37Z</time>
      </trkpt>
      <trkpt lat="47.41015" lon="5.96692">
        <ele>399.1</ele>
        <time>2012-05-24T13:43:41Z</time>
      </trkpt>
      <trkpt lat="47.41021" lon="5.96697">
        <ele>398.7</ele>
        <time>2012-05-24T13:43:47Z</time>
      </trkpt>
      <trkpt lat="47.41027" lon="5.96698">
        <ele>397.5</ele>
        <time>2012-05-24T13:43:52Z</time>
      </trkpt>
      <trkpt lat="47.41034" lon="5.96704">
        <ele>399.6</ele>
        <time>2012-05-24T13:43:58Z</time>
      </trkpt>
      <trkpt lat="47.41039" lon="5.96712">
        <ele>399.4</ele>
        <time>2012-05-24T13:44:04Z</time>
      </trkpt>
      <trkpt lat="47.41045" lon="5.96717">
        <ele>398.8</ele>
        <time>2012-05-24T13:44:12Z</time>
      </trkpt>
      <trkpt lat="47.41051" lon="5.96723">
        <ele>398.5</ele>
        <time>2012-05-24T13:44:19Z</time>
      </trkpt>
      <trkpt lat="47.41055" lon="5.96729">
        <ele>398.4</ele>
        <time>2012-05-24T13:44:25Z</time>
      </trkpt>
      <trkpt lat="47.4106" lon="5.96736">
        <ele>398.1</ele>
        <time>2012-05-24T13:44:33Z</time>
      </trkpt>
      <trkpt lat="47.41066" lon="5.96741">
        <ele>396.7</ele>
        <time>2012-05-24T13:44:41Z</time>
      </trkpt>
      <trkpt lat="47.41074" lon="5.96747">
        <ele>396.2</ele>
        <time>2012-05-24T13:44:48Z</time>
      </trkpt>
      <trkpt lat="47.41079" lon="5.96754">
        <ele>397.1</ele>
        <time>2012-05-24T13:44:53Z</time>
      </trkpt>
      <trkpt lat="47.41086" lon="5.96757">
        <ele>396.7</ele>
        <time>2012-05-24T13:44:57Z</time>
      </trkpt>
      <trkpt lat="47.41089" lon="5.96765">
        <ele>395.6</ele>
        <time>2012-05-24T13:45:01Z</time>
      </trkpt>
      <trkpt lat="47.41096" lon="5.96766">
        <ele>394.2</ele>
        <time>2012-05-24T13:45:08Z</time>
      </trkpt>
      <trkpt lat="47.41102" lon="5.96774">
        <ele>393.5</ele>
        <time>2012-05-24T13:45:14Z</time>
      </trkpt>
      <trkpt lat="47.41109" lon="5.96778">
        <ele>393</ele>
        <time>2012-05-24T13:45:20Z</time>
      </trkpt>
      <trkpt lat="47.41109" lon="5.96788">
        <ele>392.5</ele>
        <time>2012-05-24T13:45:24Z</time>
      </trkpt>
      <trkpt lat="47.41115" lon="5.96793">
        <ele>393.1</ele>
        <time>2012-05-24T13:45:34Z</time>
      </trkpt>
      <trkpt lat="47.41119" lon="5.96801">
        <ele>391.8</ele>
        <time>2012-05-24T13:45:38Z</time>
      </trkpt>
      <trkpt lat="47.41125" lon="5.96804">
        <ele>391.4</ele>
        <time>2012-05-24T13:45:44Z</time>
      </trkpt>
      <trkpt lat="47.4113" lon="5.96809">
        <ele>389.8</ele>
        <time>2012-05-24T13:45:48Z</time>
      </trkpt>
      <trkpt lat="47.41135" lon="5.96816">
        <ele>390.9</ele>
        <time>2012-05-24T13:45:54Z</time>
      </trkpt>
      <trkpt lat="47.41141" lon="5.96822">
        <ele>392.7</ele>
        <time>2012-05-24T13:45:59Z</time>
      </trkpt>
      <trkpt lat="47.41148" lon="5.96825">
        <ele>392.4</ele>
        <time>2012-05-24T13:46:02Z</time>
      </trkpt>
      <trkpt lat="47.41154" lon="5.9683">
        <ele>389.9</ele>
        <time>2012-05-24T13:46:08Z</time>
      </trkpt>
      <trkpt lat="47.41159" lon="5.96839">
        <ele>389.7</ele>
        <time>2012-05-24T13:46:15Z</time>
      </trkpt>
      <trkpt lat="47.41165" lon="5.96844">
        <ele>390.6</ele>
        <time>2012-05-24T13:46:20Z</time>
      </trkpt>
      <trkpt lat="47.41168" lon="5.96852">
        <ele>390.5</ele>
        <time>2012-05-24T13:46:27Z</time>
      </trkpt>
      <trkpt lat="47.41177" lon="5.96855">
        <ele>390.9</ele>
        <time>2012-05-24T13:46:31Z</time>
      </trkpt>
      <trkpt lat="47.41182" lon="5.96863">
        <ele>390.7</ele>
        <time>2012-05-24T13:46:38Z</time>
      </trkpt>
      <trkpt lat="47.41187" lon="5.9687">
        <ele>391.6</ele>
        <time>2012-05-24T13:46:44Z</time>
      </trkpt>
      <trkpt lat="47.41191" lon="5.96878">
        <ele>392.1</ele>
        <time>2012-05-24T13:46:49Z</time>
      </trkpt>
      <trkpt lat="47.41195" lon="5.96885">
        <ele>392.8</ele>
        <time>2012-05-24T13:46:53Z</time>
      </trkpt>
      <trkpt lat="47.41201" lon="5.96893">
        <ele>393.6</ele>
        <time>2012-05-24T13:47:00Z</time>
      </trkpt>
      <trkpt lat="47.41208" lon="5.96898">
        <ele>392.9</ele>
        <time>2012-05-24T13:47:05Z</time>
      </trkpt>
      <trkpt lat="47.41214" lon="5.96903">
        <ele>391.8</ele>
        <time>2012-05-24T13:47:13Z</time>
      </trkpt>
      <trkpt lat="47.41218" lon="5.9691">
        <ele>392.8</ele>
        <time>2012-05-24T13:47:18Z</time>
      </trkpt>
      <trkpt lat="47.41223" lon="5.96917">
        <ele>391.4</ele>
        <time>2012-05-24T13:47:23Z</time>
      </trkpt>
      <trkpt lat="47.41227" lon="5.96925">
        <ele>390.3</ele>
        <time>2012-05-24T13:47:30Z</time>
      </trkpt>
      <trkpt lat="47.41233" lon="5.96931">
        <ele>389.3</ele>
        <time>2012-05-24T13:47:35Z</time>
      </trkpt>
      <trkpt lat="47.41236" lon="5.96939">
        <ele>389.2</ele>
        <time>2012-05-24T13:47:41Z</time>
      </trkpt>
      <trkpt lat="47.41242" lon="5.96944">
        <ele>389.2</ele>
        <time>2012-05-24T13:47:46Z</time>
      </trkpt>
      <trkpt lat="47.41247" lon="5.96949">
        <ele>388.4</ele>
        <time>2012-05-24T13:47:51Z</time>
      </trkpt>
      <trkpt lat="47.4125" lon="5.96959">
        <ele>388.7</ele>
        <time>2012-05-24T13:47:56Z</time>
      </trkpt>
      <trkpt lat="47.41257" lon="5.96965">
        <ele>389.4</ele>
        <time>2012-05-24T13:48:00Z</time>
      </trkpt>
      <trkpt lat="47.41263" lon="5.9697">
        <ele>389.3</ele>
        <time>2012-05-24T13:48:07Z</time>
      </trkpt>
      <trkpt lat="47.41269" lon="5.96975">
        <ele>390.9</ele>
        <time>2012-05-24T13:48:11Z</time>
      </trkpt>
      <trkpt lat="47.41272" lon="5.96985">
        <ele>389.6</ele>
        <time>2012-05-24T13:48:15Z</time>
      </trkpt>
      <trkpt lat="47.41275" lon="5.96994">
        <ele>389.5</ele>
        <time>2012-05-24T13:48:20Z</time>
      </trkpt>
      <trkpt lat="47.41281" lon="5.96999">
        <ele>391.5</ele>
        <time>2012-05-24T13:48:26Z</time>
      </trkpt>
      <trkpt lat="47.41285" lon="5.97006">
        <ele>391.7</ele>
        <time>2012-05-24T13:48:30Z</time>
      </trkpt>
      <trkpt lat="47.41292" lon="5.97009">
        <ele>391</ele>
        <time>2012-05-24T13:48:37Z</time>
      </trkpt>
      <trkpt lat="47.41296" lon="5.97018">
        <ele>391.4</ele>
        <time>2012-05-24T13:48:43Z</time>
      </trkpt>
      <trkpt lat="47.41302" lon="5.97022">
        <ele>390.6</ele>
        <time>2012-05-24T13:48:48Z</time>
      </trkpt>
      <trkpt lat="47.41307" lon="5.9703">
        <ele>389.7</ele>
        <time>2012-05-24T13:48:54Z</time>
      </trkpt>
      <trkpt lat="47.41314" lon="5.97033">
        <ele>388.8</ele>
        <time>2012-05-24T13:48:59Z</time>
      </trkpt>
      <trkpt lat="47.4132" lon="5.97035">
        <ele>388.8</ele>
        <time>2012-05-24T13:49:06Z</time>
      </trkpt>
      <trkpt lat="47.41327" lon="5.97036">
        <ele>389.9</ele>
        <time>2012-05-24T13:49:12Z</time>
      </trkpt>
      <trkpt lat="47.4133" lon="5.97045">
        <ele>389.3</ele>
        <time>2012-05-24T13:49:16Z</time>
      </trkpt>
      <trkpt lat="47.41337" lon="5.97045">
        <ele>388.2</ele>
        <time>2012-05-24T13:49:22Z</time>
      </trkpt>
      <trkpt lat="47.41344" lon="5.97048">
        <ele>387.5</ele>
        <time>2012-05-24T13:49:27Z</time>
      </trkpt>
      <trkpt lat="47.41351" lon="5.97049">
        <ele>386.1</ele>
        <time>2012-05-24T13:49:32Z</time>
      </trkpt>
      <trkpt lat="47.41355" lon="5.97057">
        <ele>386.9</ele>
        <time>2012-05-24T13:49:37Z</time>
      </trkpt>
      <trkpt lat="47.41362" lon="5.97059">
        <ele>388.2</ele>
        <time>2012-05-24T13:49:48Z</time>
      </trkpt>
      <trkpt lat="47.4137" lon="5.97064">
        <ele>386.7</ele>
        <time>2012-05-24T13:49:56Z</time>
      </trkpt>
      <trkpt lat="47.41371" lon="5.97074">
        <ele>386.1</ele>
        <time>2012-05-24T13:50:00Z</time>
      </trkpt>
      <trkpt lat="47.41376" lon="5.9708">
        <ele>386.5</ele>
        <time>2012-05-24T13:50:03Z</time>
      </trkpt>
      <trkpt lat="47.4138" lon="5.97088">
        <ele>386.6</ele>
        <time>2012-05-24T13:50:07Z</time>
      </trkpt>
      <trkpt lat="47.41385" lon="5.97093">
        <ele>385.3</ele>
        <time>2012-05-24T13:50:15Z</time>
      </trkpt>
      <trkpt lat="47.41393" lon="5.97096">
        <ele>384.2</ele>
        <time>2012-05-24T13:50:21Z</time>
      </trkpt>
      <trkpt lat="47.414" lon="5.97097">
        <ele>383.3</ele>
        <time>2012-05-24T13:50:25Z</time>
      </trkpt>
      <trkpt lat="47.41404" lon="5.97105">
        <ele>385.9</ele>
        <time>2012-05-24T13:50:30Z</time>
      </trkpt>
      <trkpt lat="47.41412" lon="5.97109">
        <ele>386.7</ele>
        <time>2012-05-24T13:50:34Z</time>
      </trkpt>
      <trkpt lat="47.41416" lon="5.97115">
        <ele>386.8</ele>
        <time>2012-05-24T13:50:41Z</time>
      </trkpt>
      <trkpt lat="47.41422" lon="5.97119">
        <ele>384.7</ele>
        <time>2012-05-24T13:50:51Z</time>
      </trkpt>
      <trkpt lat="47.41429" lon="5.97114">
        <ele>384.9</ele>
        <time>2012-05-24T13:50:56Z</time>
      </trkpt>
      <trkpt lat="47.41435" lon="5.97116">
        <ele>384.7</ele>
        <time>2012-05-24T13:51:03Z</time>
      </trkpt>
      <trkpt lat="47.41441" lon="5.97118">
        <ele>382.1</ele>
        <time>2012-05-24T13:51:10Z</time>
      </trkpt>
      <trkpt lat="47.41448" lon="5.9712">
        <ele>381.1</ele>
        <time>2012-05-24T13:51:18Z</time>
      </trkpt>
      <trkpt lat="47.41454" lon="5.97121">
        <ele>381.9</ele>
        <time>2012-05-24T13:51:22Z</time>
      </trkpt>
      <trkpt lat="47.41461" lon="5.97126">
        <ele>381.5</ele>
        <time>2012-05-24T13:51:28Z</time>
      </trkpt>
      <trkpt lat="47.41467" lon="5.97131">
        <ele>380.7</ele>
        <time>2012-05-24T13:51:34Z</time>
      </trkpt>
      <trkpt lat="47.41474" lon="5.97135">
        <ele>380.9</ele>
        <time>2012-05-24T13:51:43Z</time>
      </trkpt>
      <trkpt lat="47.41474" lon="5.97135">
        <ele>329.5</ele>
        <time>2012-05-24T13:51:54Z</time>
      </trkpt>
      <trkpt lat="47.41474" lon="5.97135">
        <ele>329.5</ele>
        <time>2012-05-24T13:52:00Z</time>
      </trkpt>
      <trkpt lat="47.41486" lon="5.97127">
        <ele>380.8</ele>
        <time>2012-05-24T13:52:09Z</time>
      </trkpt>
      <trkpt lat="47.41486" lon="5.97127">
        <ele>330.9</ele>
        <time>2012-05-24T13:52:21Z</time>
      </trkpt>
      <trkpt lat="47.41486" lon="5.97127">
        <ele>330.9</ele>
        <time>2012-05-24T13:52:33Z</time>
      </trkpt>
      <trkpt lat="47.41492" lon="5.97141">
        <ele>380.7</ele>
        <time>2012-05-24T13:52:40Z</time>
      </trkpt>
      <trkpt lat="47.41499" lon="5.97144">
        <ele>379.1</ele>
        <time>2012-05-24T13:52:48Z</time>
      </trkpt>
      <trkpt lat="47.41503" lon="5.97153">
        <ele>376.5</ele>
        <time>2012-05-24T13:52:57Z</time>
      </trkpt>
      <trkpt lat="47.4151" lon="5.97156">
        <ele>375.8</ele>
        <time>2012-05-24T13:53:00Z</time>
      </trkpt>
      <trkpt lat="47.41516" lon="5.97162">
        <ele>373.7</ele>
        <time>2012-05-24T13:53:09Z</time>
      </trkpt>
      <trkpt lat="47.41523" lon="5.97165">
        <ele>375.1</ele>
        <time>2012-05-24T13:53:15Z</time>
      </trkpt>
      <trkpt lat="47.41529" lon="5.97168">
        <ele>375.5</ele>
        <time>2012-05-24T13:53:20Z</time>
      </trkpt>
      <trkpt lat="47.41536" lon="5.97168">
        <ele>374.3</ele>
        <time>2012-05-24T13:53:30Z</time>
      </trkpt>
      <trkpt lat="47.41543" lon="5.97172">
        <ele>373.9</ele>
        <time>2012-05-24T13:53:37Z</time>
      </trkpt>
      <trkpt lat="47.41543" lon="5.97172">
        <ele>324.6</ele>
        <time>2012-05-24T13:53:49Z</time>
      </trkpt>
      <trkpt lat="47.41543" lon="5.97172">
        <ele>324.6</ele>
        <time>2012-05-24T13:54:15Z</time>
      </trkpt>
      <trkpt lat="47.41554" lon="5.9718">
        <ele>372.9</ele>
        <time>2012-05-24T13:54:20Z</time>
      </trkpt>
      <trkpt lat="47.4156" lon="5.97184">
        <ele>372.1</ele>
        <time>2012-05-24T13:54:28Z</time>
      </trkpt>
      <trkpt lat="47.41567" lon="5.97186">
        <ele>371.8</ele>
        <time>2012-05-24T13:54:32Z</time>
      </trkpt>
      <trkpt lat="47.41575" lon="5.97189">
        <ele>371.4</ele>
        <time>2012-05-24T13:54:39Z</time>
      </trkpt>
      <trkpt lat="47.41575" lon="5.97189">
        <ele>324.6</ele>
        <time>2012-05-24T13:54:51Z</time>
      </trkpt>
      <trkpt lat="47.41575" lon="5.97189">
        <ele>324.6</ele>
        <time>2012-05-24T13:55:16Z</time>
      </trkpt>
      <trkpt lat="47.4159" lon="5.97196">
        <ele>371.6</ele>
        <time>2012-05-24T13:55:20Z</time>
      </trkpt>
      <trkpt lat="47.41594" lon="5.97203">
        <ele>369.8</ele>
        <time>2012-05-24T13:55:27Z</time>
      </trkpt>
      <trkpt lat="47.41597" lon="5.97214">
        <ele>374.7</ele>
        <time>2012-05-24T13:55:37Z</time>
      </trkpt>
      <trkpt lat="47.41603" lon="5.97213">
        <ele>376.2</ele>
        <time>2012-05-24T13:55:42Z</time>
      </trkpt>
      <trkpt lat="47.4161" lon="5.97215">
        <ele>376.6</ele>
        <time>2012-05-24T13:55:45Z</time>
      </trkpt>
      <trkpt lat="47.41616" lon="5.97217">
        <ele>377.2</ele>
        <time>2012-05-24T13:55:49Z</time>
      </trkpt>
      <trkpt lat="47.41622" lon="5.97219">
        <ele>377.8</ele>
        <time>2012-05-24T13:55:55Z</time>
      </trkpt>
      <trkpt lat="47.4163" lon="5.97222">
        <ele>378.3</ele>
        <time>2012-05-24T13:56:00Z</time>
      </trkpt>
      <trkpt lat="47.41636" lon="5.97225">
        <ele>379.3</ele>
        <time>2012-05-24T13:56:06Z</time>
      </trkpt>
      <trkpt lat="47.41642" lon="5.97229">
        <ele>379.4</ele>
        <time>2012-05-24T13:56:11Z</time>
      </trkpt>
      <trkpt lat="47.41646" lon="5.97236">
        <ele>381</ele>
        <time>2012-05-24T13:56:17Z</time>
      </trkpt>
      <trkpt lat="47.41653" lon="5.97239">
        <ele>378.3</ele>
        <time>2012-05-24T13:56:23Z</time>
      </trkpt>
      <trkpt lat="47.4166" lon="5.9724">
        <ele>377.8</ele>
        <time>2012-05-24T13:56:28Z</time>
      </trkpt>
      <trkpt lat="47.41666" lon="5.97237">
        <ele>378.2</ele>
        <time>2012-05-24T13:56:32Z</time>
      </trkpt>
      <trkpt lat="47.41666" lon="5.97237">
        <ele>330</ele>
        <time>2012-05-24T13:56:45Z</time>
      </trkpt>
      <trkpt lat="47.41666" lon="5.97237">
        <ele>330</ele>
        <time>2012-05-24T13:56:49Z</time>
      </trkpt>
      <trkpt lat="47.41679" lon="5.97244">
        <ele>377</ele>
        <time>2012-05-24T13:56:55Z</time>
      </trkpt>
      <trkpt lat="47.41685" lon="5.97243">
        <ele>377.4</ele>
        <time>2012-05-24T13:57:02Z</time>
      </trkpt>
      <trkpt lat="47.41685" lon="5.97243">
        <ele>330</ele>
        <time>2012-05-24T13:57:14Z</time>
      </trkpt>
      <trkpt lat="47.41685" lon="5.97243">
        <ele>330</ele>
        <time>2012-05-24T13:57:54Z</time>
      </trkpt>
      <trkpt lat="47.41685" lon="5.97243">
        <ele>330</ele>
        <time>2012-05-24T13:58:06Z</time>
      </trkpt>
      <trkpt lat="47.41685" lon="5.97243">
        <ele>330</ele>
        <time>2012-05-24T13:58:53Z</time>
      </trkpt>
      <trkpt lat="47.41685" lon="5.97243">
        <ele>330</ele>
        <time>2012-05-24T13:59:04Z</time>
      </trkpt>
      <trkpt lat="47.41685" lon="5.97243">
        <ele>330</ele>
        <time>2012-05-24T13:59:49Z</time>
      </trkpt>
      <trkpt lat="47.41685" lon="5.97243">
        <ele>330</ele>
        <time>2012-05-24T14:00:00Z</time>
      </trkpt>
      <trkpt lat="47.41685" lon="5.97243">
        <ele>330</ele>
        <time>2012-05-24T14:03:47Z</time>
      </trkpt>
      <trkpt lat="47.41685" lon="5.97243">
        <ele>330</ele>
        <time>2012-05-24T14:03:58Z</time>
      </trkpt>
      <trkpt lat="47.41685" lon="5.97243">
        <ele>330</ele>
        <time>2012-05-24T14:04:01Z</time>
      </trkpt>
      <trkpt lat="47.41677" lon="5.97248">
        <ele>382.4</ele>
        <time>2012-05-24T14:04:10Z</time>
      </trkpt>
      <trkpt lat="47.4167" lon="5.97242">
        <ele>386.2</ele>
        <time>2012-05-24T14:04:14Z</time>
      </trkpt>
      <trkpt lat="47.41663" lon="5.97238">
        <ele>385.7</ele>
        <time>2012-05-24T14:04:20Z</time>
      </trkpt>
      <trkpt lat="47.41657" lon="5.97233">
        <ele>386.5</ele>
        <time>2012-05-24T14:04:29Z</time>
      </trkpt>
      <trkpt lat="47.4165" lon="5.97231">
        <ele>386.2</ele>
        <time>2012-05-24T14:04:33Z</time>
      </trkpt>
      <trkpt lat="47.41643" lon="5.97229">
        <ele>386.2</ele>
        <time>2012-05-24T14:04:37Z</time>
      </trkpt>
      <trkpt lat="47.41643" lon="5.97229">
        <ele>329.1</ele>
        <time>2012-05-24T14:04:49Z</time>
      </trkpt>
      <trkpt lat="47.41643" lon="5.97229">
        <ele>329.1</ele>
        <time>2012-05-24T14:04:58Z</time>
      </trkpt>
      <trkpt lat="47.41628" lon="5.97219">
        <ele>385.8</ele>
        <time>2012-05-24T14:05:01Z</time>
      </trkpt>
      <trkpt lat="47.41622" lon="5.97218">
        <ele>383.6</ele>
        <time>2012-05-24T14:05:06Z</time>
      </trkpt>
      <trkpt lat="47.41615" lon="5.97214">
        <ele>382</ele>
        <time>2012-05-24T14:05:16Z</time>
      </trkpt>
      <trkpt lat="47.41615" lon="5.97214">
        <ele>327.9</ele>
        <time>2012-05-24T14:05:28Z</time>
      </trkpt>
      <trkpt lat="47.41615" lon="5.97214">
        <ele>327.9</ele>
        <time>2012-05-24T14:05:29Z</time>
      </trkpt>
      <trkpt lat="47.41602" lon="5.97205">
        <ele>382.5</ele>
        <time>2012-05-24T14:05:37Z</time>
      </trkpt>
      <trkpt lat="47.41597" lon="5.97198">
        <ele>382.8</ele>
        <time>2012-05-24T14:05:40Z</time>
      </trkpt>
      <trkpt lat="47.41588" lon="5.972">
        <ele>382.7</ele>
        <time>2012-05-24T14:05:43Z</time>
      </trkpt>
      <trkpt lat="47.41582" lon="5.97197">
        <ele>381.6</ele>
        <time>2012-05-24T14:05:49Z</time>
      </trkpt>
      <trkpt lat="47.41582" lon="5.97197">
        <ele>324.9</ele>
        <time>2012-05-24T14:06:02Z</time>
      </trkpt>
      <trkpt lat="47.41582" lon="5.97197">
        <ele>324.9</ele>
        <time>2012-05-24T14:06:15Z</time>
      </trkpt>
      <trkpt lat="47.41569" lon="5.97183">
        <ele>380.1</ele>
        <time>2012-05-24T14:06:17Z</time>
      </trkpt>
      <trkpt lat="47.41562" lon="5.97178">
        <ele>379.6</ele>
        <time>2012-05-24T14:06:21Z</time>
      </trkpt>
      <trkpt lat="47.41556" lon="5.97173">
        <ele>380.5</ele>
        <time>2012-05-24T14:06:25Z</time>
      </trkpt>
      <trkpt lat="47.41549" lon="5.97171">
        <ele>382.6</ele>
        <time>2012-05-24T14:06:32Z</time>
      </trkpt>
      <trkpt lat="47.41541" lon="5.97172">
        <ele>378.5</ele>
        <time>2012-05-24T14:06:36Z</time>
      </trkpt>
      <trkpt lat="47.41534" lon="5.9717">
        <ele>376.9</ele>
        <time>2012-05-24T14:06:41Z</time>
      </trkpt>
      <trkpt lat="47.41528" lon="5.97174">
        <ele>375.9</ele>
        <time>2012-05-24T14:06:48Z</time>
      </trkpt>
      <trkpt lat="47.41521" lon="5.97174">
        <ele>376.5</ele>
        <time>2012-05-24T14:06:56Z</time>
      </trkpt>
      <trkpt lat="47.4152" lon="5.97184">
        <ele>375.8</ele>
        <time>2012-05-24T14:06:59Z</time>
      </trkpt>
      <trkpt lat="47.41517" lon="5.97194">
        <ele>375.2</ele>
        <time>2012-05-24T14:07:06Z</time>
      </trkpt>
      <trkpt lat="47.41512" lon="5.97202">
        <ele>374.4</ele>
        <time>2012-05-24T14:07:12Z</time>
      </trkpt>
      <trkpt lat="47.41506" lon="5.97207">
        <ele>376.6</ele>
        <time>2012-05-24T14:07:18Z</time>
      </trkpt>
      <trkpt lat="47.41501" lon="5.97213">
        <ele>379.1</ele>
        <time>2012-05-24T14:07:25Z</time>
      </trkpt>
      <trkpt lat="47.41501" lon="5.97213">
        <ele>322</ele>
        <time>2012-05-24T14:07:37Z</time>
      </trkpt>
      <trkpt lat="47.41501" lon="5.97213">
        <ele>322</ele>
        <time>2012-05-24T14:08:00Z</time>
      </trkpt>
      <trkpt lat="47.41488" lon="5.97221">
        <ele>379.7</ele>
        <time>2012-05-24T14:08:05Z</time>
      </trkpt>
      <trkpt lat="47.41483" lon="5.97227">
        <ele>379</ele>
        <time>2012-05-24T14:08:12Z</time>
      </trkpt>
      <trkpt lat="47.41483" lon="5.97227">
        <ele>321.1</ele>
        <time>2012-05-24T14:08:24Z</time>
      </trkpt>
      <trkpt lat="47.41483" lon="5.97227">
        <ele>321.1</ele>
        <time>2012-05-24T14:08:35Z</time>
      </trkpt>
      <trkpt lat="47.41469" lon="5.97237">
        <ele>375.1</ele>
        <time>2012-05-24T14:08:39Z</time>
      </trkpt>
      <trkpt lat="47.41462" lon="5.97241">
        <ele>374.4</ele>
        <time>2012-05-24T14:08:45Z</time>
      </trkpt>
      <trkpt lat="47.41455" lon="5.97245">
        <ele>373.6</ele>
        <time>2012-05-24T14:08:51Z</time>
      </trkpt>
      <trkpt lat="47.4145" lon="5.9725">
        <ele>373.7</ele>
        <time>2012-05-24T14:08:55Z</time>
      </trkpt>
      <trkpt lat="47.41443" lon="5.97255">
        <ele>374.1</ele>
        <time>2012-05-24T14:09:00Z</time>
      </trkpt>
      <trkpt lat="47.41437" lon="5.97256">
        <ele>374.6</ele>
        <time>2012-05-24T14:09:09Z</time>
      </trkpt>
      <trkpt lat="47.41437" lon="5.97256">
        <ele>319.8</ele>
        <time>2012-05-24T14:09:21Z</time>
      </trkpt>
      <trkpt lat="47.41437" lon="5.97256">
        <ele>319.8</ele>
        <time>2012-05-24T14:09:25Z</time>
      </trkpt>
      <trkpt lat="47.41422" lon="5.97266">
        <ele>369.3</ele>
        <time>2012-05-24T14:09:31Z</time>
      </trkpt>
      <trkpt lat="47.41416" lon="5.9727">
        <ele>368.9</ele>
        <time>2012-05-24T14:09:35Z</time>
      </trkpt>
      <trkpt lat="47.41409" lon="5.97277">
        <ele>367.5</ele>
        <time>2012-05-24T14:09:39Z</time>
      </trkpt>
      <trkpt lat="47.41403" lon="5.97284">
        <ele>368.4</ele>
        <time>2012-05-24T14:09:44Z</time>
      </trkpt>
      <trkpt lat="47.41396" lon="5.97288">
        <ele>369.7</ele>
        <time>2012-05-24T14:09:49Z</time>
      </trkpt>
      <trkpt lat="47.4139" lon="5.97294">
        <ele>370.3</ele>
        <time>2012-05-24T14:09:54Z</time>
      </trkpt>
      <trkpt lat="47.41385" lon="5.973">
        <ele>371.6</ele>
        <time>2012-05-24T14:10:00Z</time>
      </trkpt>
      <trkpt lat="47.41379" lon="5.97307">
        <ele>370.9</ele>
        <time>2012-05-24T14:10:05Z</time>
      </trkpt>
      <trkpt lat="47.41379" lon="5.97307">
        <ele>317.2</ele>
        <time>2012-05-24T14:10:17Z</time>
      </trkpt>
      <trkpt lat="47.41379" lon="5.97307">
        <ele>317.2</ele>
        <time>2012-05-24T14:10:39Z</time>
      </trkpt>
      <trkpt lat="47.41366" lon="5.97314">
        <ele>369</ele>
        <time>2012-05-24T14:10:44Z</time>
      </trkpt>
      <trkpt lat="47.41361" lon="5.97321">
        <ele>368.6</ele>
        <time>2012-05-24T14:10:51Z</time>
      </trkpt>
      <trkpt lat="47.41354" lon="5.97324">
        <ele>368.8</ele>
        <time>2012-05-24T14:10:57Z</time>
      </trkpt>
      <trkpt lat="47.41347" lon="5.97326">
        <ele>369.2</ele>
        <time>2012-05-24T14:11:03Z</time>
      </trkpt>
      <trkpt lat="47.41342" lon="5.97333">
        <ele>368.7</ele>
        <time>2012-05-24T14:11:09Z</time>
      </trkpt>
      <trkpt lat="47.41337" lon="5.97339">
        <ele>369.1</ele>
        <time>2012-05-24T14:11:12Z</time>
      </trkpt>
      <trkpt lat="47.41333" lon="5.97348">
        <ele>368.1</ele>
        <time>2012-05-24T14:11:20Z</time>
      </trkpt>
      <trkpt lat="47.41328" lon="5.97355">
        <ele>366.5</ele>
        <time>2012-05-24T14:11:23Z</time>
      </trkpt>
      <trkpt lat="47.41324" lon="5.97363">
        <ele>363.4</ele>
        <time>2012-05-24T14:11:31Z</time>
      </trkpt>
      <trkpt lat="47.41317" lon="5.97371">
        <ele>363.3</ele>
        <time>2012-05-24T14:11:37Z</time>
      </trkpt>
      <trkpt lat="47.41313" lon="5.97381">
        <ele>363.5</ele>
        <time>2012-05-24T14:11:41Z</time>
      </trkpt>
      <trkpt lat="47.41309" lon="5.9739">
        <ele>364.8</ele>
        <time>2012-05-24T14:11:45Z</time>
      </trkpt>
      <trkpt lat="47.41309" lon="5.9739">
        <ele>312.1</ele>
        <time>2012-05-24T14:11:57Z</time>
      </trkpt>
      <trkpt lat="47.41309" lon="5.9739">
        <ele>312.1</ele>
        <time>2012-05-24T14:12:04Z</time>
      </trkpt>
      <trkpt lat="47.41298" lon="5.97405">
        <ele>365.1</ele>
        <time>2012-05-24T14:12:08Z</time>
      </trkpt>
      <trkpt lat="47.41294" lon="5.97413">
        <ele>364.8</ele>
        <time>2012-05-24T14:12:13Z</time>
      </trkpt>
      <trkpt lat="47.41289" lon="5.9742">
        <ele>364.2</ele>
        <time>2012-05-24T14:12:17Z</time>
      </trkpt>
      <trkpt lat="47.41282" lon="5.97426">
        <ele>363.4</ele>
        <time>2012-05-24T14:12:24Z</time>
      </trkpt>
      <trkpt lat="47.41277" lon="5.97432">
        <ele>364.2</ele>
        <time>2012-05-24T14:12:29Z</time>
      </trkpt>
      <trkpt lat="47.41271" lon="5.97438">
        <ele>363.2</ele>
        <time>2012-05-24T14:12:36Z</time>
      </trkpt>
      <trkpt lat="47.41264" lon="5.97438">
        <ele>361.7</ele>
        <time>2012-05-24T14:12:42Z</time>
      </trkpt>
      <trkpt lat="47.41259" lon="5.97444">
        <ele>360.6</ele>
        <time>2012-05-24T14:12:46Z</time>
      </trkpt>
      <trkpt lat="47.41253" lon="5.97451">
        <ele>358.9</ele>
        <time>2012-05-24T14:12:53Z</time>
      </trkpt>
      <trkpt lat="47.41247" lon="5.97455">
        <ele>359</ele>
        <time>2012-05-24T14:12:57Z</time>
      </trkpt>
      <trkpt lat="47.4124" lon="5.97457">
        <ele>357.8</ele>
        <time>2012-05-24T14:13:03Z</time>
      </trkpt>
      <trkpt lat="47.41234" lon="5.97462">
        <ele>358.1</ele>
        <time>2012-05-24T14:13:09Z</time>
      </trkpt>
      <trkpt lat="47.41229" lon="5.97468">
        <ele>358.1</ele>
        <time>2012-05-24T14:13:13Z</time>
      </trkpt>
      <trkpt lat="47.41223" lon="5.97472">
        <ele>358.3</ele>
        <time>2012-05-24T14:13:16Z</time>
      </trkpt>
      <trkpt lat="47.41218" lon="5.97479">
        <ele>359.6</ele>
        <time>2012-05-24T14:13:21Z</time>
      </trkpt>
      <trkpt lat="47.41212" lon="5.97484">
        <ele>360.5</ele>
        <time>2012-05-24T14:13:26Z</time>
      </trkpt>
      <trkpt lat="47.41212" lon="5.97484">
        <ele>306.7</ele>
        <time>2012-05-24T14:13:37Z</time>
      </trkpt>
      <trkpt lat="47.41212" lon="5.97484">
        <ele>306.7</ele>
        <time>2012-05-24T14:13:47Z</time>
      </trkpt>
      <trkpt lat="47.41201" lon="5.97496">
        <ele>359.1</ele>
        <time>2012-05-24T14:13:51Z</time>
      </trkpt>
      <trkpt lat="47.41196" lon="5.97503">
        <ele>359</ele>
        <time>2012-05-24T14:13:54Z</time>
      </trkpt>
      <trkpt lat="47.41192" lon="5.9751">
        <ele>358.6</ele>
        <time>2012-05-24T14:13:59Z</time>
      </trkpt>
      <trkpt lat="47.41188" lon="5.9752">
        <ele>358.7</ele>
        <time>2012-05-24T14:14:03Z</time>
      </trkpt>
      <trkpt lat="47.41182" lon="5.97528">
        <ele>358.9</ele>
        <time>2012-05-24T14:14:09Z</time>
      </trkpt>
      <trkpt lat="47.41179" lon="5.97538">
        <ele>359.1</ele>
        <time>2012-05-24T14:14:13Z</time>
      </trkpt>
      <trkpt lat="47.41179" lon="5.97538">
        <ele>306.9</ele>
        <time>2012-05-24T14:14:25Z</time>
      </trkpt>
      <trkpt lat="47.41179" lon="5.97538">
        <ele>306.9</ele>
        <time>2012-05-24T14:14:28Z</time>
      </trkpt>
      <trkpt lat="47.41171" lon="5.97557">
        <ele>361.6</ele>
        <time>2012-05-24T14:14:39Z</time>
      </trkpt>
      <trkpt lat="47.4117" lon="5.97566">
        <ele>362.6</ele>
        <time>2012-05-24T14:14:49Z</time>
      </trkpt>
      <trkpt lat="47.41166" lon="5.97574">
        <ele>361.5</ele>
        <time>2012-05-24T14:14:52Z</time>
      </trkpt>
      <trkpt lat="47.41162" lon="5.97582">
        <ele>360.9</ele>
        <time>2012-05-24T14:14:54Z</time>
      </trkpt>
      <trkpt lat="47.41159" lon="5.97592">
        <ele>360.9</ele>
        <time>2012-05-24T14:14:57Z</time>
      </trkpt>
      <trkpt lat="47.41155" lon="5.97599">
        <ele>361.4</ele>
        <time>2012-05-24T14:14:59Z</time>
      </trkpt>
      <trkpt lat="47.4115" lon="5.97609">
        <ele>360.9</ele>
        <time>2012-05-24T14:15:03Z</time>
      </trkpt>
      <trkpt lat="47.41147" lon="5.97617">
        <ele>359.9</ele>
        <time>2012-05-24T14:15:09Z</time>
      </trkpt>
      <trkpt lat="47.41146" lon="5.97626">
        <ele>360.5</ele>
        <time>2012-05-24T14:15:13Z</time>
      </trkpt>
      <trkpt lat="47.41144" lon="5.97637">
        <ele>360.7</ele>
        <time>2012-05-24T14:15:18Z</time>
      </trkpt>
      <trkpt lat="47.41142" lon="5.97647">
        <ele>361</ele>
        <time>2012-05-24T14:15:26Z</time>
      </trkpt>
      <trkpt lat="47.4114" lon="5.97656">
        <ele>362.3</ele>
        <time>2012-05-24T14:15:31Z</time>
      </trkpt>
      <trkpt lat="47.41136" lon="5.97664">
        <ele>360.5</ele>
        <time>2012-05-24T14:15:35Z</time>
      </trkpt>
      <trkpt lat="47.41132" lon="5.97672">
        <ele>360.5</ele>
        <time>2012-05-24T14:15:40Z</time>
      </trkpt>
      <trkpt lat="47.41131" lon="5.97684">
        <ele>361.2</ele>
        <time>2012-05-24T14:15:45Z</time>
      </trkpt>
      <trkpt lat="47.41125" lon="5.97688">
        <ele>361.8</ele>
        <time>2012-05-24T14:15:51Z</time>
      </trkpt>
      <trkpt lat="47.41121" lon="5.97699">
        <ele>360</ele>
        <time>2012-05-24T14:15:58Z</time>
      </trkpt>
      <trkpt lat="47.41115" lon="5.97703">
        <ele>359.6</ele>
        <time>2012-05-24T14:16:04Z</time>
      </trkpt>
      <trkpt lat="47.4111" lon="5.97711">
        <ele>358.4</ele>
        <time>2012-05-24T14:16:09Z</time>
      </trkpt>
      <trkpt lat="47.41103" lon="5.97714">
        <ele>358.3</ele>
        <time>2012-05-24T14:16:16Z</time>
      </trkpt>
      <trkpt lat="47.41096" lon="5.97717">
        <ele>358.5</ele>
        <time>2012-05-24T14:16:22Z</time>
      </trkpt>
      <trkpt lat="47.4109" lon="5.97722">
        <ele>356.4</ele>
        <time>2012-05-24T14:16:27Z</time>
      </trkpt>
      <trkpt lat="47.41084" lon="5.97726">
        <ele>355.9</ele>
        <time>2012-05-24T14:16:33Z</time>
      </trkpt>
      <trkpt lat="47.41077" lon="5.97731">
        <ele>356.9</ele>
        <time>2012-05-24T14:16:38Z</time>
      </trkpt>
      <trkpt lat="47.41071" lon="5.97732">
        <ele>356.5</ele>
        <time>2012-05-24T14:16:44Z</time>
      </trkpt>
      <trkpt lat="47.41065" lon="5.97731">
        <ele>356.3</ele>
        <time>2012-05-24T14:16:50Z</time>
      </trkpt>
      <trkpt lat="47.41058" lon="5.97733">
        <ele>356.9</ele>
        <time>2012-05-24T14:16:55Z</time>
      </trkpt>
      <trkpt lat="47.41051" lon="5.97737">
        <ele>357</ele>
        <time>2012-05-24T14:17:00Z</time>
      </trkpt>
      <trkpt lat="47.41045" lon="5.9774">
        <ele>356.6</ele>
        <time>2012-05-24T14:17:05Z</time>
      </trkpt>
      <trkpt lat="47.41038" lon="5.97743">
        <ele>355.3</ele>
        <time>2012-05-24T14:17:12Z</time>
      </trkpt>
      <trkpt lat="47.4103" lon="5.97743">
        <ele>355.3</ele>
        <time>2012-05-24T14:17:18Z</time>
      </trkpt>
      <trkpt lat="47.41025" lon="5.97746">
        <ele>353.7</ele>
        <time>2012-05-24T14:17:22Z</time>
      </trkpt>
      <trkpt lat="47.41018" lon="5.97751">
        <ele>354.3</ele>
        <time>2012-05-24T14:17:28Z</time>
      </trkpt>
      <trkpt lat="47.41012" lon="5.97752">
        <ele>354.8</ele>
        <time>2012-05-24T14:17:33Z</time>
      </trkpt>
      <trkpt lat="47.41004" lon="5.97752">
        <ele>353.3</ele>
        <time>2012-05-24T14:17:41Z</time>
      </trkpt>
      <trkpt lat="47.40998" lon="5.97749">
        <ele>353.7</ele>
        <time>2012-05-24T14:17:47Z</time>
      </trkpt>
      <trkpt lat="47.40991" lon="5.9775">
        <ele>354.3</ele>
        <time>2012-05-24T14:17:52Z</time>
      </trkpt>
      <trkpt lat="47.40986" lon="5.97757">
        <ele>354.5</ele>
        <time>2012-05-24T14:17:55Z</time>
      </trkpt>
      <trkpt lat="47.40979" lon="5.97758">
        <ele>353.5</ele>
        <time>2012-05-24T14:18:01Z</time>
      </trkpt>
      <trkpt lat="47.40973" lon="5.97757">
        <ele>353.4</ele>
        <time>2012-05-24T14:18:08Z</time>
      </trkpt>
      <trkpt lat="47.40966" lon="5.97757">
        <ele>353.1</ele>
        <time>2012-05-24T14:18:12Z</time>
      </trkpt>
      <trkpt lat="47.4096" lon="5.97761">
        <ele>354.5</ele>
        <time>2012-05-24T14:18:18Z</time>
      </trkpt>
      <trkpt lat="47.40952" lon="5.97768">
        <ele>355.6</ele>
        <time>2012-05-24T14:18:24Z</time>
      </trkpt>
      <trkpt lat="47.4095" lon="5.97776">
        <ele>354.5</ele>
        <time>2012-05-24T14:18:31Z</time>
      </trkpt>
      <trkpt lat="47.40949" lon="5.97786">
        <ele>354.3</ele>
        <time>2012-05-24T14:18:36Z</time>
      </trkpt>
      <trkpt lat="47.40944" lon="5.97794">
        <ele>354.2</ele>
        <time>2012-05-24T14:18:41Z</time>
      </trkpt>
      <trkpt lat="47.40944" lon="5.97804">
        <ele>353.5</ele>
        <time>2012-05-24T14:18:46Z</time>
      </trkpt>
      <trkpt lat="47.40942" lon="5.97813">
        <ele>353.2</ele>
        <time>2012-05-24T14:18:52Z</time>
      </trkpt>
      <trkpt lat="47.4094" lon="5.97823">
        <ele>354.1</ele>
        <time>2012-05-24T14:19:03Z</time>
      </trkpt>
      <trkpt lat="47.4094" lon="5.97823">
        <ele>299.4</ele>
        <time>2012-05-24T14:19:16Z</time>
      </trkpt>
      <trkpt lat="47.4094" lon="5.97823">
        <ele>299.4</ele>
        <time>2012-05-24T14:19:21Z</time>
      </trkpt>
      <trkpt lat="47.40928" lon="5.97825">
        <ele>350.6</ele>
        <time>2012-05-24T14:19:25Z</time>
      </trkpt>
      <trkpt lat="47.40924" lon="5.97817">
        <ele>351.1</ele>
        <time>2012-05-24T14:19:34Z</time>
      </trkpt>
      <trkpt lat="47.40924" lon="5.97817">
        <ele>299.6</ele>
        <time>2012-05-24T14:19:46Z</time>
      </trkpt>
      <trkpt lat="47.40924" lon="5.97817">
        <ele>299.6</ele>
        <time>2012-05-24T14:19:52Z</time>
      </trkpt>
      <trkpt lat="47.40912" lon="5.97833">
        <ele>353.5</ele>
        <time>2012-05-24T14:19:56Z</time>
      </trkpt>
      <trkpt lat="47.40912" lon="5.97833">
        <ele>301.1</ele>
        <time>2012-05-24T14:20:08Z</time>
      </trkpt>
      <trkpt lat="47.40912" lon="5.97833">
        <ele>301.1</ele>
        <time>2012-05-24T14:20:53Z</time>
      </trkpt>
      <trkpt lat="47.40912" lon="5.97833">
        <ele>301.1</ele>
        <time>2012-05-24T14:21:04Z</time>
      </trkpt>
      <trkpt lat="47.40912" lon="5.97833">
        <ele>301.1</ele>
        <time>2012-05-24T14:21:43Z</time>
      </trkpt>
      <trkpt lat="47.4089" lon="5.97843">
        <ele>350.2</ele>
        <time>2012-05-24T14:21:45Z</time>
      </trkpt>
      <trkpt lat="47.40883" lon="5.97847">
        <ele>350.4</ele>
        <time>2012-05-24T14:21:48Z</time>
      </trkpt>
      <trkpt lat="47.40876" lon="5.9785">
        <ele>350.3</ele>
        <time>2012-05-24T14:21:52Z</time>
      </trkpt>
      <trkpt lat="47.40869" lon="5.9785">
        <ele>351.8</ele>
        <time>2012-05-24T14:21:59Z</time>
      </trkpt>
      <trkpt lat="47.40862" lon="5.9785">
        <ele>354.1</ele>
        <time>2012-05-24T14:22:04Z</time>
      </trkpt>
      <trkpt lat="47.40856" lon="5.97854">
        <ele>355.3</ele>
        <time>2012-05-24T14:22:13Z</time>
      </trkpt>
      <trkpt lat="47.4085" lon="5.97855">
        <ele>354.9</ele>
        <time>2012-05-24T14:22:17Z</time>
      </trkpt>
      <trkpt lat="47.40845" lon="5.97863">
        <ele>355.4</ele>
        <time>2012-05-24T14:22:24Z</time>
      </trkpt>
      <trkpt lat="47.40838" lon="5.97862">
        <ele>355.6</ele>
        <time>2012-05-24T14:22:30Z</time>
      </trkpt>
      <trkpt lat="47.40832" lon="5.97866">
        <ele>354.8</ele>
        <time>2012-05-24T14:22:34Z</time>
      </trkpt>
      <trkpt lat="47.40827" lon="5.97871">
        <ele>354.3</ele>
        <time>2012-05-24T14:22:39Z</time>
      </trkpt>
      <trkpt lat="47.40819" lon="5.97873">
        <ele>353.1</ele>
        <time>2012-05-24T14:22:45Z</time>
      </trkpt>
      <trkpt lat="47.40812" lon="5.97871">
        <ele>353.4</ele>
        <time>2012-05-24T14:22:54Z</time>
      </trkpt>
      <trkpt lat="47.40806" lon="5.97876">
        <ele>354.8</ele>
        <time>2012-05-24T14:22:58Z</time>
      </trkpt>
      <trkpt lat="47.40799" lon="5.97876">
        <ele>355.6</ele>
        <time>2012-05-24T14:23:03Z</time>
      </trkpt>
      <trkpt lat="47.40793" lon="5.97873">
        <ele>356.3</ele>
        <time>2012-05-24T14:23:10Z</time>
      </trkpt>
      <trkpt lat="47.40786" lon="5.97874">
        <ele>356.5</ele>
        <time>2012-05-24T14:23:16Z</time>
      </trkpt>
      <trkpt lat="47.40779" lon="5.9788">
        <ele>355.3</ele>
        <time>2012-05-24T14:23:20Z</time>
      </trkpt>
      <trkpt lat="47.40772" lon="5.97881">
        <ele>357.2</ele>
        <time>2012-05-24T14:23:26Z</time>
      </trkpt>
      <trkpt lat="47.40772" lon="5.97881">
        <ele>309.1</ele>
        <time>2012-05-24T14:23:38Z</time>
      </trkpt>
      <trkpt lat="47.40772" lon="5.97881">
        <ele>309.1</ele>
        <time>2012-05-24T14:24:12Z</time>
      </trkpt>
      <trkpt lat="47.40772" lon="5.97881">
        <ele>309.1</ele>
        <time>2012-05-24T14:24:24Z</time>
      </trkpt>
      <trkpt lat="47.40772" lon="5.97881">
        <ele>309.1</ele>
        <time>2012-05-24T14:24:35Z</time>
      </trkpt>
      <trkpt lat="47.40772" lon="5.97881">
        <ele>309.1</ele>
        <time>2012-05-24T14:24:47Z</time>
      </trkpt>
      <trkpt lat="47.40772" lon="5.97881">
        <ele>309.1</ele>
        <time>2012-05-24T14:24:51Z</time>
      </trkpt>
      <trkpt lat="47.40748" lon="5.97883">
        <ele>368.8</ele>
        <time>2012-05-24T14:24:55Z</time>
      </trkpt>
      <trkpt lat="47.40741" lon="5.97887">
        <ele>368.1</ele>
        <time>2012-05-24T14:24:59Z</time>
      </trkpt>
      <trkpt lat="47.40734" lon="5.97888">
        <ele>369.7</ele>
        <time>2012-05-24T14:25:06Z</time>
      </trkpt>
      <trkpt lat="47.40727" lon="5.9789">
        <ele>368.9</ele>
        <time>2012-05-24T14:25:12Z</time>
      </trkpt>
      <trkpt lat="47.4072" lon="5.97889">
        <ele>367.5</ele>
        <time>2012-05-24T14:25:18Z</time>
      </trkpt>
      <trkpt lat="47.40713" lon="5.97887">
        <ele>366.6</ele>
        <time>2012-05-24T14:25:24Z</time>
      </trkpt>
      <trkpt lat="47.40707" lon="5.97885">
        <ele>366.7</ele>
        <time>2012-05-24T14:25:29Z</time>
      </trkpt>
      <trkpt lat="47.40701" lon="5.97882">
        <ele>367.8</ele>
        <time>2012-05-24T14:25:34Z</time>
      </trkpt>
      <trkpt lat="47.40695" lon="5.97884">
        <ele>368.8</ele>
        <time>2012-05-24T14:25:41Z</time>
      </trkpt>
      <trkpt lat="47.40687" lon="5.97887">
        <ele>367.9</ele>
        <time>2012-05-24T14:25:48Z</time>
      </trkpt>
      <trkpt lat="47.4068" lon="5.97887">
        <ele>367.1</ele>
        <time>2012-05-24T14:25:53Z</time>
      </trkpt>
      <trkpt lat="47.40673" lon="5.9788">
        <ele>366.7</ele>
        <time>2012-05-24T14:25:58Z</time>
      </trkpt>
      <trkpt lat="47.40667" lon="5.9788">
        <ele>366.5</ele>
        <time>2012-05-24T14:26:02Z</time>
      </trkpt>
      <trkpt lat="47.40658" lon="5.97876">
        <ele>367.4</ele>
        <time>2012-05-24T14:26:09Z</time>
      </trkpt>
      <trkpt lat="47.4065" lon="5.97872">
        <ele>368</ele>
        <time>2012-05-24T14:26:16Z</time>
      </trkpt>
      <trkpt lat="47.40644" lon="5.97877">
        <ele>368.7</ele>
        <time>2012-05-24T14:26:20Z</time>
      </trkpt>
      <trkpt lat="47.40635" lon="5.97878">
        <ele>369</ele>
        <time>2012-05-24T14:26:26Z</time>
      </trkpt>
      <trkpt lat="47.40627" lon="5.97873">
        <ele>369.5</ele>
        <time>2012-05-24T14:26:33Z</time>
      </trkpt>
      <trkpt lat="47.40619" lon="5.97875">
        <ele>370.3</ele>
        <time>2012-05-24T14:26:38Z</time>
      </trkpt>
      <trkpt lat="47.40612" lon="5.97877">
        <ele>369.9</ele>
        <time>2012-05-24T14:26:42Z</time>
      </trkpt>
      <trkpt lat="47.40605" lon="5.97876">
        <ele>371.1</ele>
        <time>2012-05-24T14:26:47Z</time>
      </trkpt>
      <trkpt lat="47.40599" lon="5.97877">
        <ele>371.4</ele>
        <time>2012-05-24T14:26:52Z</time>
      </trkpt>
      <trkpt lat="47.40592" lon="5.97874">
        <ele>371.6</ele>
        <time>2012-05-24T14:26:58Z</time>
      </trkpt>
      <trkpt lat="47.40584" lon="5.97869">
        <ele>372.2</ele>
        <time>2012-05-24T14:27:02Z</time>
      </trkpt>
      <trkpt lat="47.40577" lon="5.97871">
        <ele>371.4</ele>
        <time>2012-05-24T14:27:08Z</time>
      </trkpt>
      <trkpt lat="47.40571" lon="5.97869">
        <ele>372.5</ele>
        <time>2012-05-24T14:27:13Z</time>
      </trkpt>
      <trkpt lat="47.40565" lon="5.97874">
        <ele>372.4</ele>
        <time>2012-05-24T14:27:18Z</time>
      </trkpt>
      <trkpt lat="47.40557" lon="5.97874">
        <ele>372.5</ele>
        <time>2012-05-24T14:27:21Z</time>
      </trkpt>
      <trkpt lat="47.4055" lon="5.97869">
        <ele>374.2</ele>
        <time>2012-05-24T14:27:26Z</time>
      </trkpt>
      <trkpt lat="47.4055" lon="5.97869">
        <ele>320.3</ele>
        <time>2012-05-24T14:27:38Z</time>
      </trkpt>
      <trkpt lat="47.4055" lon="5.97869">
        <ele>320.3</ele>
        <time>2012-05-24T14:27:39Z</time>
      </trkpt>
      <trkpt lat="47.4055" lon="5.97869">
        <ele>320.3</ele>
        <time>2012-05-24T14:27:51Z</time>
      </trkpt>
      <trkpt lat="47.4055" lon="5.97869">
        <ele>320.3</ele>
        <time>2012-05-24T14:27:57Z</time>
      </trkpt>
      <trkpt lat="47.40542" lon="5.97862">
        <ele>376.6</ele>
        <time>2012-05-24T14:27:59Z</time>
      </trkpt>
      <trkpt lat="47.40535" lon="5.97864">
        <ele>377.4</ele>
        <time>2012-05-24T14:28:01Z</time>
      </trkpt>
      <trkpt lat="47.40535" lon="5.97864">
        <ele>320.3</ele>
        <time>2012-05-24T14:28:13Z</time>
      </trkpt>
      <trkpt lat="47.40535" lon="5.97864">
        <ele>320.3</ele>
        <time>2012-05-24T14:28:14Z</time>
      </trkpt>
      <trkpt lat="47.40538" lon="5.97842">
        <ele>379.6</ele>
        <time>2012-05-24T14:28:19Z</time>
      </trkpt>
      <trkpt lat="47.40535" lon="5.97854">
        <ele>380.7</ele>
        <time>2012-05-24T14:28:23Z</time>
      </trkpt>
      <trkpt lat="47.40533" lon="5.97863">
        <ele>380.5</ele>
        <time>2012-05-24T14:28:34Z</time>
      </trkpt>
      <trkpt lat="47.4054" lon="5.97864">
        <ele>380.7</ele>
        <time>2012-05-24T14:28:38Z</time>
      </trkpt>
      <trkpt lat="47.4054" lon="5.97864">
        <ele>320</ele>
        <time>2012-05-24T14:28:49Z</time>
      </trkpt>
      <trkpt lat="47.4054" lon="5.97864">
        <ele>320</ele>
        <time>2012-05-24T14:31:35Z</time>
      </trkpt>
      <trkpt lat="47.40514" lon="5.97871">
        <ele>376.4</ele>
        <time>2012-05-24T14:31:37Z</time>
      </trkpt>
      <trkpt lat="47.40505" lon="5.97873">
        <ele>376</ele>
        <time>2012-05-24T14:31:39Z</time>
      </trkpt>
      <trkpt lat="47.40497" lon="5.97872">
        <ele>377.1</ele>
        <time>2012-05-24T14:31:41Z</time>
      </trkpt>
      <trkpt lat="47.4049" lon="5.97871">
        <ele>377.9</ele>
        <time>2012-05-24T14:31:45Z</time>
      </trkpt>
      <trkpt lat="47.40483" lon="5.9787">
        <ele>378.3</ele>
        <time>2012-05-24T14:31:50Z</time>
      </trkpt>
      <trkpt lat="47.40476" lon="5.97871">
        <ele>379.7</ele>
        <time>2012-05-24T14:31:57Z</time>
      </trkpt>
      <trkpt lat="47.40469" lon="5.97866">
        <ele>379.4</ele>
        <time>2012-05-24T14:32:04Z</time>
      </trkpt>
      <trkpt lat="47.40463" lon="5.9786">
        <ele>382</ele>
        <time>2012-05-24T14:32:10Z</time>
      </trkpt>
      <trkpt lat="47.40457" lon="5.97858">
        <ele>383.1</ele>
        <time>2012-05-24T14:32:15Z</time>
      </trkpt>
      <trkpt lat="47.40451" lon="5.97852">
        <ele>385.9</ele>
        <time>2012-05-24T14:32:19Z</time>
      </trkpt>
      <trkpt lat="47.40443" lon="5.97853">
        <ele>384.7</ele>
        <time>2012-05-24T14:32:24Z</time>
      </trkpt>
      <trkpt lat="47.40436" lon="5.97851">
        <ele>385.5</ele>
        <time>2012-05-24T14:32:30Z</time>
      </trkpt>
      <trkpt lat="47.40429" lon="5.97853">
        <ele>386.3</ele>
        <time>2012-05-24T14:32:38Z</time>
      </trkpt>
      <trkpt lat="47.40422" lon="5.97851">
        <ele>386.8</ele>
        <time>2012-05-24T14:32:43Z</time>
      </trkpt>
      <trkpt lat="47.40415" lon="5.97846">
        <ele>387.4</ele>
        <time>2012-05-24T14:32:49Z</time>
      </trkpt>
      <trkpt lat="47.40409" lon="5.97841">
        <ele>387.8</ele>
        <time>2012-05-24T14:32:54Z</time>
      </trkpt>
      <trkpt lat="47.40403" lon="5.97846">
        <ele>387.7</ele>
        <time>2012-05-24T14:33:01Z</time>
      </trkpt>
      <trkpt lat="47.40398" lon="5.97841">
        <ele>388.1</ele>
        <time>2012-05-24T14:33:07Z</time>
      </trkpt>
      <trkpt lat="47.40392" lon="5.97849">
        <ele>387.5</ele>
        <time>2012-05-24T14:33:11Z</time>
      </trkpt>
      <trkpt lat="47.40386" lon="5.97844">
        <ele>387.1</ele>
        <time>2012-05-24T14:33:16Z</time>
      </trkpt>
      <trkpt lat="47.40379" lon="5.97842">
        <ele>386.2</ele>
        <time>2012-05-24T14:33:23Z</time>
      </trkpt>
      <trkpt lat="47.40373" lon="5.9784">
        <ele>386.3</ele>
        <time>2012-05-24T14:33:28Z</time>
      </trkpt>
      <trkpt lat="47.40365" lon="5.97842">
        <ele>387.9</ele>
        <time>2012-05-24T14:33:35Z</time>
      </trkpt>
      <trkpt lat="47.40358" lon="5.97844">
        <ele>386.5</ele>
        <time>2012-05-24T14:33:39Z</time>
      </trkpt>
      <trkpt lat="47.40351" lon="5.97843">
        <ele>386.1</ele>
        <time>2012-05-24T14:33:43Z</time>
      </trkpt>
      <trkpt lat="47.40345" lon="5.97838">
        <ele>385</ele>
        <time>2012-05-24T14:33:49Z</time>
      </trkpt>
      <trkpt lat="47.40338" lon="5.97833">
        <ele>385.5</ele>
        <time>2012-05-24T14:33:55Z</time>
      </trkpt>
      <trkpt lat="47.40332" lon="5.97829">
        <ele>386</ele>
        <time>2012-05-24T14:33:58Z</time>
      </trkpt>
      <trkpt lat="47.40326" lon="5.97826">
        <ele>386.3</ele>
        <time>2012-05-24T14:34:02Z</time>
      </trkpt>
      <trkpt lat="47.4032" lon="5.9782">
        <ele>384.9</ele>
        <time>2012-05-24T14:34:13Z</time>
      </trkpt>
      <trkpt lat="47.40313" lon="5.97815">
        <ele>385.2</ele>
        <time>2012-05-24T14:34:17Z</time>
      </trkpt>
      <trkpt lat="47.40309" lon="5.97807">
        <ele>385.8</ele>
        <time>2012-05-24T14:34:24Z</time>
      </trkpt>
      <trkpt lat="47.40309" lon="5.97807">
        <ele>322.8</ele>
        <time>2012-05-24T14:34:36Z</time>
      </trkpt>
      <trkpt lat="47.40309" lon="5.97807">
        <ele>322.8</ele>
        <time>2012-05-24T14:34:56Z</time>
      </trkpt>
      <trkpt lat="47.4029" lon="5.97805">
        <ele>387.5</ele>
        <time>2012-05-24T14:34:59Z</time>
      </trkpt>
      <trkpt lat="47.40284" lon="5.97801">
        <ele>388.3</ele>
        <time>2012-05-24T14:35:03Z</time>
      </trkpt>
      <trkpt lat="47.4028" lon="5.97792">
        <ele>387.9</ele>
        <time>2012-05-24T14:35:06Z</time>
      </trkpt>
      <trkpt lat="47.40273" lon="5.97789">
        <ele>387.9</ele>
        <time>2012-05-24T14:35:10Z</time>
      </trkpt>
      <trkpt lat="47.40266" lon="5.9779">
        <ele>388.1</ele>
        <time>2012-05-24T14:35:15Z</time>
      </trkpt>
      <trkpt lat="47.40261" lon="5.97783">
        <ele>388.6</ele>
        <time>2012-05-24T14:35:19Z</time>
      </trkpt>
      <trkpt lat="47.40255" lon="5.97781">
        <ele>387.6</ele>
        <time>2012-05-24T14:35:22Z</time>
      </trkpt>
      <trkpt lat="47.40249" lon="5.97777">
        <ele>388.3</ele>
        <time>2012-05-24T14:35:27Z</time>
      </trkpt>
      <trkpt lat="47.40245" lon="5.97769">
        <ele>388</ele>
        <time>2012-05-24T14:35:30Z</time>
      </trkpt>
      <trkpt lat="47.40238" lon="5.97763">
        <ele>388.3</ele>
        <time>2012-05-24T14:35:34Z</time>
      </trkpt>
      <trkpt lat="47.40233" lon="5.97754">
        <ele>390.5</ele>
        <time>2012-05-24T14:35:42Z</time>
      </trkpt>
      <trkpt lat="47.40225" lon="5.9775">
        <ele>389.8</ele>
        <time>2012-05-24T14:35:47Z</time>
      </trkpt>
      <trkpt lat="47.40219" lon="5.97747">
        <ele>389.5</ele>
        <time>2012-05-24T14:35:51Z</time>
      </trkpt>
      <trkpt lat="47.40212" lon="5.97744">
        <ele>388.1</ele>
        <time>2012-05-24T14:35:55Z</time>
      </trkpt>
      <trkpt lat="47.40205" lon="5.9774">
        <ele>387.8</ele>
        <time>2012-05-24T14:36:00Z</time>
      </trkpt>
      <trkpt lat="47.40201" lon="5.97733">
        <ele>385.9</ele>
        <time>2012-05-24T14:36:09Z</time>
      </trkpt>
      <trkpt lat="47.40194" lon="5.97731">
        <ele>385.4</ele>
        <time>2012-05-24T14:36:14Z</time>
      </trkpt>
      <trkpt lat="47.40188" lon="5.97727">
        <ele>383.7</ele>
        <time>2012-05-24T14:36:19Z</time>
      </trkpt>
      <trkpt lat="47.40182" lon="5.97721">
        <ele>382.9</ele>
        <time>2012-05-24T14:36:26Z</time>
      </trkpt>
      <trkpt lat="47.40175" lon="5.97719">
        <ele>380.4</ele>
        <time>2012-05-24T14:36:31Z</time>
      </trkpt>
      <trkpt lat="47.40169" lon="5.97714">
        <ele>378.8</ele>
        <time>2012-05-24T14:36:37Z</time>
      </trkpt>
      <trkpt lat="47.40163" lon="5.97717">
        <ele>378.8</ele>
        <time>2012-05-24T14:36:43Z</time>
      </trkpt>
      <trkpt lat="47.40154" lon="5.97713">
        <ele>379.8</ele>
        <time>2012-05-24T14:36:51Z</time>
      </trkpt>
      <trkpt lat="47.40149" lon="5.97706">
        <ele>380.7</ele>
        <time>2012-05-24T14:36:57Z</time>
      </trkpt>
      <trkpt lat="47.40143" lon="5.97701">
        <ele>381.4</ele>
        <time>2012-05-24T14:37:02Z</time>
      </trkpt>
      <trkpt lat="47.40136" lon="5.97699">
        <ele>383</ele>
        <time>2012-05-24T14:37:07Z</time>
      </trkpt>
      <trkpt lat="47.4013" lon="5.97694">
        <ele>383.2</ele>
        <time>2012-05-24T14:37:13Z</time>
      </trkpt>
      <trkpt lat="47.40123" lon="5.97692">
        <ele>383.9</ele>
        <time>2012-05-24T14:37:17Z</time>
      </trkpt>
      <trkpt lat="47.40118" lon="5.97684">
        <ele>383.3</ele>
        <time>2012-05-24T14:37:21Z</time>
      </trkpt>
      <trkpt lat="47.40114" lon="5.97677">
        <ele>383.1</ele>
        <time>2012-05-24T14:37:29Z</time>
      </trkpt>
      <trkpt lat="47.40108" lon="5.97669">
        <ele>382.6</ele>
        <time>2012-05-24T14:37:39Z</time>
      </trkpt>
      <trkpt lat="47.40098" lon="5.97663">
        <ele>383</ele>
        <time>2012-05-24T14:37:43Z</time>
      </trkpt>
      <trkpt lat="47.40092" lon="5.97659">
        <ele>382.5</ele>
        <time>2012-05-24T14:37:49Z</time>
      </trkpt>
      <trkpt lat="47.40086" lon="5.97658">
        <ele>381.5</ele>
        <time>2012-05-24T14:37:54Z</time>
      </trkpt>
      <trkpt lat="47.40079" lon="5.97654">
        <ele>383.2</ele>
        <time>2012-05-24T14:38:02Z</time>
      </trkpt>
      <trkpt lat="47.40072" lon="5.97653">
        <ele>382.5</ele>
        <time>2012-05-24T14:38:08Z</time>
      </trkpt>
      <trkpt lat="47.40066" lon="5.9765">
        <ele>382.2</ele>
        <time>2012-05-24T14:38:14Z</time>
      </trkpt>
      <trkpt lat="47.4006" lon="5.97645">
        <ele>383.3</ele>
        <time>2012-05-24T14:38:21Z</time>
      </trkpt>
      <trkpt lat="47.40056" lon="5.97637">
        <ele>383.9</ele>
        <time>2012-05-24T14:38:26Z</time>
      </trkpt>
      <trkpt lat="47.40056" lon="5.97637">
        <ele>324.8</ele>
        <time>2012-05-24T14:38:38Z</time>
      </trkpt>
      <trkpt lat="47.40056" lon="5.97637">
        <ele>324.8</ele>
        <time>2012-05-24T14:38:58Z</time>
      </trkpt>
      <trkpt lat="47.40038" lon="5.9763">
        <ele>382.5</ele>
        <time>2012-05-24T14:39:01Z</time>
      </trkpt>
      <trkpt lat="47.40032" lon="5.97624">
        <ele>382.5</ele>
        <time>2012-05-24T14:39:04Z</time>
      </trkpt>
      <trkpt lat="47.40025" lon="5.97627">
        <ele>381.7</ele>
        <time>2012-05-24T14:39:06Z</time>
      </trkpt>
      <trkpt lat="47.40019" lon="5.97622">
        <ele>381.2</ele>
        <time>2012-05-24T14:39:09Z</time>
      </trkpt>
      <trkpt lat="47.40014" lon="5.97615">
        <ele>381.2</ele>
        <time>2012-05-24T14:39:14Z</time>
      </trkpt>
      <trkpt lat="47.40008" lon="5.97612">
        <ele>380.9</ele>
        <time>2012-05-24T14:39:18Z</time>
      </trkpt>
      <trkpt lat="47.40002" lon="5.9761">
        <ele>380</ele>
        <time>2012-05-24T14:39:21Z</time>
      </trkpt>
      <trkpt lat="47.39995" lon="5.97609">
        <ele>380.7</ele>
        <time>2012-05-24T14:39:25Z</time>
      </trkpt>
      <trkpt lat="47.39988" lon="5.97606">
        <ele>378.9</ele>
        <time>2012-05-24T14:39:31Z</time>
      </trkpt>
      <trkpt lat="47.39988" lon="5.97606">
        <ele>325.3</ele>
        <time>2012-05-24T14:39:43Z</time>
      </trkpt>
      <trkpt lat="47.39988" lon="5.97606">
        <ele>325.3</ele>
        <time>2012-05-24T14:39:54Z</time>
      </trkpt>
      <trkpt lat="47.39973" lon="5.97597">
        <ele>378.2</ele>
        <time>2012-05-24T14:39:56Z</time>
      </trkpt>
      <trkpt lat="47.39967" lon="5.97592">
        <ele>380.6</ele>
        <time>2012-05-24T14:39:58Z</time>
      </trkpt>
      <trkpt lat="47.3996" lon="5.97592">
        <ele>379.7</ele>
        <time>2012-05-24T14:40:01Z</time>
      </trkpt>
      <trkpt lat="47.39953" lon="5.97593">
        <ele>380.3</ele>
        <time>2012-05-24T14:40:04Z</time>
      </trkpt>
      <trkpt lat="47.39946" lon="5.97597">
        <ele>378.6</ele>
        <time>2012-05-24T14:40:07Z</time>
      </trkpt>
      <trkpt lat="47.3994" lon="5.97591">
        <ele>380.2</ele>
        <time>2012-05-24T14:40:14Z</time>
      </trkpt>
      <trkpt lat="47.39933" lon="5.9759">
        <ele>379.2</ele>
        <time>2012-05-24T14:40:17Z</time>
      </trkpt>
      <trkpt lat="47.39927" lon="5.97591">
        <ele>379.7</ele>
        <time>2012-05-24T14:40:19Z</time>
      </trkpt>
      <trkpt lat="47.39919" lon="5.97589">
        <ele>380.4</ele>
        <time>2012-05-24T14:40:23Z</time>
      </trkpt>
      <trkpt lat="47.39915" lon="5.97583">
        <ele>380.4</ele>
        <time>2012-05-24T14:40:28Z</time>
      </trkpt>
      <trkpt lat="47.39906" lon="5.97577">
        <ele>378.6</ele>
        <time>2012-05-24T14:40:33Z</time>
      </trkpt>
      <trkpt lat="47.399" lon="5.97573">
        <ele>381.1</ele>
        <time>2012-05-24T14:40:39Z</time>
      </trkpt>
      <trkpt lat="47.39894" lon="5.97569">
        <ele>382.1</ele>
        <time>2012-05-24T14:40:43Z</time>
      </trkpt>
      <trkpt lat="47.39892" lon="5.97559">
        <ele>383.2</ele>
        <time>2012-05-24T14:40:47Z</time>
      </trkpt>
      <trkpt lat="47.39886" lon="5.97554">
        <ele>381.6</ele>
        <time>2012-05-24T14:40:51Z</time>
      </trkpt>
      <trkpt lat="47.3988" lon="5.9755">
        <ele>383.7</ele>
        <time>2012-05-24T14:40:58Z</time>
      </trkpt>
      <trkpt lat="47.39872" lon="5.9755">
        <ele>382.4</ele>
        <time>2012-05-24T14:41:03Z</time>
      </trkpt>
      <trkpt lat="47.39865" lon="5.97547">
        <ele>381.9</ele>
        <time>2012-05-24T14:41:07Z</time>
      </trkpt>
      <trkpt lat="47.39858" lon="5.97549">
        <ele>381.8</ele>
        <time>2012-05-24T14:41:10Z</time>
      </trkpt>
      <trkpt lat="47.3985" lon="5.97547">
        <ele>383.8</ele>
        <time>2012-05-24T14:41:16Z</time>
      </trkpt>
      <trkpt lat="47.39844" lon="5.97546">
        <ele>384.8</ele>
        <time>2012-05-24T14:41:21Z</time>
      </trkpt>
      <trkpt lat="47.39835" lon="5.97546">
        <ele>387.4</ele>
        <time>2012-05-24T14:41:25Z</time>
      </trkpt>
      <trkpt lat="47.39829" lon="5.97548">
        <ele>385.6</ele>
        <time>2012-05-24T14:41:30Z</time>
      </trkpt>
      <trkpt lat="47.39821" lon="5.97548">
        <ele>386.8</ele>
        <time>2012-05-24T14:41:38Z</time>
      </trkpt>
      <trkpt lat="47.39815" lon="5.9755">
        <ele>384.5</ele>
        <time>2012-05-24T14:41:46Z</time>
      </trkpt>
      <trkpt lat="47.39809" lon="5.9755">
        <ele>383.5</ele>
        <time>2012-05-24T14:41:51Z</time>
      </trkpt>
      <trkpt lat="47.39802" lon="5.97554">
        <ele>382.6</ele>
        <time>2012-05-24T14:41:56Z</time>
      </trkpt>
      <trkpt lat="47.39795" lon="5.97556">
        <ele>387.4</ele>
        <time>2012-05-24T14:42:03Z</time>
      </trkpt>
      <trkpt lat="47.39788" lon="5.97562">
        <ele>388.1</ele>
        <time>2012-05-24T14:42:07Z</time>
      </trkpt>
      <trkpt lat="47.39782" lon="5.97566">
        <ele>388.4</ele>
        <time>2012-05-24T14:42:12Z</time>
      </trkpt>
      <trkpt lat="47.39776" lon="5.97571">
        <ele>389.9</ele>
        <time>2012-05-24T14:42:16Z</time>
      </trkpt>
      <trkpt lat="47.3977" lon="5.97573">
        <ele>390</ele>
        <time>2012-05-24T14:42:21Z</time>
      </trkpt>
      <trkpt lat="47.39764" lon="5.97578">
        <ele>390.6</ele>
        <time>2012-05-24T14:42:26Z</time>
      </trkpt>
      <trkpt lat="47.39757" lon="5.97582">
        <ele>391.4</ele>
        <time>2012-05-24T14:42:35Z</time>
      </trkpt>
      <trkpt lat="47.3975" lon="5.97586">
        <ele>392.5</ele>
        <time>2012-05-24T14:42:39Z</time>
      </trkpt>
      <trkpt lat="47.39743" lon="5.97585">
        <ele>394.7</ele>
        <time>2012-05-24T14:42:47Z</time>
      </trkpt>
      <trkpt lat="47.39735" lon="5.97585">
        <ele>395</ele>
        <time>2012-05-24T14:42:55Z</time>
      </trkpt>
      <trkpt lat="47.3973" lon="5.97591">
        <ele>394.9</ele>
        <time>2012-05-24T14:42:56Z</time>
      </trkpt>
      <trkpt lat="47.39724" lon="5.97597">
        <ele>396</ele>
        <time>2012-05-24T14:43:00Z</time>
      </trkpt>
      <trkpt lat="47.39717" lon="5.976">
        <ele>396.3</ele>
        <time>2012-05-24T14:43:07Z</time>
      </trkpt>
      <trkpt lat="47.3971" lon="5.97603">
        <ele>395.1</ele>
        <time>2012-05-24T14:43:13Z</time>
      </trkpt>
      <trkpt lat="47.39704" lon="5.97607">
        <ele>394.7</ele>
        <time>2012-05-24T14:43:21Z</time>
      </trkpt>
      <trkpt lat="47.39696" lon="5.9761">
        <ele>395.2</ele>
        <time>2012-05-24T14:43:27Z</time>
      </trkpt>
      <trkpt lat="47.39689" lon="5.97614">
        <ele>392.2</ele>
        <time>2012-05-24T14:43:33Z</time>
      </trkpt>
      <trkpt lat="47.39683" lon="5.97621">
        <ele>392.1</ele>
        <time>2012-05-24T14:43:39Z</time>
      </trkpt>
      <trkpt lat="47.39677" lon="5.97624">
        <ele>391.4</ele>
        <time>2012-05-24T14:43:42Z</time>
      </trkpt>
      <trkpt lat="47.3967" lon="5.97627">
        <ele>391</ele>
        <time>2012-05-24T14:43:48Z</time>
      </trkpt>
      <trkpt lat="47.39529" lon="5.9771">
        <ele>385.8</ele>
        <time>2012-05-24T14:45:55Z</time>
      </trkpt>
      <trkpt lat="47.39521" lon="5.97713">
        <ele>386.7</ele>
        <time>2012-05-24T14:46:02Z</time>
      </trkpt>
      <trkpt lat="47.39521" lon="5.97713">
        <ele>320.4</ele>
        <time>2012-05-24T14:46:14Z</time>
      </trkpt>
      <trkpt lat="47.39521" lon="5.97713">
        <ele>320.4</ele>
        <time>2012-05-24T14:46:26Z</time>
      </trkpt>
      <trkpt lat="47.39512" lon="5.9773">
        <ele>383.9</ele>
        <time>2012-05-24T14:46:26Z</time>
      </trkpt>
      <trkpt lat="47.39506" lon="5.97739">
        <ele>382.4</ele>
        <time>2012-05-24T14:46:29Z</time>
      </trkpt>
      <trkpt lat="47.39501" lon="5.97747">
        <ele>377.9</ele>
        <time>2012-05-24T14:46:37Z</time>
      </trkpt>
      <trkpt lat="47.39494" lon="5.97756">
        <ele>377.6</ele>
        <time>2012-05-24T14:46:42Z</time>
      </trkpt>
      <trkpt lat="47.39488" lon="5.97759">
        <ele>376.4</ele>
        <time>2012-05-24T14:46:47Z</time>
      </trkpt>
      <trkpt lat="47.39486" lon="5.97769">
        <ele>376.2</ele>
        <time>2012-05-24T14:46:50Z</time>
      </trkpt>
      <trkpt lat="47.39445" lon="5.97826">
        <ele>375.3</ele>
        <time>2012-05-24T14:47:58Z</time>
      </trkpt>
      <trkpt lat="47.39439" lon="5.97835">
        <ele>374.3</ele>
        <time>2012-05-24T14:48:00Z</time>
      </trkpt>
      <trkpt lat="47.39428" lon="5.97842">
        <ele>371.8</ele>
        <time>2012-05-24T14:48:02Z</time>
      </trkpt>
      <trkpt lat="47.39423" lon="5.97852">
        <ele>372.5</ele>
        <time>2012-05-24T14:48:05Z</time>
      </trkpt>
      <trkpt lat="47.39419" lon="5.9786">
        <ele>372</ele>
        <time>2012-05-24T14:48:07Z</time>
      </trkpt>
      <trkpt lat="47.39413" lon="5.97862">
        <ele>371</ele>
        <time>2012-05-24T14:48:15Z</time>
      </trkpt>
      <trkpt lat="47.39408" lon="5.97869">
        <ele>368.6</ele>
        <time>2012-05-24T14:48:19Z</time>
      </trkpt>
      <trkpt lat="47.39405" lon="5.97878">
        <ele>367.4</ele>
        <time>2012-05-24T14:48:22Z</time>
      </trkpt>
      <trkpt lat="47.39405" lon="5.97878">
        <ele>316.5</ele>
        <time>2012-05-24T14:48:34Z</time>
      </trkpt>
      <trkpt lat="47.39405" lon="5.97878">
        <ele>316.5</ele>
        <time>2012-05-24T14:48:57Z</time>
      </trkpt>
      <trkpt lat="47.39396" lon="5.97898">
        <ele>367</ele>
        <time>2012-05-24T14:48:59Z</time>
      </trkpt>
      <trkpt lat="47.3939" lon="5.97902">
        <ele>365.3</ele>
        <time>2012-05-24T14:49:06Z</time>
      </trkpt>
      <trkpt lat="47.3939" lon="5.97902">
        <ele>316</ele>
        <time>2012-05-24T14:49:18Z</time>
      </trkpt>
      <trkpt lat="47.3939" lon="5.97902">
        <ele>316</ele>
        <time>2012-05-24T14:49:20Z</time>
      </trkpt>
      <trkpt lat="47.39377" lon="5.97923">
        <ele>364.7</ele>
        <time>2012-05-24T14:49:22Z</time>
      </trkpt>
      <trkpt lat="47.39369" lon="5.9793">
        <ele>365.1</ele>
        <time>2012-05-24T14:49:25Z</time>
      </trkpt>
      <trkpt lat="47.39362" lon="5.97942">
        <ele>364.5</ele>
        <time>2012-05-24T14:49:27Z</time>
      </trkpt>
      <trkpt lat="47.39355" lon="5.9795">
        <ele>363.7</ele>
        <time>2012-05-24T14:49:29Z</time>
      </trkpt>
      <trkpt lat="47.3935" lon="5.97956">
        <ele>364.3</ele>
        <time>2012-05-24T14:49:32Z</time>
      </trkpt>
      <trkpt lat="47.3935" lon="5.97956">
        <ele>310.7</ele>
        <time>2012-05-24T14:49:44Z</time>
      </trkpt>
      <trkpt lat="47.3935" lon="5.97956">
        <ele>310.7</ele>
        <time>2012-05-24T14:50:03Z</time>
      </trkpt>
      <trkpt lat="47.39335" lon="5.97968">
        <ele>364.7</ele>
        <time>2012-05-24T14:50:04Z</time>
      </trkpt>
      <trkpt lat="47.39326" lon="5.97973">
        <ele>365.5</ele>
        <time>2012-05-24T14:50:06Z</time>
      </trkpt>
      <trkpt lat="47.39317" lon="5.97976">
        <ele>364.5</ele>
        <time>2012-05-24T14:50:08Z</time>
      </trkpt>
      <trkpt lat="47.39311" lon="5.97981">
        <ele>366.2</ele>
        <time>2012-05-24T14:50:10Z</time>
      </trkpt>
      <trkpt lat="47.39305" lon="5.97985">
        <ele>366.6</ele>
        <time>2012-05-24T14:50:12Z</time>
      </trkpt>
      <trkpt lat="47.39298" lon="5.97988">
        <ele>367.1</ele>
        <time>2012-05-24T14:50:15Z</time>
      </trkpt>
      <trkpt lat="47.39291" lon="5.9799">
        <ele>366.7</ele>
        <time>2012-05-24T14:50:19Z</time>
      </trkpt>
      <trkpt lat="47.39284" lon="5.9799">
        <ele>367.3</ele>
        <time>2012-05-24T14:50:25Z</time>
      </trkpt>
      <trkpt lat="47.39274" lon="5.97988">
        <ele>368.7</ele>
        <time>2012-05-24T14:50:35Z</time>
      </trkpt>
      <trkpt lat="47.39266" lon="5.97992">
        <ele>368</ele>
        <time>2012-05-24T14:50:39Z</time>
      </trkpt>
      <trkpt lat="47.39261" lon="5.98">
        <ele>367.6</ele>
        <time>2012-05-24T14:50:45Z</time>
      </trkpt>
      <trkpt lat="47.39254" lon="5.98002">
        <ele>367.7</ele>
        <time>2012-05-24T14:50:54Z</time>
      </trkpt>
      <trkpt lat="47.39248" lon="5.98008">
        <ele>367.5</ele>
        <time>2012-05-24T14:50:57Z</time>
      </trkpt>
      <trkpt lat="47.39248" lon="5.98008">
        <ele>307.2</ele>
        <time>2012-05-24T14:51:09Z</time>
      </trkpt>
      <trkpt lat="47.39248" lon="5.98008">
        <ele>307.2</ele>
        <time>2012-05-24T14:51:16Z</time>
      </trkpt>
      <trkpt lat="47.39234" lon="5.98012">
        <ele>360.7</ele>
        <time>2012-05-24T14:51:23Z</time>
      </trkpt>
      <trkpt lat="47.39227" lon="5.98014">
        <ele>358.5</ele>
        <time>2012-05-24T14:51:27Z</time>
      </trkpt>
      <trkpt lat="47.39219" lon="5.98014">
        <ele>357.2</ele>
        <time>2012-05-24T14:51:33Z</time>
      </trkpt>
      <trkpt lat="47.39213" lon="5.98014">
        <ele>355.9</ele>
        <time>2012-05-24T14:51:38Z</time>
      </trkpt>
      <trkpt lat="47.39205" lon="5.98012">
        <ele>355.9</ele>
        <time>2012-05-24T14:51:42Z</time>
      </trkpt>
      <trkpt lat="47.39199" lon="5.98015">
        <ele>354.9</ele>
        <time>2012-05-24T14:51:48Z</time>
      </trkpt>
      <trkpt lat="47.39192" lon="5.98014">
        <ele>354.8</ele>
        <time>2012-05-24T14:51:53Z</time>
      </trkpt>
      <trkpt lat="47.39185" lon="5.98014">
        <ele>354.5</ele>
        <time>2012-05-24T14:51:59Z</time>
      </trkpt>
      <trkpt lat="47.39178" lon="5.98016">
        <ele>355.2</ele>
        <time>2012-05-24T14:52:03Z</time>
      </trkpt>
      <trkpt lat="47.39172" lon="5.98012">
        <ele>355.9</ele>
        <time>2012-05-24T14:52:10Z</time>
      </trkpt>
      <trkpt lat="47.39165" lon="5.98013">
        <ele>354.6</ele>
        <time>2012-05-24T14:52:15Z</time>
      </trkpt>
      <trkpt lat="47.39158" lon="5.98011">
        <ele>355.3</ele>
        <time>2012-05-24T14:52:20Z</time>
      </trkpt>
      <trkpt lat="47.39158" lon="5.98011">
        <ele>304.7</ele>
        <time>2012-05-24T14:52:36Z</time>
      </trkpt>
      <trkpt lat="47.39158" lon="5.98011">
        <ele>304.7</ele>
        <time>2012-05-24T14:52:49Z</time>
      </trkpt>
      <trkpt lat="47.39143" lon="5.98014">
        <ele>357.2</ele>
        <time>2012-05-24T14:52:51Z</time>
      </trkpt>
      <trkpt lat="47.39136" lon="5.9801">
        <ele>357.6</ele>
        <time>2012-05-24T14:52:55Z</time>
      </trkpt>
      <trkpt lat="47.39129" lon="5.98008">
        <ele>357.2</ele>
        <time>2012-05-24T14:53:00Z</time>
      </trkpt>
      <trkpt lat="47.39121" lon="5.98006">
        <ele>357.1</ele>
        <time>2012-05-24T14:53:05Z</time>
      </trkpt>
      <trkpt lat="47.39115" lon="5.98002">
        <ele>355.6</ele>
        <time>2012-05-24T14:53:09Z</time>
      </trkpt>
      <trkpt lat="47.39106" lon="5.98001">
        <ele>355.4</ele>
        <time>2012-05-24T14:53:14Z</time>
      </trkpt>
      <trkpt lat="47.39099" lon="5.98">
        <ele>355.5</ele>
        <time>2012-05-24T14:53:23Z</time>
      </trkpt>
      <trkpt lat="47.39091" lon="5.97999">
        <ele>354.6</ele>
        <time>2012-05-24T14:53:28Z</time>
      </trkpt>
      <trkpt lat="47.39085" lon="5.97995">
        <ele>354</ele>
        <time>2012-05-24T14:53:33Z</time>
      </trkpt>
      <trkpt lat="47.39079" lon="5.97997">
        <ele>354.8</ele>
        <time>2012-05-24T14:53:37Z</time>
      </trkpt>
      <trkpt lat="47.39072" lon="5.97993">
        <ele>355</ele>
        <time>2012-05-24T14:53:43Z</time>
      </trkpt>
      <trkpt lat="47.39065" lon="5.97987">
        <ele>355</ele>
        <time>2012-05-24T14:53:49Z</time>
      </trkpt>
      <trkpt lat="47.39058" lon="5.97985">
        <ele>354.3</ele>
        <time>2012-05-24T14:53:54Z</time>
      </trkpt>
      <trkpt lat="47.39051" lon="5.97985">
        <ele>354.9</ele>
        <time>2012-05-24T14:54:00Z</time>
      </trkpt>
      <trkpt lat="47.39044" lon="5.97981">
        <ele>354.3</ele>
        <time>2012-05-24T14:54:06Z</time>
      </trkpt>
      <trkpt lat="47.39036" lon="5.97981">
        <ele>353.5</ele>
        <time>2012-05-24T14:54:11Z</time>
      </trkpt>
      <trkpt lat="47.3903" lon="5.97979">
        <ele>352.5</ele>
        <time>2012-05-24T14:54:17Z</time>
      </trkpt>
      <trkpt lat="47.39022" lon="5.97975">
        <ele>352.1</ele>
        <time>2012-05-24T14:54:23Z</time>
      </trkpt>
      <trkpt lat="47.39014" lon="5.97974">
        <ele>351.9</ele>
        <time>2012-05-24T14:54:30Z</time>
      </trkpt>
      <trkpt lat="47.39007" lon="5.97971">
        <ele>350.7</ele>
        <time>2012-05-24T14:54:36Z</time>
      </trkpt>
      <trkpt lat="47.39001" lon="5.97966">
        <ele>350.8</ele>
        <time>2012-05-24T14:54:41Z</time>
      </trkpt>
      <trkpt lat="47.38994" lon="5.97966">
        <ele>350.9</ele>
        <time>2012-05-24T14:54:47Z</time>
      </trkpt>
      <trkpt lat="47.38986" lon="5.97963">
        <ele>348.8</ele>
        <time>2012-05-24T14:54:53Z</time>
      </trkpt>
      <trkpt lat="47.38986" lon="5.97963">
        <ele>296.5</ele>
        <time>2012-05-24T14:55:05Z</time>
      </trkpt>
      <trkpt lat="47.38986" lon="5.97963">
        <ele>296.5</ele>
        <time>2012-05-24T14:55:42Z</time>
      </trkpt>
      <trkpt lat="47.38986" lon="5.97963">
        <ele>296.5</ele>
        <time>2012-05-24T14:55:54Z</time>
      </trkpt>
      <trkpt lat="47.38986" lon="5.97963">
        <ele>296.5</ele>
        <time>2012-05-24T14:55:55Z</time>
      </trkpt>
      <trkpt lat="47.38968" lon="5.97955">
        <ele>344.5</ele>
        <time>2012-05-24T14:55:58Z</time>
      </trkpt>
      <trkpt lat="47.38961" lon="5.9795">
        <ele>345.2</ele>
        <time>2012-05-24T14:56:04Z</time>
      </trkpt>
      <trkpt lat="47.38955" lon="5.97951">
        <ele>344.4</ele>
        <time>2012-05-24T14:56:09Z</time>
      </trkpt>
      <trkpt lat="47.38948" lon="5.97951">
        <ele>344.8</ele>
        <time>2012-05-24T14:56:14Z</time>
      </trkpt>
      <trkpt lat="47.38941" lon="5.97954">
        <ele>346.6</ele>
        <time>2012-05-24T14:56:19Z</time>
      </trkpt>
      <trkpt lat="47.38935" lon="5.9795">
        <ele>347.6</ele>
        <time>2012-05-24T14:56:23Z</time>
      </trkpt>
      <trkpt lat="47.38928" lon="5.97949">
        <ele>347.4</ele>
        <time>2012-05-24T14:56:27Z</time>
      </trkpt>
      <trkpt lat="47.38923" lon="5.97943">
        <ele>345.2</ele>
        <time>2012-05-24T14:56:31Z</time>
      </trkpt>
      <trkpt lat="47.38917" lon="5.97939">
        <ele>342.9</ele>
        <time>2012-05-24T14:56:37Z</time>
      </trkpt>
      <trkpt lat="47.3891" lon="5.97937">
        <ele>342.1</ele>
        <time>2012-05-24T14:56:42Z</time>
      </trkpt>
      <trkpt lat="47.38904" lon="5.97932">
        <ele>342.2</ele>
        <time>2012-05-24T14:56:48Z</time>
      </trkpt>
      <trkpt lat="47.38898" lon="5.97929">
        <ele>340.9</ele>
        <time>2012-05-24T14:56:56Z</time>
      </trkpt>
      <trkpt lat="47.38893" lon="5.97921">
        <ele>339.4</ele>
        <time>2012-05-24T14:57:00Z</time>
      </trkpt>
      <trkpt lat="47.38887" lon="5.97925">
        <ele>340.9</ele>
        <time>2012-05-24T14:57:05Z</time>
      </trkpt>
      <trkpt lat="47.38882" lon="5.9792">
        <ele>341</ele>
        <time>2012-05-24T14:57:11Z</time>
      </trkpt>
      <trkpt lat="47.38881" lon="5.9791">
        <ele>341.5</ele>
        <time>2012-05-24T14:57:14Z</time>
      </trkpt>
      <trkpt lat="47.38881" lon="5.9791">
        <ele>290.4</ele>
        <time>2012-05-24T14:57:26Z</time>
      </trkpt>
      <trkpt lat="47.38881" lon="5.9791">
        <ele>290.4</ele>
        <time>2012-05-24T14:57:38Z</time>
      </trkpt>
      <trkpt lat="47.38864" lon="5.97914">
        <ele>338.3</ele>
        <time>2012-05-24T14:57:40Z</time>
      </trkpt>
      <trkpt lat="47.38856" lon="5.97912">
        <ele>336.6</ele>
        <time>2012-05-24T14:57:42Z</time>
      </trkpt>
      <trkpt lat="47.38847" lon="5.97908">
        <ele>337</ele>
        <time>2012-05-24T14:57:47Z</time>
      </trkpt>
      <trkpt lat="47.38838" lon="5.97907">
        <ele>336.2</ele>
        <time>2012-05-24T14:57:49Z</time>
      </trkpt>
      <trkpt lat="47.38831" lon="5.97904">
        <ele>336.9</ele>
        <time>2012-05-24T14:57:53Z</time>
      </trkpt>
      <trkpt lat="47.38826" lon="5.97898">
        <ele>337.5</ele>
        <time>2012-05-24T14:57:57Z</time>
      </trkpt>
      <trkpt lat="47.38825" lon="5.97908">
        <ele>338.4</ele>
        <time>2012-05-24T14:58:03Z</time>
      </trkpt>
      <trkpt lat="47.38819" lon="5.97903">
        <ele>339</ele>
        <time>2012-05-24T14:58:12Z</time>
      </trkpt>
      <trkpt lat="47.38819" lon="5.97903">
        <ele>286</ele>
        <time>2012-05-24T14:58:24Z</time>
      </trkpt>
      <trkpt lat="47.38819" lon="5.97903">
        <ele>286</ele>
        <time>2012-05-24T14:58:30Z</time>
      </trkpt>
      <trkpt lat="47.38799" lon="5.97896">
        <ele>339.1</ele>
        <time>2012-05-24T14:58:32Z</time>
      </trkpt>
      <trkpt lat="47.38796" lon="5.97882">
        <ele>337.7</ele>
        <time>2012-05-24T14:58:34Z</time>
      </trkpt>
      <trkpt lat="47.38781" lon="5.97869">
        <ele>334</ele>
        <time>2012-05-24T14:58:38Z</time>
      </trkpt>
      <trkpt lat="47.38773" lon="5.97866">
        <ele>334.7</ele>
        <time>2012-05-24T14:58:43Z</time>
      </trkpt>
      <trkpt lat="47.38767" lon="5.97862">
        <ele>333.5</ele>
        <time>2012-05-24T14:58:48Z</time>
      </trkpt>
      <trkpt lat="47.38758" lon="5.97862">
        <ele>334.1</ele>
        <time>2012-05-24T14:58:53Z</time>
      </trkpt>
      <trkpt lat="47.38751" lon="5.9786">
        <ele>332.6</ele>
        <time>2012-05-24T14:58:58Z</time>
      </trkpt>
      <trkpt lat="47.38748" lon="5.97852">
        <ele>330.3</ele>
        <time>2012-05-24T14:59:05Z</time>
      </trkpt>
      <trkpt lat="47.38742" lon="5.97846">
        <ele>328.8</ele>
        <time>2012-05-24T14:59:13Z</time>
      </trkpt>
      <trkpt lat="47.38735" lon="5.9784">
        <ele>327.4</ele>
        <time>2012-05-24T14:59:19Z</time>
      </trkpt>
      <trkpt lat="47.38735" lon="5.9784">
        <ele>279.9</ele>
        <time>2012-05-24T14:59:31Z</time>
      </trkpt>
      <trkpt lat="47.38735" lon="5.9784">
        <ele>279.9</ele>
        <time>2012-05-24T14:59:32Z</time>
      </trkpt>
      <trkpt lat="47.38721" lon="5.97835">
        <ele>325.9</ele>
        <time>2012-05-24T14:59:34Z</time>
      </trkpt>
      <trkpt lat="47.38718" lon="5.97828">
        <ele>325.7</ele>
        <time>2012-05-24T14:59:38Z</time>
      </trkpt>
      <trkpt lat="47.38712" lon="5.97818">
        <ele>324.9</ele>
        <time>2012-05-24T14:59:49Z</time>
      </trkpt>
      <trkpt lat="47.38707" lon="5.9781">
        <ele>323.7</ele>
        <time>2012-05-24T14:59:54Z</time>
      </trkpt>
      <trkpt lat="47.38701" lon="5.97807">
        <ele>323</ele>
        <time>2012-05-24T14:59:59Z</time>
      </trkpt>
      <trkpt lat="47.38694" lon="5.97803">
        <ele>323.3</ele>
        <time>2012-05-24T15:00:05Z</time>
      </trkpt>
      <trkpt lat="47.38688" lon="5.97798">
        <ele>324.6</ele>
        <time>2012-05-24T15:00:09Z</time>
      </trkpt>
      <trkpt lat="47.38682" lon="5.97794">
        <ele>324.6</ele>
        <time>2012-05-24T15:00:16Z</time>
      </trkpt>
      <trkpt lat="47.38675" lon="5.97792">
        <ele>324.2</ele>
        <time>2012-05-24T15:00:20Z</time>
      </trkpt>
      <trkpt lat="47.38668" lon="5.97787">
        <ele>323.8</ele>
        <time>2012-05-24T15:00:24Z</time>
      </trkpt>
      <trkpt lat="47.38662" lon="5.97785">
        <ele>324.1</ele>
        <time>2012-05-24T15:00:28Z</time>
      </trkpt>
      <trkpt lat="47.38654" lon="5.97785">
        <ele>328.1</ele>
        <time>2012-05-24T15:00:34Z</time>
      </trkpt>
      <trkpt lat="47.38647" lon="5.97788">
        <ele>328</ele>
        <time>2012-05-24T15:00:41Z</time>
      </trkpt>
      <trkpt lat="47.38639" lon="5.97787">
        <ele>326.8</ele>
        <time>2012-05-24T15:00:46Z</time>
      </trkpt>
      <trkpt lat="47.38632" lon="5.9779">
        <ele>325.4</ele>
        <time>2012-05-24T15:00:52Z</time>
      </trkpt>
      <trkpt lat="47.38625" lon="5.97791">
        <ele>324.7</ele>
        <time>2012-05-24T15:00:59Z</time>
      </trkpt>
      <trkpt lat="47.38616" lon="5.97793">
        <ele>323.8</ele>
        <time>2012-05-24T15:01:05Z</time>
      </trkpt>
      <trkpt lat="47.38611" lon="5.97797">
        <ele>323.6</ele>
        <time>2012-05-24T15:01:10Z</time>
      </trkpt>
      <trkpt lat="47.38603" lon="5.978">
        <ele>323.8</ele>
        <time>2012-05-24T15:01:15Z</time>
      </trkpt>
      <trkpt lat="47.38597" lon="5.97805">
        <ele>324.7</ele>
        <time>2012-05-24T15:01:19Z</time>
      </trkpt>
      <trkpt lat="47.38591" lon="5.97805">
        <ele>324.5</ele>
        <time>2012-05-24T15:01:24Z</time>
      </trkpt>
      <trkpt lat="47.38583" lon="5.97806">
        <ele>323.2</ele>
        <time>2012-05-24T15:01:30Z</time>
      </trkpt>
      <trkpt lat="47.38577" lon="5.97803">
        <ele>325.2</ele>
        <time>2012-05-24T15:01:37Z</time>
      </trkpt>
      <trkpt lat="47.38572" lon="5.9781">
        <ele>324.4</ele>
        <time>2012-05-24T15:01:42Z</time>
      </trkpt>
      <trkpt lat="47.38564" lon="5.97813">
        <ele>325</ele>
        <time>2012-05-24T15:01:50Z</time>
      </trkpt>
      <trkpt lat="47.38557" lon="5.97814">
        <ele>324.4</ele>
        <time>2012-05-24T15:01:54Z</time>
      </trkpt>
      <trkpt lat="47.3855" lon="5.97816">
        <ele>323.6</ele>
        <time>2012-05-24T15:01:59Z</time>
      </trkpt>
      <trkpt lat="47.38543" lon="5.97819">
        <ele>323.4</ele>
        <time>2012-05-24T15:02:04Z</time>
      </trkpt>
      <trkpt lat="47.38536" lon="5.97823">
        <ele>321.7</ele>
        <time>2012-05-24T15:02:10Z</time>
      </trkpt>
      <trkpt lat="47.38528" lon="5.97825">
        <ele>319.5</ele>
        <time>2012-05-24T15:02:15Z</time>
      </trkpt>
      <trkpt lat="47.38521" lon="5.97827">
        <ele>319.1</ele>
        <time>2012-05-24T15:02:20Z</time>
      </trkpt>
      <trkpt lat="47.38515" lon="5.97827">
        <ele>318.9</ele>
        <time>2012-05-24T15:02:29Z</time>
      </trkpt>
      <trkpt lat="47.38507" lon="5.9783">
        <ele>317.6</ele>
        <time>2012-05-24T15:02:36Z</time>
      </trkpt>
      <trkpt lat="47.385" lon="5.97832">
        <ele>316.4</ele>
        <time>2012-05-24T15:02:41Z</time>
      </trkpt>
      <trkpt lat="47.38495" lon="5.97837">
        <ele>315.9</ele>
        <time>2012-05-24T15:02:48Z</time>
      </trkpt>
      <trkpt lat="47.38487" lon="5.9784">
        <ele>314.4</ele>
        <time>2012-05-24T15:02:56Z</time>
      </trkpt>
      <trkpt lat="47.38482" lon="5.97847">
        <ele>313.6</ele>
        <time>2012-05-24T15:03:00Z</time>
      </trkpt>
      <trkpt lat="47.38475" lon="5.97849">
        <ele>312.7</ele>
        <time>2012-05-24T15:03:05Z</time>
      </trkpt>
      <trkpt lat="47.38468" lon="5.9785">
        <ele>312.1</ele>
        <time>2012-05-24T15:03:11Z</time>
      </trkpt>
      <trkpt lat="47.38462" lon="5.97855">
        <ele>311.9</ele>
        <time>2012-05-24T15:03:18Z</time>
      </trkpt>
      <trkpt lat="47.38456" lon="5.9786">
        <ele>311.4</ele>
        <time>2012-05-24T15:03:24Z</time>
      </trkpt>
      <trkpt lat="47.38449" lon="5.97863">
        <ele>311.9</ele>
        <time>2012-05-24T15:03:29Z</time>
      </trkpt>
      <trkpt lat="47.38442" lon="5.97868">
        <ele>312.6</ele>
        <time>2012-05-24T15:03:34Z</time>
      </trkpt>
      <trkpt lat="47.38436" lon="5.97872">
        <ele>312.5</ele>
        <time>2012-05-24T15:03:41Z</time>
      </trkpt>
      <trkpt lat="47.3843" lon="5.97877">
        <ele>311.4</ele>
        <time>2012-05-24T15:03:47Z</time>
      </trkpt>
      <trkpt lat="47.38423" lon="5.97881">
        <ele>311</ele>
        <time>2012-05-24T15:03:56Z</time>
      </trkpt>
      <trkpt lat="47.38417" lon="5.97886">
        <ele>312</ele>
        <time>2012-05-24T15:04:04Z</time>
      </trkpt>
      <trkpt lat="47.38411" lon="5.97892">
        <ele>310.2</ele>
        <time>2012-05-24T15:04:08Z</time>
      </trkpt>
      <trkpt lat="47.38405" lon="5.97893">
        <ele>310</ele>
        <time>2012-05-24T15:04:13Z</time>
      </trkpt>
      <trkpt lat="47.38399" lon="5.97896">
        <ele>309.5</ele>
        <time>2012-05-24T15:04:18Z</time>
      </trkpt>
      <trkpt lat="47.3839" lon="5.97898">
        <ele>308.4</ele>
        <time>2012-05-24T15:04:23Z</time>
      </trkpt>
      <trkpt lat="47.38384" lon="5.97904">
        <ele>308.4</ele>
        <time>2012-05-24T15:04:27Z</time>
      </trkpt>
      <trkpt lat="47.38378" lon="5.97909">
        <ele>308.9</ele>
        <time>2012-05-24T15:04:34Z</time>
      </trkpt>
      <trkpt lat="47.38372" lon="5.97914">
        <ele>308.4</ele>
        <time>2012-05-24T15:04:40Z</time>
      </trkpt>
      <trkpt lat="47.38366" lon="5.97918">
        <ele>307.3</ele>
        <time>2012-05-24T15:04:45Z</time>
      </trkpt>
      <trkpt lat="47.38361" lon="5.97925">
        <ele>307.9</ele>
        <time>2012-05-24T15:04:52Z</time>
      </trkpt>
      <trkpt lat="47.38356" lon="5.97932">
        <ele>308.5</ele>
        <time>2012-05-24T15:04:58Z</time>
      </trkpt>
      <trkpt lat="47.3835" lon="5.97939">
        <ele>306.3</ele>
        <time>2012-05-24T15:05:05Z</time>
      </trkpt>
      <trkpt lat="47.38346" lon="5.97948">
        <ele>306.2</ele>
        <time>2012-05-24T15:05:11Z</time>
      </trkpt>
      <trkpt lat="47.38339" lon="5.97954">
        <ele>305.5</ele>
        <time>2012-05-24T15:05:21Z</time>
      </trkpt>
      <trkpt lat="47.38335" lon="5.97961">
        <ele>305.4</ele>
        <time>2012-05-24T15:05:27Z</time>
      </trkpt>
      <trkpt lat="47.38331" lon="5.9797">
        <ele>304.7</ele>
        <time>2012-05-24T15:05:32Z</time>
      </trkpt>
      <trkpt lat="47.3833" lon="5.97979">
        <ele>304.8</ele>
        <time>2012-05-24T15:05:38Z</time>
      </trkpt>
      <trkpt lat="47.38328" lon="5.9799">
        <ele>304.3</ele>
        <time>2012-05-24T15:05:44Z</time>
      </trkpt>
      <trkpt lat="47.38325" lon="5.98">
        <ele>304.4</ele>
        <time>2012-05-24T15:05:49Z</time>
      </trkpt>
      <trkpt lat="47.38325" lon="5.9801">
        <ele>305.1</ele>
        <time>2012-05-24T15:05:54Z</time>
      </trkpt>
      <trkpt lat="47.38322" lon="5.98019">
        <ele>304.9</ele>
        <time>2012-05-24T15:06:00Z</time>
      </trkpt>
      <trkpt lat="47.38319" lon="5.9803">
        <ele>305.2</ele>
        <time>2012-05-24T15:06:08Z</time>
      </trkpt>
      <trkpt lat="47.3832" lon="5.98039">
        <ele>305.9</ele>
        <time>2012-05-24T15:06:14Z</time>
      </trkpt>
      <trkpt lat="47.3832" lon="5.98049">
        <ele>305.8</ele>
        <time>2012-05-24T15:06:22Z</time>
      </trkpt>
      <trkpt lat="47.38311" lon="5.98054">
        <ele>305.6</ele>
        <time>2012-05-24T15:06:26Z</time>
      </trkpt>
      <trkpt lat="47.38305" lon="5.98058">
        <ele>305.3</ele>
        <time>2012-05-24T15:06:30Z</time>
      </trkpt>
      <trkpt lat="47.38296" lon="5.9806">
        <ele>305.4</ele>
        <time>2012-05-24T15:06:36Z</time>
      </trkpt>
      <trkpt lat="47.38289" lon="5.98059">
        <ele>304.9</ele>
        <time>2012-05-24T15:06:43Z</time>
      </trkpt>
      <trkpt lat="47.38282" lon="5.98057">
        <ele>304</ele>
        <time>2012-05-24T15:06:48Z</time>
      </trkpt>
      <trkpt lat="47.38275" lon="5.98062">
        <ele>305.6</ele>
        <time>2012-05-24T15:06:55Z</time>
      </trkpt>
      <trkpt lat="47.3827" lon="5.9807">
        <ele>306.1</ele>
        <time>2012-05-24T15:07:01Z</time>
      </trkpt>
      <trkpt lat="47.3827" lon="5.9807">
        <ele>253.8</ele>
        <time>2012-05-24T15:07:13Z</time>
      </trkpt>
      <trkpt lat="47.3827" lon="5.9807">
        <ele>253.8</ele>
        <time>2012-05-24T15:07:16Z</time>
      </trkpt>
      <trkpt lat="47.38263" lon="5.98088">
        <ele>308.1</ele>
        <time>2012-05-24T15:07:26Z</time>
      </trkpt>
      <trkpt lat="47.38259" lon="5.98098">
        <ele>307.5</ele>
        <time>2012-05-24T15:07:30Z</time>
      </trkpt>
      <trkpt lat="47.3826" lon="5.98108">
        <ele>307.6</ele>
        <time>2012-05-24T15:07:35Z</time>
      </trkpt>
      <trkpt lat="47.38257" lon="5.98116">
        <ele>306.6</ele>
        <time>2012-05-24T15:07:40Z</time>
      </trkpt>
      <trkpt lat="47.38257" lon="5.98116">
        <ele>255.9</ele>
        <time>2012-05-24T15:07:52Z</time>
      </trkpt>
      <trkpt lat="47.38257" lon="5.98116">
        <ele>255.9</ele>
        <time>2012-05-24T15:08:03Z</time>
      </trkpt>
      <trkpt lat="47.38251" lon="5.98138">
        <ele>309.6</ele>
        <time>2012-05-24T15:08:07Z</time>
      </trkpt>
      <trkpt lat="47.38255" lon="5.98146">
        <ele>308.6</ele>
        <time>2012-05-24T15:08:18Z</time>
      </trkpt>
      <trkpt lat="47.38258" lon="5.98155">
        <ele>308.1</ele>
        <time>2012-05-24T15:08:25Z</time>
      </trkpt>
      <trkpt lat="47.38261" lon="5.98164">
        <ele>306.8</ele>
        <time>2012-05-24T15:08:33Z</time>
      </trkpt>
      <trkpt lat="47.38259" lon="5.98175">
        <ele>306.9</ele>
        <time>2012-05-24T15:08:37Z</time>
      </trkpt>
      <trkpt lat="47.38259" lon="5.98185">
        <ele>307.4</ele>
        <time>2012-05-24T15:08:43Z</time>
      </trkpt>
      <trkpt lat="47.38264" lon="5.98192">
        <ele>307.9</ele>
        <time>2012-05-24T15:08:50Z</time>
      </trkpt>
      <trkpt lat="47.38266" lon="5.98202">
        <ele>306.9</ele>
        <time>2012-05-24T15:08:59Z</time>
      </trkpt>
      <trkpt lat="47.38264" lon="5.98212">
        <ele>306.9</ele>
        <time>2012-05-24T15:09:02Z</time>
      </trkpt>
      <trkpt lat="47.38261" lon="5.98222">
        <ele>306.8</ele>
        <time>2012-05-24T15:09:07Z</time>
      </trkpt>
      <trkpt lat="47.38258" lon="5.98232">
        <ele>306.2</ele>
        <time>2012-05-24T15:09:14Z</time>
      </trkpt>
      <trkpt lat="47.38258" lon="5.98232">
        <ele>262.6</ele>
        <time>2012-05-24T15:09:25Z</time>
      </trkpt>
      <trkpt lat="47.38258" lon="5.98232">
        <ele>262.6</ele>
        <time>2012-05-24T15:09:30Z</time>
      </trkpt>
      <trkpt lat="47.3827" lon="5.98248">
        <ele>306.3</ele>
        <time>2012-05-24T15:09:34Z</time>
      </trkpt>
      <trkpt lat="47.3827" lon="5.98259">
        <ele>306.3</ele>
        <time>2012-05-24T15:09:37Z</time>
      </trkpt>
      <trkpt lat="47.38272" lon="5.9827">
        <ele>307.6</ele>
        <time>2012-05-24T15:09:41Z</time>
      </trkpt>
      <trkpt lat="47.38273" lon="5.98281">
        <ele>308</ele>
        <time>2012-05-24T15:09:45Z</time>
      </trkpt>
      <trkpt lat="47.38275" lon="5.9829">
        <ele>308.4</ele>
        <time>2012-05-24T15:09:52Z</time>
      </trkpt>
      <trkpt lat="47.38273" lon="5.98299">
        <ele>308.6</ele>
        <time>2012-05-24T15:09:58Z</time>
      </trkpt>
      <trkpt lat="47.38272" lon="5.98309">
        <ele>310</ele>
        <time>2012-05-24T15:10:02Z</time>
      </trkpt>
      <trkpt lat="47.38272" lon="5.98309">
        <ele>265.9</ele>
        <time>2012-05-24T15:10:14Z</time>
      </trkpt>
      <trkpt lat="47.38272" lon="5.98309">
        <ele>265.9</ele>
        <time>2012-05-24T15:10:44Z</time>
      </trkpt>
      <trkpt lat="47.3826" lon="5.98322">
        <ele>309.6</ele>
        <time>2012-05-24T15:10:46Z</time>
      </trkpt>
      <trkpt lat="47.38253" lon="5.98322">
        <ele>309.1</ele>
        <time>2012-05-24T15:10:49Z</time>
      </trkpt>
      <trkpt lat="47.38246" lon="5.98322">
        <ele>309.6</ele>
        <time>2012-05-24T15:10:53Z</time>
      </trkpt>
      <trkpt lat="47.38239" lon="5.98324">
        <ele>309.1</ele>
        <time>2012-05-24T15:10:55Z</time>
      </trkpt>
      <trkpt lat="47.38232" lon="5.98325">
        <ele>310.1</ele>
        <time>2012-05-24T15:11:06Z</time>
      </trkpt>
      <trkpt lat="47.38232" lon="5.98325">
        <ele>265.7</ele>
        <time>2012-05-24T15:11:17Z</time>
      </trkpt>
      <trkpt lat="47.38232" lon="5.98325">
        <ele>265.7</ele>
        <time>2012-05-24T15:11:17Z</time>
      </trkpt>
      <trkpt lat="47.38212" lon="5.98325">
        <ele>309.4</ele>
        <time>2012-05-24T15:11:19Z</time>
      </trkpt>
      <trkpt lat="47.38202" lon="5.98323">
        <ele>308.7</ele>
        <time>2012-05-24T15:11:22Z</time>
      </trkpt>
      <trkpt lat="47.38195" lon="5.98322">
        <ele>308.3</ele>
        <time>2012-05-24T15:11:24Z</time>
      </trkpt>
      <trkpt lat="47.38185" lon="5.9832">
        <ele>307.4</ele>
        <time>2012-05-24T15:11:29Z</time>
      </trkpt>
      <trkpt lat="47.38179" lon="5.98317">
        <ele>306.7</ele>
        <time>2012-05-24T15:11:33Z</time>
      </trkpt>
      <trkpt lat="47.38172" lon="5.98315">
        <ele>306.9</ele>
        <time>2012-05-24T15:11:37Z</time>
      </trkpt>
      <trkpt lat="47.38167" lon="5.98322">
        <ele>306.6</ele>
        <time>2012-05-24T15:11:45Z</time>
      </trkpt>
      <trkpt lat="47.38167" lon="5.98322">
        <ele>263.6</ele>
        <time>2012-05-24T15:11:56Z</time>
      </trkpt>
      <trkpt lat="47.38167" lon="5.98322">
        <ele>263.6</ele>
        <time>2012-05-24T15:12:00Z</time>
      </trkpt>
      <trkpt lat="47.3816" lon="5.98334">
        <ele>309.2</ele>
        <time>2012-05-24T15:12:07Z</time>
      </trkpt>
      <trkpt lat="47.3816" lon="5.98344">
        <ele>310.5</ele>
        <time>2012-05-24T15:12:12Z</time>
      </trkpt>
      <trkpt lat="47.38157" lon="5.98354">
        <ele>310.4</ele>
        <time>2012-05-24T15:12:16Z</time>
      </trkpt>
      <trkpt lat="47.38154" lon="5.98364">
        <ele>312.7</ele>
        <time>2012-05-24T15:12:21Z</time>
      </trkpt>
      <trkpt lat="47.38152" lon="5.98374">
        <ele>312.6</ele>
        <time>2012-05-24T15:12:26Z</time>
      </trkpt>
      <trkpt lat="47.3815" lon="5.98382">
        <ele>314.8</ele>
        <time>2012-05-24T15:12:30Z</time>
      </trkpt>
      <trkpt lat="47.38153" lon="5.98391">
        <ele>315.2</ele>
        <time>2012-05-24T15:12:36Z</time>
      </trkpt>
      <trkpt lat="47.38149" lon="5.984">
        <ele>315.8</ele>
        <time>2012-05-24T15:12:42Z</time>
      </trkpt>
      <trkpt lat="47.38146" lon="5.9841">
        <ele>317.8</ele>
        <time>2012-05-24T15:12:47Z</time>
      </trkpt>
      <trkpt lat="47.38144" lon="5.98419">
        <ele>317.8</ele>
        <time>2012-05-24T15:12:50Z</time>
      </trkpt>
      <trkpt lat="47.38134" lon="5.98425">
        <ele>316.2</ele>
        <time>2012-05-24T15:12:54Z</time>
      </trkpt>
      <trkpt lat="47.38128" lon="5.98432">
        <ele>316</ele>
        <time>2012-05-24T15:13:00Z</time>
      </trkpt>
      <trkpt lat="47.3812" lon="5.98436">
        <ele>315</ele>
        <time>2012-05-24T15:13:05Z</time>
      </trkpt>
      <trkpt lat="47.38113" lon="5.98438">
        <ele>315.5</ele>
        <time>2012-05-24T15:13:10Z</time>
      </trkpt>
      <trkpt lat="47.38106" lon="5.98439">
        <ele>315.7</ele>
        <time>2012-05-24T15:13:13Z</time>
      </trkpt>
      <trkpt lat="47.3811" lon="5.98428">
        <ele>314.2</ele>
        <time>2012-05-24T15:13:15Z</time>
      </trkpt>
      <trkpt lat="47.3811" lon="5.98428">
        <ele>264.9</ele>
        <time>2012-05-24T15:13:27Z</time>
      </trkpt>
      <trkpt lat="47.3811" lon="5.98428">
        <ele>264.9</ele>
        <time>2012-05-24T15:13:31Z</time>
      </trkpt>
      <trkpt lat="47.38097" lon="5.98432">
        <ele>312.7</ele>
        <time>2012-05-24T15:13:42Z</time>
      </trkpt>
      <trkpt lat="47.38097" lon="5.98432">
        <ele>264.2</ele>
        <time>2012-05-24T15:13:54Z</time>
      </trkpt>
      <trkpt lat="47.38097" lon="5.98432">
        <ele>264.2</ele>
        <time>2012-05-24T15:16:42Z</time>
      </trkpt>
      <trkpt lat="47.38097" lon="5.98432">
        <ele>264.2</ele>
        <time>2012-05-24T15:16:54Z</time>
      </trkpt>
    </trkseg>
    </trkseg>
  </trk>
</gpx>